<?xml version="1.0" encoding="UTF-8" standalone="no" ?>
<gpx xmlns="http://www.topografix.com/GPX/1/1" xmlns:xsi="http://www.w3.org/2001/XMLSchema-instance" xsi:schemaLocation="http://www.topografix.com/GPX/1/1 http://www.topografix.com/GPX/1/1/gpx.xsd" version="1.1" creator="VisuGPX - https://www.visugpx.com">
  <metadata>
    <name>64 - VTT - Monein - Circuit n° 11 deuxième partie</name>
    <desc><![CDATA[Soleil et chaleur. Des portions ne sont pas praticables en VTT. Piste noire ok cela ne veut pas dire qu\'il faut passer à pied. Il y aurait des meilleurs choix d\'itinéraires sur le terrain tout en gardant sa difficulté et la distance mais en passant sur le vélo.]]></desc>
  </metadata>
  <trk>
    <name><![CDATA[ACTIVE LOG]]></name>
    <trkseg>
      <trkpt lat="43.31564" lon="-0.58639">
        <ele>215.953247</ele>
        <time>2013-09-23T12:17:04Z</time>
      </trkpt>
      <trkpt lat="43.31564" lon="-0.58639">
        <ele>215.953247</ele>
        <time>2013-09-23T12:17:06Z</time>
      </trkpt>
      <trkpt lat="43.31564" lon="-0.58639">
        <ele>214.991943</ele>
        <time>2013-09-23T12:17:07Z</time>
      </trkpt>
      <trkpt lat="43.31566" lon="-0.58636">
        <ele>214.991943</ele>
        <time>2013-09-23T12:17:33Z</time>
      </trkpt>
      <trkpt lat="43.31566" lon="-0.58634">
        <ele>214.991943</ele>
        <time>2013-09-23T12:18:00Z</time>
      </trkpt>
      <trkpt lat="43.3157" lon="-0.58638">
        <ele>214.991943</ele>
        <time>2013-09-23T12:18:12Z</time>
      </trkpt>
      <trkpt lat="43.31583" lon="-0.5864">
        <ele>214.51123</ele>
        <time>2013-09-23T12:18:24Z</time>
      </trkpt>
      <trkpt lat="43.31588" lon="-0.58603">
        <ele>212.588623</ele>
        <time>2013-09-23T12:18:29Z</time>
      </trkpt>
      <trkpt lat="43.31584" lon="-0.58546">
        <ele>209.224121</ele>
        <time>2013-09-23T12:18:37Z</time>
      </trkpt>
      <trkpt lat="43.31601" lon="-0.58532">
        <ele>208.262817</ele>
        <time>2013-09-23T12:18:42Z</time>
      </trkpt>
      <trkpt lat="43.31634" lon="-0.58524">
        <ele>202.494873</ele>
        <time>2013-09-23T12:18:46Z</time>
      </trkpt>
      <trkpt lat="43.31666" lon="-0.5852">
        <ele>196.726929</ele>
        <time>2013-09-23T12:18:49Z</time>
      </trkpt>
      <trkpt lat="43.31688" lon="-0.58517">
        <ele>193.362305</ele>
        <time>2013-09-23T12:18:51Z</time>
      </trkpt>
      <trkpt lat="43.31717" lon="-0.58504">
        <ele>188.075073</ele>
        <time>2013-09-23T12:18:54Z</time>
      </trkpt>
      <trkpt lat="43.31753" lon="-0.58465">
        <ele>185.191162</ele>
        <time>2013-09-23T12:18:58Z</time>
      </trkpt>
      <trkpt lat="43.31787" lon="-0.58425">
        <ele>183.268433</ele>
        <time>2013-09-23T12:19:02Z</time>
      </trkpt>
      <trkpt lat="43.31822" lon="-0.58365">
        <ele>184.229858</ele>
        <time>2013-09-23T12:19:10Z</time>
      </trkpt>
      <trkpt lat="43.31848" lon="-0.58319">
        <ele>185.191162</ele>
        <time>2013-09-23T12:19:22Z</time>
      </trkpt>
      <trkpt lat="43.31865" lon="-0.58269">
        <ele>188.075073</ele>
        <time>2013-09-23T12:19:33Z</time>
      </trkpt>
      <trkpt lat="43.31891" lon="-0.5822">
        <ele>188.555786</ele>
        <time>2013-09-23T12:19:48Z</time>
      </trkpt>
      <trkpt lat="43.31895" lon="-0.58209">
        <ele>188.075073</ele>
        <time>2013-09-23T12:19:51Z</time>
      </trkpt>
      <trkpt lat="43.3191" lon="-0.58162">
        <ele>185.671753</ele>
        <time>2013-09-23T12:19:58Z</time>
      </trkpt>
      <trkpt lat="43.31935" lon="-0.58134">
        <ele>182.307129</ele>
        <time>2013-09-23T12:20:02Z</time>
      </trkpt>
      <trkpt lat="43.31959" lon="-0.5811">
        <ele>179.903809</ele>
        <time>2013-09-23T12:20:07Z</time>
      </trkpt>
      <trkpt lat="43.31976" lon="-0.58122">
        <ele>179.423218</ele>
        <time>2013-09-23T12:20:11Z</time>
      </trkpt>
      <trkpt lat="43.31983" lon="-0.5813">
        <ele>179.903809</ele>
        <time>2013-09-23T12:20:13Z</time>
      </trkpt>
      <trkpt lat="43.32015" lon="-0.58169">
        <ele>178.942627</ele>
        <time>2013-09-23T12:20:22Z</time>
      </trkpt>
      <trkpt lat="43.32025" lon="-0.58175">
        <ele>178.942627</ele>
        <time>2013-09-23T12:20:24Z</time>
      </trkpt>
      <trkpt lat="43.32082" lon="-0.58196">
        <ele>178.942627</ele>
        <time>2013-09-23T12:20:36Z</time>
      </trkpt>
      <trkpt lat="43.32131" lon="-0.58222">
        <ele>178.942627</ele>
        <time>2013-09-23T12:20:50Z</time>
      </trkpt>
      <trkpt lat="43.32143" lon="-0.58213">
        <ele>178.461914</ele>
        <time>2013-09-23T12:20:54Z</time>
      </trkpt>
      <trkpt lat="43.3215" lon="-0.58201">
        <ele>177.981201</ele>
        <time>2013-09-23T12:20:56Z</time>
      </trkpt>
      <trkpt lat="43.32185" lon="-0.58165">
        <ele>176.058594</ele>
        <time>2013-09-23T12:21:02Z</time>
      </trkpt>
      <trkpt lat="43.32205" lon="-0.5814">
        <ele>174.616577</ele>
        <time>2013-09-23T12:21:05Z</time>
      </trkpt>
      <trkpt lat="43.32216" lon="-0.5812">
        <ele>175.09729</ele>
        <time>2013-09-23T12:21:07Z</time>
      </trkpt>
      <trkpt lat="43.32226" lon="-0.58085">
        <ele>173.655273</ele>
        <time>2013-09-23T12:21:10Z</time>
      </trkpt>
      <trkpt lat="43.32229" lon="-0.58074">
        <ele>171.732666</ele>
        <time>2013-09-23T12:21:11Z</time>
      </trkpt>
      <trkpt lat="43.32227" lon="-0.58033">
        <ele>169.810059</ele>
        <time>2013-09-23T12:21:15Z</time>
      </trkpt>
      <trkpt lat="43.32221" lon="-0.57997">
        <ele>168.368042</ele>
        <time>2013-09-23T12:21:19Z</time>
      </trkpt>
      <trkpt lat="43.32224" lon="-0.57967">
        <ele>168.368042</ele>
        <time>2013-09-23T12:21:24Z</time>
      </trkpt>
      <trkpt lat="43.32222" lon="-0.57933">
        <ele>166.445313</ele>
        <time>2013-09-23T12:21:30Z</time>
      </trkpt>
      <trkpt lat="43.32224" lon="-0.57906">
        <ele>165.003418</ele>
        <time>2013-09-23T12:21:34Z</time>
      </trkpt>
      <trkpt lat="43.32247" lon="-0.57898">
        <ele>164.042114</ele>
        <time>2013-09-23T12:21:39Z</time>
      </trkpt>
      <trkpt lat="43.32261" lon="-0.57887">
        <ele>162.600098</ele>
        <time>2013-09-23T12:21:43Z</time>
      </trkpt>
      <trkpt lat="43.3227" lon="-0.57873">
        <ele>160.196899</ele>
        <time>2013-09-23T12:21:52Z</time>
      </trkpt>
      <trkpt lat="43.32271" lon="-0.57871">
        <ele>161.158203</ele>
        <time>2013-09-23T12:21:53Z</time>
      </trkpt>
      <trkpt lat="43.32315" lon="-0.57882">
        <ele>161.158203</ele>
        <time>2013-09-23T12:22:03Z</time>
      </trkpt>
      <trkpt lat="43.32415" lon="-0.57897">
        <ele>159.716187</ele>
        <time>2013-09-23T12:22:19Z</time>
      </trkpt>
      <trkpt lat="43.3248" lon="-0.57915">
        <ele>160.196899</ele>
        <time>2013-09-23T12:22:30Z</time>
      </trkpt>
      <trkpt lat="43.32553" lon="-0.57904">
        <ele>158.27417</ele>
        <time>2013-09-23T12:22:42Z</time>
      </trkpt>
      <trkpt lat="43.32577" lon="-0.57906">
        <ele>157.793579</ele>
        <time>2013-09-23T12:22:46Z</time>
      </trkpt>
      <trkpt lat="43.32588" lon="-0.57913">
        <ele>157.312866</ele>
        <time>2013-09-23T12:22:48Z</time>
      </trkpt>
      <trkpt lat="43.32597" lon="-0.57941">
        <ele>156.832153</ele>
        <time>2013-09-23T12:22:55Z</time>
      </trkpt>
      <trkpt lat="43.32581" lon="-0.57952">
        <ele>157.312866</ele>
        <time>2013-09-23T12:22:59Z</time>
      </trkpt>
      <trkpt lat="43.32489" lon="-0.57975">
        <ele>160.67749</ele>
        <time>2013-09-23T12:23:18Z</time>
      </trkpt>
      <trkpt lat="43.32482" lon="-0.57978">
        <ele>160.67749</ele>
        <time>2013-09-23T12:23:20Z</time>
      </trkpt>
      <trkpt lat="43.32484" lon="-0.57993">
        <ele>161.158203</ele>
        <time>2013-09-23T12:23:25Z</time>
      </trkpt>
      <trkpt lat="43.32524" lon="-0.5802">
        <ele>161.638916</ele>
        <time>2013-09-23T12:23:36Z</time>
      </trkpt>
      <trkpt lat="43.32534" lon="-0.58054">
        <ele>162.119507</ele>
        <time>2013-09-23T12:23:43Z</time>
      </trkpt>
      <trkpt lat="43.32533" lon="-0.58076">
        <ele>162.119507</ele>
        <time>2013-09-23T12:23:47Z</time>
      </trkpt>
      <trkpt lat="43.32545" lon="-0.58092">
        <ele>162.119507</ele>
        <time>2013-09-23T12:23:51Z</time>
      </trkpt>
      <trkpt lat="43.32578" lon="-0.58111">
        <ele>161.638916</ele>
        <time>2013-09-23T12:23:58Z</time>
      </trkpt>
      <trkpt lat="43.32593" lon="-0.58115">
        <ele>161.158203</ele>
        <time>2013-09-23T12:24:01Z</time>
      </trkpt>
      <trkpt lat="43.32615" lon="-0.58126">
        <ele>161.158203</ele>
        <time>2013-09-23T12:24:06Z</time>
      </trkpt>
      <trkpt lat="43.32625" lon="-0.58143">
        <ele>162.600098</ele>
        <time>2013-09-23T12:24:10Z</time>
      </trkpt>
      <trkpt lat="43.32644" lon="-0.5819">
        <ele>165.964722</ele>
        <time>2013-09-23T12:24:22Z</time>
      </trkpt>
      <trkpt lat="43.32668" lon="-0.58215">
        <ele>167.406738</ele>
        <time>2013-09-23T12:24:35Z</time>
      </trkpt>
      <trkpt lat="43.32715" lon="-0.58258">
        <ele>168.368042</ele>
        <time>2013-09-23T12:24:52Z</time>
      </trkpt>
      <trkpt lat="43.32778" lon="-0.58297">
        <ele>171.252075</ele>
        <time>2013-09-23T12:25:10Z</time>
      </trkpt>
      <trkpt lat="43.32845" lon="-0.58311">
        <ele>172.213257</ele>
        <time>2013-09-23T12:25:28Z</time>
      </trkpt>
      <trkpt lat="43.32891" lon="-0.58337">
        <ele>172.213257</ele>
        <time>2013-09-23T12:25:41Z</time>
      </trkpt>
      <trkpt lat="43.32923" lon="-0.58367">
        <ele>170.771362</ele>
        <time>2013-09-23T12:25:48Z</time>
      </trkpt>
      <trkpt lat="43.32972" lon="-0.58383">
        <ele>167.406738</ele>
        <time>2013-09-23T12:25:55Z</time>
      </trkpt>
      <trkpt lat="43.32993" lon="-0.5839">
        <ele>165.484131</ele>
        <time>2013-09-23T12:25:58Z</time>
      </trkpt>
      <trkpt lat="43.33008" lon="-0.58401">
        <ele>165.964722</ele>
        <time>2013-09-23T12:26:01Z</time>
      </trkpt>
      <trkpt lat="43.33062" lon="-0.58423">
        <ele>163.561523</ele>
        <time>2013-09-23T12:26:12Z</time>
      </trkpt>
      <trkpt lat="43.3312" lon="-0.58451">
        <ele>163.561523</ele>
        <time>2013-09-23T12:26:26Z</time>
      </trkpt>
      <trkpt lat="43.33135" lon="-0.58451">
        <ele>163.561523</ele>
        <time>2013-09-23T12:26:29Z</time>
      </trkpt>
      <trkpt lat="43.33169" lon="-0.58465">
        <ele>163.080811</ele>
        <time>2013-09-23T12:26:36Z</time>
      </trkpt>
      <trkpt lat="43.332" lon="-0.58497">
        <ele>159.235474</ele>
        <time>2013-09-23T12:26:42Z</time>
      </trkpt>
      <trkpt lat="43.3323" lon="-0.58538">
        <ele>156.351563</ele>
        <time>2013-09-23T12:26:47Z</time>
      </trkpt>
      <trkpt lat="43.33266" lon="-0.58569">
        <ele>159.235474</ele>
        <time>2013-09-23T12:26:55Z</time>
      </trkpt>
      <trkpt lat="43.33291" lon="-0.58596">
        <ele>162.119507</ele>
        <time>2013-09-23T12:27:07Z</time>
      </trkpt>
      <trkpt lat="43.33338" lon="-0.58629">
        <ele>163.561523</ele>
        <time>2013-09-23T12:27:23Z</time>
      </trkpt>
      <trkpt lat="43.33397" lon="-0.58683">
        <ele>164.522705</ele>
        <time>2013-09-23T12:27:42Z</time>
      </trkpt>
      <trkpt lat="43.33469" lon="-0.58757">
        <ele>165.003418</ele>
        <time>2013-09-23T12:28:05Z</time>
      </trkpt>
      <trkpt lat="43.33515" lon="-0.58802">
        <ele>167.887329</ele>
        <time>2013-09-23T12:28:21Z</time>
      </trkpt>
      <trkpt lat="43.3355" lon="-0.58833">
        <ele>171.252075</ele>
        <time>2013-09-23T12:28:36Z</time>
      </trkpt>
      <trkpt lat="43.33586" lon="-0.58872">
        <ele>172.69397</ele>
        <time>2013-09-23T12:28:52Z</time>
      </trkpt>
      <trkpt lat="43.33619" lon="-0.58904">
        <ele>172.69397</ele>
        <time>2013-09-23T12:29:02Z</time>
      </trkpt>
      <trkpt lat="43.3364" lon="-0.58912">
        <ele>171.732666</ele>
        <time>2013-09-23T12:29:06Z</time>
      </trkpt>
      <trkpt lat="43.33655" lon="-0.58914">
        <ele>169.810059</ele>
        <time>2013-09-23T12:29:08Z</time>
      </trkpt>
      <trkpt lat="43.33695" lon="-0.58932">
        <ele>165.964722</ele>
        <time>2013-09-23T12:29:13Z</time>
      </trkpt>
      <trkpt lat="43.33704" lon="-0.58937">
        <ele>166.445313</ele>
        <time>2013-09-23T12:29:14Z</time>
      </trkpt>
      <trkpt lat="43.33737" lon="-0.58957">
        <ele>162.600098</ele>
        <time>2013-09-23T12:29:18Z</time>
      </trkpt>
      <trkpt lat="43.33758" lon="-0.58968">
        <ele>159.235474</ele>
        <time>2013-09-23T12:29:21Z</time>
      </trkpt>
      <trkpt lat="43.33763" lon="-0.5897">
        <ele>159.235474</ele>
        <time>2013-09-23T12:29:22Z</time>
      </trkpt>
      <trkpt lat="43.3381" lon="-0.58944">
        <ele>156.351563</ele>
        <time>2013-09-23T12:29:30Z</time>
      </trkpt>
      <trkpt lat="43.33819" lon="-0.58929">
        <ele>156.351563</ele>
        <time>2013-09-23T12:29:32Z</time>
      </trkpt>
      <trkpt lat="43.33829" lon="-0.58904">
        <ele>154.909546</ele>
        <time>2013-09-23T12:29:37Z</time>
      </trkpt>
      <trkpt lat="43.3385" lon="-0.58912">
        <ele>154.428955</ele>
        <time>2013-09-23T12:29:45Z</time>
      </trkpt>
      <trkpt lat="43.3392" lon="-0.58994">
        <ele>154.428955</ele>
        <time>2013-09-23T12:30:01Z</time>
      </trkpt>
      <trkpt lat="43.33992" lon="-0.59044">
        <ele>155.390259</ele>
        <time>2013-09-23T12:30:19Z</time>
      </trkpt>
      <trkpt lat="43.34081" lon="-0.59054">
        <ele>155.390259</ele>
        <time>2013-09-23T12:30:37Z</time>
      </trkpt>
      <trkpt lat="43.34183" lon="-0.59062">
        <ele>154.909546</ele>
        <time>2013-09-23T12:30:57Z</time>
      </trkpt>
      <trkpt lat="43.34287" lon="-0.59072">
        <ele>153.948364</ele>
        <time>2013-09-23T12:31:15Z</time>
      </trkpt>
      <trkpt lat="43.34356" lon="-0.59103">
        <ele>153.467651</ele>
        <time>2013-09-23T12:31:28Z</time>
      </trkpt>
      <trkpt lat="43.344" lon="-0.5914">
        <ele>153.948364</ele>
        <time>2013-09-23T12:31:37Z</time>
      </trkpt>
      <trkpt lat="43.34419" lon="-0.59133">
        <ele>152.506348</ele>
        <time>2013-09-23T12:31:44Z</time>
      </trkpt>
      <trkpt lat="43.34419" lon="-0.59133">
        <ele>152.025757</ele>
        <time>2013-09-23T12:31:58Z</time>
      </trkpt>
      <trkpt lat="43.34424" lon="-0.59136">
        <ele>152.025757</ele>
        <time>2013-09-23T12:32:02Z</time>
      </trkpt>
      <trkpt lat="43.34437" lon="-0.5915">
        <ele>152.506348</ele>
        <time>2013-09-23T12:32:07Z</time>
      </trkpt>
      <trkpt lat="43.34479" lon="-0.59189">
        <ele>153.467651</ele>
        <time>2013-09-23T12:32:21Z</time>
      </trkpt>
      <trkpt lat="43.34546" lon="-0.59236">
        <ele>155.870972</ele>
        <time>2013-09-23T12:32:39Z</time>
      </trkpt>
      <trkpt lat="43.34633" lon="-0.59306">
        <ele>157.793579</ele>
        <time>2013-09-23T12:33:02Z</time>
      </trkpt>
      <trkpt lat="43.34686" lon="-0.59363">
        <ele>154.909546</ele>
        <time>2013-09-23T12:33:15Z</time>
      </trkpt>
      <trkpt lat="43.34693" lon="-0.59371">
        <ele>154.909546</ele>
        <time>2013-09-23T12:33:17Z</time>
      </trkpt>
      <trkpt lat="43.34715" lon="-0.59355">
        <ele>153.467651</ele>
        <time>2013-09-23T12:33:24Z</time>
      </trkpt>
      <trkpt lat="43.34719" lon="-0.59318">
        <ele>152.506348</ele>
        <time>2013-09-23T12:33:29Z</time>
      </trkpt>
      <trkpt lat="43.34738" lon="-0.59288">
        <ele>150.103027</ele>
        <time>2013-09-23T12:33:34Z</time>
      </trkpt>
      <trkpt lat="43.34771" lon="-0.59267">
        <ele>148.18042</ele>
        <time>2013-09-23T12:33:40Z</time>
      </trkpt>
      <trkpt lat="43.3479" lon="-0.5922">
        <ele>146.738403</ele>
        <time>2013-09-23T12:33:47Z</time>
      </trkpt>
      <trkpt lat="43.34816" lon="-0.5921">
        <ele>146.257813</ele>
        <time>2013-09-23T12:33:53Z</time>
      </trkpt>
      <trkpt lat="43.34822" lon="-0.59212">
        <ele>145.7771</ele>
        <time>2013-09-23T12:33:54Z</time>
      </trkpt>
      <trkpt lat="43.34899" lon="-0.59244">
        <ele>145.7771</ele>
        <time>2013-09-23T12:34:10Z</time>
      </trkpt>
      <trkpt lat="43.34986" lon="-0.59286">
        <ele>145.296387</ele>
        <time>2013-09-23T12:34:29Z</time>
      </trkpt>
      <trkpt lat="43.35086" lon="-0.59332">
        <ele>144.815796</ele>
        <time>2013-09-23T12:34:50Z</time>
      </trkpt>
      <trkpt lat="43.35153" lon="-0.59344">
        <ele>144.815796</ele>
        <time>2013-09-23T12:35:05Z</time>
      </trkpt>
      <trkpt lat="43.35209" lon="-0.59344">
        <ele>144.335205</ele>
        <time>2013-09-23T12:35:17Z</time>
      </trkpt>
      <trkpt lat="43.35252" lon="-0.59313">
        <ele>142.412476</ele>
        <time>2013-09-23T12:35:26Z</time>
      </trkpt>
      <trkpt lat="43.35266" lon="-0.59322">
        <ele>142.893066</ele>
        <time>2013-09-23T12:35:29Z</time>
      </trkpt>
      <trkpt lat="43.35292" lon="-0.59342">
        <ele>143.373657</ele>
        <time>2013-09-23T12:35:35Z</time>
      </trkpt>
      <trkpt lat="43.35304" lon="-0.59352">
        <ele>143.373657</ele>
        <time>2013-09-23T12:35:38Z</time>
      </trkpt>
      <trkpt lat="43.35313" lon="-0.59356">
        <ele>142.893066</ele>
        <time>2013-09-23T12:35:40Z</time>
      </trkpt>
      <trkpt lat="43.35383" lon="-0.59373">
        <ele>141.45105</ele>
        <time>2013-09-23T12:35:54Z</time>
      </trkpt>
      <trkpt lat="43.354" lon="-0.59391">
        <ele>139.047852</ele>
        <time>2013-09-23T12:35:58Z</time>
      </trkpt>
      <trkpt lat="43.35408" lon="-0.59406">
        <ele>136.644653</ele>
        <time>2013-09-23T12:36:00Z</time>
      </trkpt>
      <trkpt lat="43.35431" lon="-0.59438">
        <ele>133.760498</ele>
        <time>2013-09-23T12:36:05Z</time>
      </trkpt>
      <trkpt lat="43.35446" lon="-0.5946">
        <ele>132.318604</ele>
        <time>2013-09-23T12:36:08Z</time>
      </trkpt>
      <trkpt lat="43.35455" lon="-0.59472">
        <ele>130.395996</ele>
        <time>2013-09-23T12:36:10Z</time>
      </trkpt>
      <trkpt lat="43.35458" lon="-0.59478">
        <ele>129.915283</ele>
        <time>2013-09-23T12:36:11Z</time>
      </trkpt>
      <trkpt lat="43.35481" lon="-0.59485">
        <ele>128.473389</ele>
        <time>2013-09-23T12:36:16Z</time>
      </trkpt>
      <trkpt lat="43.35514" lon="-0.59478">
        <ele>127.511963</ele>
        <time>2013-09-23T12:36:22Z</time>
      </trkpt>
      <trkpt lat="43.35536" lon="-0.59468">
        <ele>127.511963</ele>
        <time>2013-09-23T12:36:26Z</time>
      </trkpt>
      <trkpt lat="43.35546" lon="-0.59461">
        <ele>127.992554</ele>
        <time>2013-09-23T12:36:28Z</time>
      </trkpt>
      <trkpt lat="43.35563" lon="-0.59441">
        <ele>127.511963</ele>
        <time>2013-09-23T12:36:32Z</time>
      </trkpt>
      <trkpt lat="43.35597" lon="-0.59383">
        <ele>127.031372</ele>
        <time>2013-09-23T12:36:41Z</time>
      </trkpt>
      <trkpt lat="43.35614" lon="-0.59364">
        <ele>127.031372</ele>
        <time>2013-09-23T12:36:45Z</time>
      </trkpt>
      <trkpt lat="43.35691" lon="-0.5929">
        <ele>127.031372</ele>
        <time>2013-09-23T12:37:02Z</time>
      </trkpt>
      <trkpt lat="43.35758" lon="-0.59235">
        <ele>127.511963</ele>
        <time>2013-09-23T12:37:16Z</time>
      </trkpt>
      <trkpt lat="43.35777" lon="-0.59222">
        <ele>128.473389</ele>
        <time>2013-09-23T12:37:20Z</time>
      </trkpt>
      <trkpt lat="43.35805" lon="-0.59209">
        <ele>128.473389</ele>
        <time>2013-09-23T12:37:26Z</time>
      </trkpt>
      <trkpt lat="43.35813" lon="-0.59191">
        <ele>127.511963</ele>
        <time>2013-09-23T12:37:30Z</time>
      </trkpt>
      <trkpt lat="43.35815" lon="-0.59156">
        <ele>127.031372</ele>
        <time>2013-09-23T12:37:36Z</time>
      </trkpt>
      <trkpt lat="43.358" lon="-0.59121">
        <ele>127.511963</ele>
        <time>2013-09-23T12:37:43Z</time>
      </trkpt>
      <trkpt lat="43.35767" lon="-0.59097">
        <ele>126.550659</ele>
        <time>2013-09-23T12:37:51Z</time>
      </trkpt>
      <trkpt lat="43.35758" lon="-0.59056">
        <ele>127.992554</ele>
        <time>2013-09-23T12:37:58Z</time>
      </trkpt>
      <trkpt lat="43.35754" lon="-0.58973">
        <ele>127.511963</ele>
        <time>2013-09-23T12:38:10Z</time>
      </trkpt>
      <trkpt lat="43.35749" lon="-0.58957">
        <ele>127.511963</ele>
        <time>2013-09-23T12:38:13Z</time>
      </trkpt>
      <trkpt lat="43.3571" lon="-0.58924">
        <ele>127.031372</ele>
        <time>2013-09-23T12:38:24Z</time>
      </trkpt>
      <trkpt lat="43.35684" lon="-0.58908">
        <ele>127.992554</ele>
        <time>2013-09-23T12:38:30Z</time>
      </trkpt>
      <trkpt lat="43.35642" lon="-0.58885">
        <ele>127.031372</ele>
        <time>2013-09-23T12:38:41Z</time>
      </trkpt>
      <trkpt lat="43.35607" lon="-0.58867">
        <ele>127.511963</ele>
        <time>2013-09-23T12:38:50Z</time>
      </trkpt>
      <trkpt lat="43.35603" lon="-0.58843">
        <ele>127.511963</ele>
        <time>2013-09-23T12:38:55Z</time>
      </trkpt>
      <trkpt lat="43.35599" lon="-0.58816">
        <ele>127.511963</ele>
        <time>2013-09-23T12:39:00Z</time>
      </trkpt>
      <trkpt lat="43.35584" lon="-0.5878">
        <ele>127.031372</ele>
        <time>2013-09-23T12:39:08Z</time>
      </trkpt>
      <trkpt lat="43.35582" lon="-0.58741">
        <ele>127.992554</ele>
        <time>2013-09-23T12:39:15Z</time>
      </trkpt>
      <trkpt lat="43.35582" lon="-0.58728">
        <ele>127.031372</ele>
        <time>2013-09-23T12:39:17Z</time>
      </trkpt>
      <trkpt lat="43.35577" lon="-0.58681">
        <ele>127.031372</ele>
        <time>2013-09-23T12:39:25Z</time>
      </trkpt>
      <trkpt lat="43.35571" lon="-0.58649">
        <ele>127.511963</ele>
        <time>2013-09-23T12:39:31Z</time>
      </trkpt>
      <trkpt lat="43.35567" lon="-0.5862">
        <ele>127.992554</ele>
        <time>2013-09-23T12:39:36Z</time>
      </trkpt>
      <trkpt lat="43.35563" lon="-0.5856">
        <ele>127.992554</ele>
        <time>2013-09-23T12:39:46Z</time>
      </trkpt>
      <trkpt lat="43.35572" lon="-0.58522">
        <ele>127.511963</ele>
        <time>2013-09-23T12:39:53Z</time>
      </trkpt>
      <trkpt lat="43.35584" lon="-0.58502">
        <ele>127.992554</ele>
        <time>2013-09-23T12:39:57Z</time>
      </trkpt>
      <trkpt lat="43.35598" lon="-0.58475">
        <ele>126.550659</ele>
        <time>2013-09-23T12:40:02Z</time>
      </trkpt>
      <trkpt lat="43.35605" lon="-0.58452">
        <ele>127.511963</ele>
        <time>2013-09-23T12:40:06Z</time>
      </trkpt>
      <trkpt lat="43.35609" lon="-0.58427">
        <ele>127.511963</ele>
        <time>2013-09-23T12:40:10Z</time>
      </trkpt>
      <trkpt lat="43.35611" lon="-0.58402">
        <ele>127.031372</ele>
        <time>2013-09-23T12:40:14Z</time>
      </trkpt>
      <trkpt lat="43.35615" lon="-0.5835">
        <ele>127.992554</ele>
        <time>2013-09-23T12:40:22Z</time>
      </trkpt>
      <trkpt lat="43.35617" lon="-0.58337">
        <ele>127.511963</ele>
        <time>2013-09-23T12:40:24Z</time>
      </trkpt>
      <trkpt lat="43.35622" lon="-0.58321">
        <ele>126.550659</ele>
        <time>2013-09-23T12:40:27Z</time>
      </trkpt>
      <trkpt lat="43.35655" lon="-0.58302">
        <ele>127.031372</ele>
        <time>2013-09-23T12:40:36Z</time>
      </trkpt>
      <trkpt lat="43.35662" lon="-0.58281">
        <ele>127.511963</ele>
        <time>2013-09-23T12:40:42Z</time>
      </trkpt>
      <trkpt lat="43.35653" lon="-0.58201">
        <ele>128.473389</ele>
        <time>2013-09-23T12:40:55Z</time>
      </trkpt>
      <trkpt lat="43.35652" lon="-0.58194">
        <ele>128.473389</ele>
        <time>2013-09-23T12:40:56Z</time>
      </trkpt>
      <trkpt lat="43.35676" lon="-0.58088">
        <ele>129.434692</ele>
        <time>2013-09-23T12:41:12Z</time>
      </trkpt>
      <trkpt lat="43.35728" lon="-0.57902">
        <ele>129.915283</ele>
        <time>2013-09-23T12:41:39Z</time>
      </trkpt>
      <trkpt lat="43.35778" lon="-0.57726">
        <ele>129.434692</ele>
        <time>2013-09-23T12:42:04Z</time>
      </trkpt>
      <trkpt lat="43.3581" lon="-0.57612">
        <ele>128.954102</ele>
        <time>2013-09-23T12:42:21Z</time>
      </trkpt>
      <trkpt lat="43.35808" lon="-0.57581">
        <ele>128.473389</ele>
        <time>2013-09-23T12:42:25Z</time>
      </trkpt>
      <trkpt lat="43.3578" lon="-0.57469">
        <ele>128.473389</ele>
        <time>2013-09-23T12:42:40Z</time>
      </trkpt>
      <trkpt lat="43.35769" lon="-0.57444">
        <ele>128.473389</ele>
        <time>2013-09-23T12:42:44Z</time>
      </trkpt>
      <trkpt lat="43.3575" lon="-0.5735">
        <ele>127.992554</ele>
        <time>2013-09-23T12:42:58Z</time>
      </trkpt>
      <trkpt lat="43.35742" lon="-0.57311">
        <ele>127.992554</ele>
        <time>2013-09-23T12:43:04Z</time>
      </trkpt>
      <trkpt lat="43.35701" lon="-0.57215">
        <ele>127.511963</ele>
        <time>2013-09-23T12:43:21Z</time>
      </trkpt>
      <trkpt lat="43.35666" lon="-0.57075">
        <ele>127.992554</ele>
        <time>2013-09-23T12:43:44Z</time>
      </trkpt>
      <trkpt lat="43.35674" lon="-0.56965">
        <ele>127.992554</ele>
        <time>2013-09-23T12:44:01Z</time>
      </trkpt>
      <trkpt lat="43.35693" lon="-0.56862">
        <ele>127.992554</ele>
        <time>2013-09-23T12:44:19Z</time>
      </trkpt>
      <trkpt lat="43.35714" lon="-0.56763">
        <ele>128.954102</ele>
        <time>2013-09-23T12:44:36Z</time>
      </trkpt>
      <trkpt lat="43.35715" lon="-0.56758">
        <ele>129.434692</ele>
        <time>2013-09-23T12:44:37Z</time>
      </trkpt>
      <trkpt lat="43.35726" lon="-0.56728">
        <ele>128.954102</ele>
        <time>2013-09-23T12:44:43Z</time>
      </trkpt>
      <trkpt lat="43.35722" lon="-0.56689">
        <ele>128.954102</ele>
        <time>2013-09-23T12:44:50Z</time>
      </trkpt>
      <trkpt lat="43.35691" lon="-0.56596">
        <ele>129.915283</ele>
        <time>2013-09-23T12:45:06Z</time>
      </trkpt>
      <trkpt lat="43.35693" lon="-0.56564">
        <ele>129.434692</ele>
        <time>2013-09-23T12:45:11Z</time>
      </trkpt>
      <trkpt lat="43.35697" lon="-0.56552">
        <ele>129.434692</ele>
        <time>2013-09-23T12:45:13Z</time>
      </trkpt>
      <trkpt lat="43.35697" lon="-0.56525">
        <ele>129.434692</ele>
        <time>2013-09-23T12:45:17Z</time>
      </trkpt>
      <trkpt lat="43.35693" lon="-0.56498">
        <ele>128.954102</ele>
        <time>2013-09-23T12:45:21Z</time>
      </trkpt>
      <trkpt lat="43.3568" lon="-0.56389">
        <ele>128.954102</ele>
        <time>2013-09-23T12:45:38Z</time>
      </trkpt>
      <trkpt lat="43.35672" lon="-0.56337">
        <ele>129.915283</ele>
        <time>2013-09-23T12:45:47Z</time>
      </trkpt>
      <trkpt lat="43.35688" lon="-0.56294">
        <ele>129.915283</ele>
        <time>2013-09-23T12:45:55Z</time>
      </trkpt>
      <trkpt lat="43.35743" lon="-0.56243">
        <ele>130.395996</ele>
        <time>2013-09-23T12:46:09Z</time>
      </trkpt>
      <trkpt lat="43.35743" lon="-0.56204">
        <ele>130.395996</ele>
        <time>2013-09-23T12:46:16Z</time>
      </trkpt>
      <trkpt lat="43.35737" lon="-0.56174">
        <ele>130.395996</ele>
        <time>2013-09-23T12:46:21Z</time>
      </trkpt>
      <trkpt lat="43.35743" lon="-0.56148">
        <ele>130.395996</ele>
        <time>2013-09-23T12:46:25Z</time>
      </trkpt>
      <trkpt lat="43.35737" lon="-0.56098">
        <ele>129.915283</ele>
        <time>2013-09-23T12:46:33Z</time>
      </trkpt>
      <trkpt lat="43.35727" lon="-0.56075">
        <ele>131.3573</ele>
        <time>2013-09-23T12:46:37Z</time>
      </trkpt>
      <trkpt lat="43.3569" lon="-0.56034">
        <ele>131.837891</ele>
        <time>2013-09-23T12:46:47Z</time>
      </trkpt>
      <trkpt lat="43.35672" lon="-0.56027">
        <ele>132.318604</ele>
        <time>2013-09-23T12:46:51Z</time>
      </trkpt>
      <trkpt lat="43.35657" lon="-0.56024">
        <ele>131.837891</ele>
        <time>2013-09-23T12:46:54Z</time>
      </trkpt>
      <trkpt lat="43.35612" lon="-0.55986">
        <ele>131.3573</ele>
        <time>2013-09-23T12:47:04Z</time>
      </trkpt>
      <trkpt lat="43.35579" lon="-0.55868">
        <ele>131.3573</ele>
        <time>2013-09-23T12:47:21Z</time>
      </trkpt>
      <trkpt lat="43.35578" lon="-0.55861">
        <ele>131.837891</ele>
        <time>2013-09-23T12:47:22Z</time>
      </trkpt>
      <trkpt lat="43.35513" lon="-0.55748">
        <ele>132.318604</ele>
        <time>2013-09-23T12:47:42Z</time>
      </trkpt>
      <trkpt lat="43.35465" lon="-0.55674">
        <ele>135.683105</ele>
        <time>2013-09-23T12:47:57Z</time>
      </trkpt>
      <trkpt lat="43.35459" lon="-0.55667">
        <ele>135.683105</ele>
        <time>2013-09-23T12:47:59Z</time>
      </trkpt>
      <trkpt lat="43.35453" lon="-0.55658">
        <ele>136.644653</ele>
        <time>2013-09-23T12:48:01Z</time>
      </trkpt>
      <trkpt lat="43.35439" lon="-0.55636">
        <ele>135.202515</ele>
        <time>2013-09-23T12:48:05Z</time>
      </trkpt>
      <trkpt lat="43.35416" lon="-0.55565">
        <ele>135.683105</ele>
        <time>2013-09-23T12:48:16Z</time>
      </trkpt>
      <trkpt lat="43.35404" lon="-0.55545">
        <ele>135.202515</ele>
        <time>2013-09-23T12:48:20Z</time>
      </trkpt>
      <trkpt lat="43.35392" lon="-0.55533">
        <ele>135.683105</ele>
        <time>2013-09-23T12:48:23Z</time>
      </trkpt>
      <trkpt lat="43.35365" lon="-0.55519">
        <ele>134.241211</ele>
        <time>2013-09-23T12:48:28Z</time>
      </trkpt>
      <trkpt lat="43.35352" lon="-0.55516">
        <ele>133.279907</ele>
        <time>2013-09-23T12:48:30Z</time>
      </trkpt>
      <trkpt lat="43.35327" lon="-0.55504">
        <ele>131.837891</ele>
        <time>2013-09-23T12:48:34Z</time>
      </trkpt>
      <trkpt lat="43.35303" lon="-0.55477">
        <ele>132.799316</ele>
        <time>2013-09-23T12:48:39Z</time>
      </trkpt>
      <trkpt lat="43.35248" lon="-0.55385">
        <ele>131.837891</ele>
        <time>2013-09-23T12:48:56Z</time>
      </trkpt>
      <trkpt lat="43.35227" lon="-0.55342">
        <ele>131.837891</ele>
        <time>2013-09-23T12:49:03Z</time>
      </trkpt>
      <trkpt lat="43.35221" lon="-0.55263">
        <ele>133.760498</ele>
        <time>2013-09-23T12:49:16Z</time>
      </trkpt>
      <trkpt lat="43.35211" lon="-0.55218">
        <ele>134.721924</ele>
        <time>2013-09-23T12:49:24Z</time>
      </trkpt>
      <trkpt lat="43.35186" lon="-0.55175">
        <ele>135.202515</ele>
        <time>2013-09-23T12:49:34Z</time>
      </trkpt>
      <trkpt lat="43.35157" lon="-0.55135">
        <ele>136.644653</ele>
        <time>2013-09-23T12:49:44Z</time>
      </trkpt>
      <trkpt lat="43.35109" lon="-0.55109">
        <ele>137.125244</ele>
        <time>2013-09-23T12:49:56Z</time>
      </trkpt>
      <trkpt lat="43.35041" lon="-0.55073">
        <ele>136.16394</ele>
        <time>2013-09-23T12:50:10Z</time>
      </trkpt>
      <trkpt lat="43.34991" lon="-0.55014">
        <ele>135.683105</ele>
        <time>2013-09-23T12:50:23Z</time>
      </trkpt>
      <trkpt lat="43.34977" lon="-0.54996">
        <ele>135.202515</ele>
        <time>2013-09-23T12:50:27Z</time>
      </trkpt>
      <trkpt lat="43.34968" lon="-0.54981">
        <ele>135.683105</ele>
        <time>2013-09-23T12:50:30Z</time>
      </trkpt>
      <trkpt lat="43.34943" lon="-0.54931">
        <ele>138.086548</ele>
        <time>2013-09-23T12:50:41Z</time>
      </trkpt>
      <trkpt lat="43.34897" lon="-0.54898">
        <ele>138.567261</ele>
        <time>2013-09-23T12:50:54Z</time>
      </trkpt>
      <trkpt lat="43.34883" lon="-0.54893">
        <ele>138.086548</ele>
        <time>2013-09-23T12:50:57Z</time>
      </trkpt>
      <trkpt lat="43.34857" lon="-0.5489">
        <ele>137.605835</ele>
        <time>2013-09-23T12:51:02Z</time>
      </trkpt>
      <trkpt lat="43.34841" lon="-0.54878">
        <ele>137.605835</ele>
        <time>2013-09-23T12:51:06Z</time>
      </trkpt>
      <trkpt lat="43.34829" lon="-0.54858">
        <ele>137.125244</ele>
        <time>2013-09-23T12:51:10Z</time>
      </trkpt>
      <trkpt lat="43.34825" lon="-0.54832">
        <ele>136.16394</ele>
        <time>2013-09-23T12:51:15Z</time>
      </trkpt>
      <trkpt lat="43.34821" lon="-0.54828">
        <ele>136.16394</ele>
        <time>2013-09-23T12:51:20Z</time>
      </trkpt>
      <trkpt lat="43.34809" lon="-0.54825">
        <ele>136.644653</ele>
        <time>2013-09-23T12:51:24Z</time>
      </trkpt>
      <trkpt lat="43.34766" lon="-0.54777">
        <ele>139.047852</ele>
        <time>2013-09-23T12:51:39Z</time>
      </trkpt>
      <trkpt lat="43.34759" lon="-0.54765">
        <ele>140.970459</ele>
        <time>2013-09-23T12:51:43Z</time>
      </trkpt>
      <trkpt lat="43.34719" lon="-0.54725">
        <ele>142.412476</ele>
        <time>2013-09-23T12:51:57Z</time>
      </trkpt>
      <trkpt lat="43.34693" lon="-0.54706">
        <ele>141.45105</ele>
        <time>2013-09-23T12:52:03Z</time>
      </trkpt>
      <trkpt lat="43.34673" lon="-0.54687">
        <ele>142.412476</ele>
        <time>2013-09-23T12:52:08Z</time>
      </trkpt>
      <trkpt lat="43.34644" lon="-0.54669">
        <ele>143.373657</ele>
        <time>2013-09-23T12:52:17Z</time>
      </trkpt>
      <trkpt lat="43.34628" lon="-0.54667">
        <ele>142.412476</ele>
        <time>2013-09-23T12:52:20Z</time>
      </trkpt>
      <trkpt lat="43.34608" lon="-0.5465">
        <ele>141.45105</ele>
        <time>2013-09-23T12:52:24Z</time>
      </trkpt>
      <trkpt lat="43.34602" lon="-0.54634">
        <ele>140.489868</ele>
        <time>2013-09-23T12:52:26Z</time>
      </trkpt>
      <trkpt lat="43.3459" lon="-0.54575">
        <ele>139.528442</ele>
        <time>2013-09-23T12:52:33Z</time>
      </trkpt>
      <trkpt lat="43.34562" lon="-0.54545">
        <ele>139.528442</ele>
        <time>2013-09-23T12:52:41Z</time>
      </trkpt>
      <trkpt lat="43.34543" lon="-0.54551">
        <ele>139.528442</ele>
        <time>2013-09-23T12:52:45Z</time>
      </trkpt>
      <trkpt lat="43.3453" lon="-0.5455">
        <ele>138.567261</ele>
        <time>2013-09-23T12:52:48Z</time>
      </trkpt>
      <trkpt lat="43.34516" lon="-0.54546">
        <ele>139.047852</ele>
        <time>2013-09-23T12:52:51Z</time>
      </trkpt>
      <trkpt lat="43.34496" lon="-0.54534">
        <ele>139.047852</ele>
        <time>2013-09-23T12:52:55Z</time>
      </trkpt>
      <trkpt lat="43.34471" lon="-0.54518">
        <ele>137.605835</ele>
        <time>2013-09-23T12:53:00Z</time>
      </trkpt>
      <trkpt lat="43.34456" lon="-0.54512">
        <ele>136.16394</ele>
        <time>2013-09-23T12:53:03Z</time>
      </trkpt>
      <trkpt lat="43.34409" lon="-0.54502">
        <ele>136.644653</ele>
        <time>2013-09-23T12:53:12Z</time>
      </trkpt>
      <trkpt lat="43.34394" lon="-0.54495">
        <ele>136.16394</ele>
        <time>2013-09-23T12:53:15Z</time>
      </trkpt>
      <trkpt lat="43.34384" lon="-0.54488">
        <ele>136.16394</ele>
        <time>2013-09-23T12:53:17Z</time>
      </trkpt>
      <trkpt lat="43.34331" lon="-0.54426">
        <ele>134.721924</ele>
        <time>2013-09-23T12:53:30Z</time>
      </trkpt>
      <trkpt lat="43.3432" lon="-0.54398">
        <ele>136.16394</ele>
        <time>2013-09-23T12:53:35Z</time>
      </trkpt>
      <trkpt lat="43.3429" lon="-0.5431">
        <ele>138.086548</ele>
        <time>2013-09-23T12:53:51Z</time>
      </trkpt>
      <trkpt lat="43.34269" lon="-0.5427">
        <ele>136.16394</ele>
        <time>2013-09-23T12:53:58Z</time>
      </trkpt>
      <trkpt lat="43.34243" lon="-0.5424">
        <ele>135.683105</ele>
        <time>2013-09-23T12:54:04Z</time>
      </trkpt>
      <trkpt lat="43.34207" lon="-0.54218">
        <ele>134.241211</ele>
        <time>2013-09-23T12:54:11Z</time>
      </trkpt>
      <trkpt lat="43.34146" lon="-0.54174">
        <ele>136.644653</ele>
        <time>2013-09-23T12:54:25Z</time>
      </trkpt>
      <trkpt lat="43.34108" lon="-0.54133">
        <ele>139.047852</ele>
        <time>2013-09-23T12:54:38Z</time>
      </trkpt>
      <trkpt lat="43.3407" lon="-0.54074">
        <ele>139.528442</ele>
        <time>2013-09-23T12:54:52Z</time>
      </trkpt>
      <trkpt lat="43.34024" lon="-0.54006">
        <ele>138.567261</ele>
        <time>2013-09-23T12:55:08Z</time>
      </trkpt>
      <trkpt lat="43.34026" lon="-0.54004">
        <ele>138.567261</ele>
        <time>2013-09-23T12:55:17Z</time>
      </trkpt>
      <trkpt lat="43.34027" lon="-0.5401">
        <ele>139.047852</ele>
        <time>2013-09-23T12:55:21Z</time>
      </trkpt>
      <trkpt lat="43.3403" lon="-0.54017">
        <ele>139.047852</ele>
        <time>2013-09-23T12:55:26Z</time>
      </trkpt>
      <trkpt lat="43.34039" lon="-0.54026">
        <ele>138.086548</ele>
        <time>2013-09-23T12:55:38Z</time>
      </trkpt>
      <trkpt lat="43.34009" lon="-0.5399">
        <ele>138.567261</ele>
        <time>2013-09-23T12:55:52Z</time>
      </trkpt>
      <trkpt lat="43.33994" lon="-0.53978">
        <ele>138.567261</ele>
        <time>2013-09-23T12:55:56Z</time>
      </trkpt>
      <trkpt lat="43.33986" lon="-0.53972">
        <ele>138.086548</ele>
        <time>2013-09-23T12:55:58Z</time>
      </trkpt>
      <trkpt lat="43.3394" lon="-0.53937">
        <ele>137.605835</ele>
        <time>2013-09-23T12:56:08Z</time>
      </trkpt>
      <trkpt lat="43.33922" lon="-0.53925">
        <ele>137.125244</ele>
        <time>2013-09-23T12:56:12Z</time>
      </trkpt>
      <trkpt lat="43.33874" lon="-0.53902">
        <ele>136.644653</ele>
        <time>2013-09-23T12:56:22Z</time>
      </trkpt>
      <trkpt lat="43.33837" lon="-0.53877">
        <ele>137.125244</ele>
        <time>2013-09-23T12:56:31Z</time>
      </trkpt>
      <trkpt lat="43.33814" lon="-0.53852">
        <ele>137.125244</ele>
        <time>2013-09-23T12:56:38Z</time>
      </trkpt>
      <trkpt lat="43.33798" lon="-0.53832">
        <ele>137.125244</ele>
        <time>2013-09-23T12:56:43Z</time>
      </trkpt>
      <trkpt lat="43.33765" lon="-0.5377">
        <ele>136.644653</ele>
        <time>2013-09-23T12:56:55Z</time>
      </trkpt>
      <trkpt lat="43.33732" lon="-0.5372">
        <ele>136.644653</ele>
        <time>2013-09-23T12:57:04Z</time>
      </trkpt>
      <trkpt lat="43.33721" lon="-0.53707">
        <ele>136.644653</ele>
        <time>2013-09-23T12:57:07Z</time>
      </trkpt>
      <trkpt lat="43.33698" lon="-0.53675">
        <ele>136.644653</ele>
        <time>2013-09-23T12:57:14Z</time>
      </trkpt>
      <trkpt lat="43.33693" lon="-0.53665">
        <ele>137.125244</ele>
        <time>2013-09-23T12:57:16Z</time>
      </trkpt>
      <trkpt lat="43.3365" lon="-0.53583">
        <ele>136.644653</ele>
        <time>2013-09-23T12:57:32Z</time>
      </trkpt>
      <trkpt lat="43.33634" lon="-0.53559">
        <ele>136.644653</ele>
        <time>2013-09-23T12:57:37Z</time>
      </trkpt>
      <trkpt lat="43.33606" lon="-0.53531">
        <ele>136.16394</ele>
        <time>2013-09-23T12:57:44Z</time>
      </trkpt>
      <trkpt lat="43.33549" lon="-0.53507">
        <ele>136.644653</ele>
        <time>2013-09-23T12:57:57Z</time>
      </trkpt>
      <trkpt lat="43.33516" lon="-0.53498">
        <ele>136.16394</ele>
        <time>2013-09-23T12:58:04Z</time>
      </trkpt>
      <trkpt lat="43.33437" lon="-0.53472">
        <ele>136.16394</ele>
        <time>2013-09-23T12:58:21Z</time>
      </trkpt>
      <trkpt lat="43.33429" lon="-0.53468">
        <ele>136.644653</ele>
        <time>2013-09-23T12:58:23Z</time>
      </trkpt>
      <trkpt lat="43.33417" lon="-0.53461">
        <ele>137.605835</ele>
        <time>2013-09-23T12:58:26Z</time>
      </trkpt>
      <trkpt lat="43.33398" lon="-0.53443">
        <ele>138.086548</ele>
        <time>2013-09-23T12:58:32Z</time>
      </trkpt>
      <trkpt lat="43.33381" lon="-0.53427">
        <ele>138.086548</ele>
        <time>2013-09-23T12:58:37Z</time>
      </trkpt>
      <trkpt lat="43.33354" lon="-0.53376">
        <ele>139.047852</ele>
        <time>2013-09-23T12:58:49Z</time>
      </trkpt>
      <trkpt lat="43.33328" lon="-0.53406">
        <ele>138.567261</ele>
        <time>2013-09-23T12:58:58Z</time>
      </trkpt>
      <trkpt lat="43.33235" lon="-0.5353">
        <ele>136.644653</ele>
        <time>2013-09-23T12:59:21Z</time>
      </trkpt>
      <trkpt lat="43.33154" lon="-0.53636">
        <ele>137.125244</ele>
        <time>2013-09-23T12:59:42Z</time>
      </trkpt>
      <trkpt lat="43.33084" lon="-0.53703">
        <ele>136.644653</ele>
        <time>2013-09-23T12:59:57Z</time>
      </trkpt>
      <trkpt lat="43.32987" lon="-0.53765">
        <ele>136.644653</ele>
        <time>2013-09-23T13:00:17Z</time>
      </trkpt>
      <trkpt lat="43.3293" lon="-0.53831">
        <ele>137.125244</ele>
        <time>2013-09-23T13:00:32Z</time>
      </trkpt>
      <trkpt lat="43.32893" lon="-0.53932">
        <ele>138.086548</ele>
        <time>2013-09-23T13:00:48Z</time>
      </trkpt>
      <trkpt lat="43.32856" lon="-0.54029">
        <ele>141.45105</ele>
        <time>2013-09-23T13:01:05Z</time>
      </trkpt>
      <trkpt lat="43.32801" lon="-0.54117">
        <ele>143.373657</ele>
        <time>2013-09-23T13:01:26Z</time>
      </trkpt>
      <trkpt lat="43.32744" lon="-0.54203">
        <ele>145.7771</ele>
        <time>2013-09-23T13:01:49Z</time>
      </trkpt>
      <trkpt lat="43.32731" lon="-0.54222">
        <ele>147.218994</ele>
        <time>2013-09-23T13:01:54Z</time>
      </trkpt>
      <trkpt lat="43.32665" lon="-0.54296">
        <ele>149.141602</ele>
        <time>2013-09-23T13:02:17Z</time>
      </trkpt>
      <trkpt lat="43.32607" lon="-0.54357">
        <ele>152.506348</ele>
        <time>2013-09-23T13:02:36Z</time>
      </trkpt>
      <trkpt lat="43.326" lon="-0.54361">
        <ele>152.506348</ele>
        <time>2013-09-23T13:02:38Z</time>
      </trkpt>
      <trkpt lat="43.32584" lon="-0.54348">
        <ele>152.506348</ele>
        <time>2013-09-23T13:02:43Z</time>
      </trkpt>
      <trkpt lat="43.32556" lon="-0.54286">
        <ele>155.870972</ele>
        <time>2013-09-23T13:02:58Z</time>
      </trkpt>
      <trkpt lat="43.32539" lon="-0.54244">
        <ele>158.27417</ele>
        <time>2013-09-23T13:03:13Z</time>
      </trkpt>
      <trkpt lat="43.32507" lon="-0.54224">
        <ele>162.119507</ele>
        <time>2013-09-23T13:03:31Z</time>
      </trkpt>
      <trkpt lat="43.32484" lon="-0.54232">
        <ele>165.003418</ele>
        <time>2013-09-23T13:03:44Z</time>
      </trkpt>
      <trkpt lat="43.32466" lon="-0.54231">
        <ele>167.887329</ele>
        <time>2013-09-23T13:03:55Z</time>
      </trkpt>
      <trkpt lat="43.32439" lon="-0.5424">
        <ele>171.252075</ele>
        <time>2013-09-23T13:04:13Z</time>
      </trkpt>
      <trkpt lat="43.32433" lon="-0.54244">
        <ele>172.69397</ele>
        <time>2013-09-23T13:04:18Z</time>
      </trkpt>
      <trkpt lat="43.32417" lon="-0.54262">
        <ele>176.058594</ele>
        <time>2013-09-23T13:04:32Z</time>
      </trkpt>
      <trkpt lat="43.32402" lon="-0.54272">
        <ele>178.942627</ele>
        <time>2013-09-23T13:04:43Z</time>
      </trkpt>
      <trkpt lat="43.3238" lon="-0.54288">
        <ele>180.865234</ele>
        <time>2013-09-23T13:04:57Z</time>
      </trkpt>
      <trkpt lat="43.32356" lon="-0.54315">
        <ele>183.268433</ele>
        <time>2013-09-23T13:05:12Z</time>
      </trkpt>
      <trkpt lat="43.3233" lon="-0.54352">
        <ele>186.633179</ele>
        <time>2013-09-23T13:05:32Z</time>
      </trkpt>
      <trkpt lat="43.32308" lon="-0.54366">
        <ele>189.997681</ele>
        <time>2013-09-23T13:05:46Z</time>
      </trkpt>
      <trkpt lat="43.32284" lon="-0.54376">
        <ele>191.920288</ele>
        <time>2013-09-23T13:06:01Z</time>
      </trkpt>
      <trkpt lat="43.32273" lon="-0.54376">
        <ele>193.362305</ele>
        <time>2013-09-23T13:06:09Z</time>
      </trkpt>
      <trkpt lat="43.32252" lon="-0.5437">
        <ele>195.765625</ele>
        <time>2013-09-23T13:06:23Z</time>
      </trkpt>
      <trkpt lat="43.3224" lon="-0.54366">
        <ele>199.130127</ele>
        <time>2013-09-23T13:06:31Z</time>
      </trkpt>
      <trkpt lat="43.32215" lon="-0.54358">
        <ele>202.014282</ele>
        <time>2013-09-23T13:06:50Z</time>
      </trkpt>
      <trkpt lat="43.32197" lon="-0.5435">
        <ele>205.859497</ele>
        <time>2013-09-23T13:07:04Z</time>
      </trkpt>
      <trkpt lat="43.32175" lon="-0.54338">
        <ele>208.743408</ele>
        <time>2013-09-23T13:07:21Z</time>
      </trkpt>
      <trkpt lat="43.32147" lon="-0.54326">
        <ele>211.627441</ele>
        <time>2013-09-23T13:07:41Z</time>
      </trkpt>
      <trkpt lat="43.3212" lon="-0.54323">
        <ele>214.991943</ele>
        <time>2013-09-23T13:07:58Z</time>
      </trkpt>
      <trkpt lat="43.32089" lon="-0.54321">
        <ele>216.914673</ele>
        <time>2013-09-23T13:08:18Z</time>
      </trkpt>
      <trkpt lat="43.32071" lon="-0.54329">
        <ele>220.759888</ele>
        <time>2013-09-23T13:08:31Z</time>
      </trkpt>
      <trkpt lat="43.32043" lon="-0.54337">
        <ele>222.682495</ele>
        <time>2013-09-23T13:08:48Z</time>
      </trkpt>
      <trkpt lat="43.32004" lon="-0.54332">
        <ele>225.566528</ele>
        <time>2013-09-23T13:09:08Z</time>
      </trkpt>
      <trkpt lat="43.3197" lon="-0.54341">
        <ele>228.450439</ele>
        <time>2013-09-23T13:09:25Z</time>
      </trkpt>
      <trkpt lat="43.31932" lon="-0.54349">
        <ele>229.411743</ele>
        <time>2013-09-23T13:09:44Z</time>
      </trkpt>
      <trkpt lat="43.31911" lon="-0.54359">
        <ele>232.295776</ele>
        <time>2013-09-23T13:09:56Z</time>
      </trkpt>
      <trkpt lat="43.3188" lon="-0.54386">
        <ele>235.179688</ele>
        <time>2013-09-23T13:10:14Z</time>
      </trkpt>
      <trkpt lat="43.31848" lon="-0.54419">
        <ele>237.582886</ele>
        <time>2013-09-23T13:10:34Z</time>
      </trkpt>
      <trkpt lat="43.31827" lon="-0.54436">
        <ele>240.467041</ele>
        <time>2013-09-23T13:10:48Z</time>
      </trkpt>
      <trkpt lat="43.31793" lon="-0.54428">
        <ele>241.428223</ele>
        <time>2013-09-23T13:11:04Z</time>
      </trkpt>
      <trkpt lat="43.31762" lon="-0.54419">
        <ele>243.831543</ele>
        <time>2013-09-23T13:11:18Z</time>
      </trkpt>
      <trkpt lat="43.3173" lon="-0.54406">
        <ele>244.792847</ele>
        <time>2013-09-23T13:11:32Z</time>
      </trkpt>
      <trkpt lat="43.31702" lon="-0.54387">
        <ele>246.715454</ele>
        <time>2013-09-23T13:11:46Z</time>
      </trkpt>
      <trkpt lat="43.31674" lon="-0.54387">
        <ele>249.599487</ele>
        <time>2013-09-23T13:11:59Z</time>
      </trkpt>
      <trkpt lat="43.31637" lon="-0.54382">
        <ele>253.444702</ele>
        <time>2013-09-23T13:12:18Z</time>
      </trkpt>
      <trkpt lat="43.31635" lon="-0.54381">
        <ele>253.444702</ele>
        <time>2013-09-23T13:12:19Z</time>
      </trkpt>
      <trkpt lat="43.31596" lon="-0.5438">
        <ele>257.290039</ele>
        <time>2013-09-23T13:12:39Z</time>
      </trkpt>
      <trkpt lat="43.31594" lon="-0.5438">
        <ele>257.290039</ele>
        <time>2013-09-23T13:12:40Z</time>
      </trkpt>
      <trkpt lat="43.31568" lon="-0.54378">
        <ele>260.17395</ele>
        <time>2013-09-23T13:12:55Z</time>
      </trkpt>
      <trkpt lat="43.31548" lon="-0.54372">
        <ele>262.577148</ele>
        <time>2013-09-23T13:13:09Z</time>
      </trkpt>
      <trkpt lat="43.31539" lon="-0.54365">
        <ele>264.499878</ele>
        <time>2013-09-23T13:13:16Z</time>
      </trkpt>
      <trkpt lat="43.31517" lon="-0.54354">
        <ele>267.383911</ele>
        <time>2013-09-23T13:13:31Z</time>
      </trkpt>
      <trkpt lat="43.31514" lon="-0.54353">
        <ele>268.345093</ele>
        <time>2013-09-23T13:13:33Z</time>
      </trkpt>
      <trkpt lat="43.31493" lon="-0.54348">
        <ele>271.229126</ele>
        <time>2013-09-23T13:13:46Z</time>
      </trkpt>
      <trkpt lat="43.31464" lon="-0.54339">
        <ele>274.59375</ele>
        <time>2013-09-23T13:14:05Z</time>
      </trkpt>
      <trkpt lat="43.31433" lon="-0.54336">
        <ele>275.555054</ele>
        <time>2013-09-23T13:14:23Z</time>
      </trkpt>
      <trkpt lat="43.31396" lon="-0.54324">
        <ele>276.99707</ele>
        <time>2013-09-23T13:14:40Z</time>
      </trkpt>
      <trkpt lat="43.31332" lon="-0.54303">
        <ele>278.438965</ele>
        <time>2013-09-23T13:15:00Z</time>
      </trkpt>
      <trkpt lat="43.3126" lon="-0.5428">
        <ele>281.322998</ele>
        <time>2013-09-23T13:15:22Z</time>
      </trkpt>
      <trkpt lat="43.31213" lon="-0.54259">
        <ele>283.245605</ele>
        <time>2013-09-23T13:15:37Z</time>
      </trkpt>
      <trkpt lat="43.31152" lon="-0.5423">
        <ele>285.168213</ele>
        <time>2013-09-23T13:15:55Z</time>
      </trkpt>
      <trkpt lat="43.3111" lon="-0.54203">
        <ele>286.610229</ele>
        <time>2013-09-23T13:16:09Z</time>
      </trkpt>
      <trkpt lat="43.31056" lon="-0.54175">
        <ele>289.01355</ele>
        <time>2013-09-23T13:16:26Z</time>
      </trkpt>
      <trkpt lat="43.31053" lon="-0.54175">
        <ele>288.532959</ele>
        <time>2013-09-23T13:16:27Z</time>
      </trkpt>
      <trkpt lat="43.31047" lon="-0.54189">
        <ele>288.532959</ele>
        <time>2013-09-23T13:16:31Z</time>
      </trkpt>
      <trkpt lat="43.31047" lon="-0.54194">
        <ele>287.571411</ele>
        <time>2013-09-23T13:16:34Z</time>
      </trkpt>
      <trkpt lat="43.31046" lon="-0.54198">
        <ele>287.571411</ele>
        <time>2013-09-23T13:17:06Z</time>
      </trkpt>
      <trkpt lat="43.31045" lon="-0.5421">
        <ele>288.052246</ele>
        <time>2013-09-23T13:17:09Z</time>
      </trkpt>
      <trkpt lat="43.31047" lon="-0.54244">
        <ele>285.168213</ele>
        <time>2013-09-23T13:17:14Z</time>
      </trkpt>
      <trkpt lat="43.31039" lon="-0.54266">
        <ele>281.322998</ele>
        <time>2013-09-23T13:17:18Z</time>
      </trkpt>
      <trkpt lat="43.31028" lon="-0.54278">
        <ele>280.361694</ele>
        <time>2013-09-23T13:17:23Z</time>
      </trkpt>
      <trkpt lat="43.3102" lon="-0.54268">
        <ele>281.322998</ele>
        <time>2013-09-23T13:17:28Z</time>
      </trkpt>
      <trkpt lat="43.31006" lon="-0.54232">
        <ele>285.648804</ele>
        <time>2013-09-23T13:17:38Z</time>
      </trkpt>
      <trkpt lat="43.30985" lon="-0.54178">
        <ele>288.532959</ele>
        <time>2013-09-23T13:17:53Z</time>
      </trkpt>
      <trkpt lat="43.30952" lon="-0.54118">
        <ele>292.378174</ele>
        <time>2013-09-23T13:18:13Z</time>
      </trkpt>
      <trkpt lat="43.30913" lon="-0.54092">
        <ele>292.378174</ele>
        <time>2013-09-23T13:18:27Z</time>
      </trkpt>
      <trkpt lat="43.30837" lon="-0.54058">
        <ele>289.494141</ele>
        <time>2013-09-23T13:18:44Z</time>
      </trkpt>
      <trkpt lat="43.30792" lon="-0.54047">
        <ele>287.571411</ele>
        <time>2013-09-23T13:18:50Z</time>
      </trkpt>
      <trkpt lat="43.30707" lon="-0.54014">
        <ele>284.206909</ele>
        <time>2013-09-23T13:19:00Z</time>
      </trkpt>
      <trkpt lat="43.30693" lon="-0.54001">
        <ele>284.687622</ele>
        <time>2013-09-23T13:19:02Z</time>
      </trkpt>
      <trkpt lat="43.30646" lon="-0.53913">
        <ele>281.803589</ele>
        <time>2013-09-23T13:19:13Z</time>
      </trkpt>
      <trkpt lat="43.30614" lon="-0.53873">
        <ele>279.400269</ele>
        <time>2013-09-23T13:19:23Z</time>
      </trkpt>
      <trkpt lat="43.30608" lon="-0.53872">
        <ele>280.361694</ele>
        <time>2013-09-23T13:19:24Z</time>
      </trkpt>
      <trkpt lat="43.30596" lon="-0.53869">
        <ele>277.477661</ele>
        <time>2013-09-23T13:19:26Z</time>
      </trkpt>
      <trkpt lat="43.30571" lon="-0.53828">
        <ele>275.074463</ele>
        <time>2013-09-23T13:19:33Z</time>
      </trkpt>
      <trkpt lat="43.30564" lon="-0.53758">
        <ele>270.748413</ele>
        <time>2013-09-23T13:19:40Z</time>
      </trkpt>
      <trkpt lat="43.30562" lon="-0.53748">
        <ele>270.748413</ele>
        <time>2013-09-23T13:19:41Z</time>
      </trkpt>
      <trkpt lat="43.30547" lon="-0.53689">
        <ele>267.383911</ele>
        <time>2013-09-23T13:19:47Z</time>
      </trkpt>
      <trkpt lat="43.30542" lon="-0.53673">
        <ele>265.941895</ele>
        <time>2013-09-23T13:19:49Z</time>
      </trkpt>
      <trkpt lat="43.30539" lon="-0.53666">
        <ele>264.499878</ele>
        <time>2013-09-23T13:19:50Z</time>
      </trkpt>
      <trkpt lat="43.30532" lon="-0.53655">
        <ele>263.538574</ele>
        <time>2013-09-23T13:19:52Z</time>
      </trkpt>
      <trkpt lat="43.30519" lon="-0.53639">
        <ele>259.693359</ele>
        <time>2013-09-23T13:19:55Z</time>
      </trkpt>
      <trkpt lat="43.30503" lon="-0.53624">
        <ele>256.328735</ele>
        <time>2013-09-23T13:19:58Z</time>
      </trkpt>
      <trkpt lat="43.3049" lon="-0.5361">
        <ele>252.483398</ele>
        <time>2013-09-23T13:20:01Z</time>
      </trkpt>
      <trkpt lat="43.30482" lon="-0.53601">
        <ele>252.002808</ele>
        <time>2013-09-23T13:20:03Z</time>
      </trkpt>
      <trkpt lat="43.30458" lon="-0.53566">
        <ele>249.118774</ele>
        <time>2013-09-23T13:20:08Z</time>
      </trkpt>
      <trkpt lat="43.30432" lon="-0.53525">
        <ele>246.234863</ele>
        <time>2013-09-23T13:20:14Z</time>
      </trkpt>
      <trkpt lat="43.30414" lon="-0.53504">
        <ele>245.75415</ele>
        <time>2013-09-23T13:20:18Z</time>
      </trkpt>
      <trkpt lat="43.30399" lon="-0.5349">
        <ele>244.792847</ele>
        <time>2013-09-23T13:20:21Z</time>
      </trkpt>
      <trkpt lat="43.30356" lon="-0.53439">
        <ele>243.35083</ele>
        <time>2013-09-23T13:20:30Z</time>
      </trkpt>
      <trkpt lat="43.30334" lon="-0.53405">
        <ele>240.947632</ele>
        <time>2013-09-23T13:20:35Z</time>
      </trkpt>
      <trkpt lat="43.3028" lon="-0.53334">
        <ele>238.544312</ele>
        <time>2013-09-23T13:20:47Z</time>
      </trkpt>
      <trkpt lat="43.30264" lon="-0.5332">
        <ele>238.063599</ele>
        <time>2013-09-23T13:20:50Z</time>
      </trkpt>
      <trkpt lat="43.30207" lon="-0.53255">
        <ele>238.063599</ele>
        <time>2013-09-23T13:21:05Z</time>
      </trkpt>
      <trkpt lat="43.30156" lon="-0.5322">
        <ele>240.467041</ele>
        <time>2013-09-23T13:21:21Z</time>
      </trkpt>
      <trkpt lat="43.30126" lon="-0.53207">
        <ele>243.831543</ele>
        <time>2013-09-23T13:21:32Z</time>
      </trkpt>
      <trkpt lat="43.30109" lon="-0.53199">
        <ele>244.792847</ele>
        <time>2013-09-23T13:21:40Z</time>
      </trkpt>
      <trkpt lat="43.30064" lon="-0.53178">
        <ele>248.638184</ele>
        <time>2013-09-23T13:22:02Z</time>
      </trkpt>
      <trkpt lat="43.30018" lon="-0.53155">
        <ele>247.196045</ele>
        <time>2013-09-23T13:22:18Z</time>
      </trkpt>
      <trkpt lat="43.29943" lon="-0.53119">
        <ele>246.234863</ele>
        <time>2013-09-23T13:22:35Z</time>
      </trkpt>
      <trkpt lat="43.29889" lon="-0.5309">
        <ele>245.75415</ele>
        <time>2013-09-23T13:22:49Z</time>
      </trkpt>
      <trkpt lat="43.29886" lon="-0.53077">
        <ele>244.792847</ele>
        <time>2013-09-23T13:22:53Z</time>
      </trkpt>
      <trkpt lat="43.29897" lon="-0.53028">
        <ele>241.428223</ele>
        <time>2013-09-23T13:22:59Z</time>
      </trkpt>
      <trkpt lat="43.29904" lon="-0.53">
        <ele>238.063599</ele>
        <time>2013-09-23T13:23:02Z</time>
      </trkpt>
      <trkpt lat="43.29913" lon="-0.52959">
        <ele>233.737671</ele>
        <time>2013-09-23T13:23:06Z</time>
      </trkpt>
      <trkpt lat="43.29929" lon="-0.52924">
        <ele>229.892334</ele>
        <time>2013-09-23T13:23:10Z</time>
      </trkpt>
      <trkpt lat="43.29939" lon="-0.52905">
        <ele>228.450439</ele>
        <time>2013-09-23T13:23:12Z</time>
      </trkpt>
      <trkpt lat="43.29951" lon="-0.52887">
        <ele>225.085938</ele>
        <time>2013-09-23T13:23:14Z</time>
      </trkpt>
      <trkpt lat="43.29973" lon="-0.52856">
        <ele>218.83728</ele>
        <time>2013-09-23T13:23:17Z</time>
      </trkpt>
      <trkpt lat="43.30002" lon="-0.52815">
        <ele>215.472656</ele>
        <time>2013-09-23T13:23:21Z</time>
      </trkpt>
      <trkpt lat="43.30036" lon="-0.52759">
        <ele>212.588623</ele>
        <time>2013-09-23T13:23:26Z</time>
      </trkpt>
      <trkpt lat="43.30062" lon="-0.52706">
        <ele>209.224121</ele>
        <time>2013-09-23T13:23:31Z</time>
      </trkpt>
      <trkpt lat="43.30082" lon="-0.52661">
        <ele>206.340088</ele>
        <time>2013-09-23T13:23:35Z</time>
      </trkpt>
      <trkpt lat="43.30092" lon="-0.52636">
        <ele>202.975464</ele>
        <time>2013-09-23T13:23:37Z</time>
      </trkpt>
      <trkpt lat="43.301" lon="-0.5261">
        <ele>201.533569</ele>
        <time>2013-09-23T13:23:39Z</time>
      </trkpt>
      <trkpt lat="43.30111" lon="-0.52558">
        <ele>199.130127</ele>
        <time>2013-09-23T13:23:43Z</time>
      </trkpt>
      <trkpt lat="43.30119" lon="-0.52519">
        <ele>197.20752</ele>
        <time>2013-09-23T13:23:46Z</time>
      </trkpt>
      <trkpt lat="43.30124" lon="-0.5246">
        <ele>194.32373</ele>
        <time>2013-09-23T13:23:51Z</time>
      </trkpt>
      <trkpt lat="43.3015" lon="-0.52415">
        <ele>191.920288</ele>
        <time>2013-09-23T13:23:59Z</time>
      </trkpt>
      <trkpt lat="43.30154" lon="-0.52393">
        <ele>190.958984</ele>
        <time>2013-09-23T13:24:02Z</time>
      </trkpt>
      <trkpt lat="43.30152" lon="-0.52367">
        <ele>188.555786</ele>
        <time>2013-09-23T13:24:05Z</time>
      </trkpt>
      <trkpt lat="43.3015" lon="-0.52339">
        <ele>187.11377</ele>
        <time>2013-09-23T13:24:08Z</time>
      </trkpt>
      <trkpt lat="43.30147" lon="-0.52295">
        <ele>185.191162</ele>
        <time>2013-09-23T13:24:12Z</time>
      </trkpt>
      <trkpt lat="43.30143" lon="-0.52233">
        <ele>181.826416</ele>
        <time>2013-09-23T13:24:17Z</time>
      </trkpt>
      <trkpt lat="43.30142" lon="-0.52221">
        <ele>181.826416</ele>
        <time>2013-09-23T13:24:18Z</time>
      </trkpt>
      <trkpt lat="43.3014" lon="-0.5218">
        <ele>178.461914</ele>
        <time>2013-09-23T13:24:22Z</time>
      </trkpt>
      <trkpt lat="43.30141" lon="-0.52171">
        <ele>178.461914</ele>
        <time>2013-09-23T13:24:23Z</time>
      </trkpt>
      <trkpt lat="43.30143" lon="-0.52154">
        <ele>177.50061</ele>
        <time>2013-09-23T13:24:25Z</time>
      </trkpt>
      <trkpt lat="43.30145" lon="-0.52104">
        <ele>173.655273</ele>
        <time>2013-09-23T13:24:31Z</time>
      </trkpt>
      <trkpt lat="43.30145" lon="-0.52096">
        <ele>173.174683</ele>
        <time>2013-09-23T13:24:32Z</time>
      </trkpt>
      <trkpt lat="43.30141" lon="-0.5206">
        <ele>169.329468</ele>
        <time>2013-09-23T13:24:36Z</time>
      </trkpt>
      <trkpt lat="43.30138" lon="-0.52027">
        <ele>165.484131</ele>
        <time>2013-09-23T13:24:40Z</time>
      </trkpt>
      <trkpt lat="43.30136" lon="-0.52015">
        <ele>165.003418</ele>
        <time>2013-09-23T13:24:42Z</time>
      </trkpt>
      <trkpt lat="43.30125" lon="-0.51997">
        <ele>162.600098</ele>
        <time>2013-09-23T13:24:46Z</time>
      </trkpt>
      <trkpt lat="43.30101" lon="-0.51986">
        <ele>161.638916</ele>
        <time>2013-09-23T13:24:50Z</time>
      </trkpt>
      <trkpt lat="43.30073" lon="-0.51981">
        <ele>161.158203</ele>
        <time>2013-09-23T13:24:54Z</time>
      </trkpt>
      <trkpt lat="43.30036" lon="-0.51984">
        <ele>163.080811</ele>
        <time>2013-09-23T13:25:01Z</time>
      </trkpt>
      <trkpt lat="43.29989" lon="-0.51997">
        <ele>162.600098</ele>
        <time>2013-09-23T13:25:12Z</time>
      </trkpt>
      <trkpt lat="43.29959" lon="-0.52009">
        <ele>162.119507</ele>
        <time>2013-09-23T13:25:18Z</time>
      </trkpt>
      <trkpt lat="43.29935" lon="-0.52004">
        <ele>159.716187</ele>
        <time>2013-09-23T13:25:22Z</time>
      </trkpt>
      <trkpt lat="43.29925" lon="-0.51994">
        <ele>159.235474</ele>
        <time>2013-09-23T13:25:24Z</time>
      </trkpt>
      <trkpt lat="43.29853" lon="-0.51912">
        <ele>159.716187</ele>
        <time>2013-09-23T13:25:42Z</time>
      </trkpt>
      <trkpt lat="43.29821" lon="-0.51881">
        <ele>160.67749</ele>
        <time>2013-09-23T13:25:50Z</time>
      </trkpt>
      <trkpt lat="43.29789" lon="-0.51844">
        <ele>160.196899</ele>
        <time>2013-09-23T13:26:02Z</time>
      </trkpt>
      <trkpt lat="43.29783" lon="-0.51751">
        <ele>157.312866</ele>
        <time>2013-09-23T13:26:14Z</time>
      </trkpt>
      <trkpt lat="43.29783" lon="-0.51686">
        <ele>156.832153</ele>
        <time>2013-09-23T13:26:21Z</time>
      </trkpt>
      <trkpt lat="43.29778" lon="-0.51662">
        <ele>153.467651</ele>
        <time>2013-09-23T13:26:25Z</time>
      </trkpt>
      <trkpt lat="43.29772" lon="-0.51655">
        <ele>153.467651</ele>
        <time>2013-09-23T13:26:27Z</time>
      </trkpt>
      <trkpt lat="43.29679" lon="-0.51567">
        <ele>152.986938</ele>
        <time>2013-09-23T13:26:49Z</time>
      </trkpt>
      <trkpt lat="43.2958" lon="-0.51486">
        <ele>150.583618</ele>
        <time>2013-09-23T13:27:10Z</time>
      </trkpt>
      <trkpt lat="43.29489" lon="-0.51424">
        <ele>151.064209</ele>
        <time>2013-09-23T13:27:31Z</time>
      </trkpt>
      <trkpt lat="43.2942" lon="-0.51356">
        <ele>153.948364</ele>
        <time>2013-09-23T13:27:51Z</time>
      </trkpt>
      <trkpt lat="43.29354" lon="-0.51256">
        <ele>154.909546</ele>
        <time>2013-09-23T13:28:13Z</time>
      </trkpt>
      <trkpt lat="43.29344" lon="-0.51243">
        <ele>154.909546</ele>
        <time>2013-09-23T13:28:16Z</time>
      </trkpt>
      <trkpt lat="43.29277" lon="-0.51193">
        <ele>155.870972</ele>
        <time>2013-09-23T13:28:33Z</time>
      </trkpt>
      <trkpt lat="43.2922" lon="-0.51147">
        <ele>155.390259</ele>
        <time>2013-09-23T13:28:47Z</time>
      </trkpt>
      <trkpt lat="43.29144" lon="-0.51073">
        <ele>155.390259</ele>
        <time>2013-09-23T13:29:06Z</time>
      </trkpt>
      <trkpt lat="43.29112" lon="-0.51048">
        <ele>152.986938</ele>
        <time>2013-09-23T13:29:13Z</time>
      </trkpt>
      <trkpt lat="43.29094" lon="-0.50999">
        <ele>154.909546</ele>
        <time>2013-09-23T13:29:22Z</time>
      </trkpt>
      <trkpt lat="43.29095" lon="-0.50992">
        <ele>154.909546</ele>
        <time>2013-09-23T13:29:23Z</time>
      </trkpt>
      <trkpt lat="43.29089" lon="-0.50889">
        <ele>154.909546</ele>
        <time>2013-09-23T13:29:39Z</time>
      </trkpt>
      <trkpt lat="43.29084" lon="-0.50866">
        <ele>154.909546</ele>
        <time>2013-09-23T13:29:43Z</time>
      </trkpt>
      <trkpt lat="43.29062" lon="-0.50863">
        <ele>154.909546</ele>
        <time>2013-09-23T13:29:49Z</time>
      </trkpt>
      <trkpt lat="43.28983" lon="-0.50922">
        <ele>157.793579</ele>
        <time>2013-09-23T13:30:09Z</time>
      </trkpt>
      <trkpt lat="43.28907" lon="-0.50967">
        <ele>160.196899</ele>
        <time>2013-09-23T13:30:29Z</time>
      </trkpt>
      <trkpt lat="43.28823" lon="-0.50977">
        <ele>162.119507</ele>
        <time>2013-09-23T13:30:49Z</time>
      </trkpt>
      <trkpt lat="43.28745" lon="-0.50977">
        <ele>160.67749</ele>
        <time>2013-09-23T13:31:06Z</time>
      </trkpt>
      <trkpt lat="43.28661" lon="-0.50973">
        <ele>162.119507</ele>
        <time>2013-09-23T13:31:24Z</time>
      </trkpt>
      <trkpt lat="43.28587" lon="-0.50971">
        <ele>164.522705</ele>
        <time>2013-09-23T13:31:43Z</time>
      </trkpt>
      <trkpt lat="43.28553" lon="-0.50963">
        <ele>164.042114</ele>
        <time>2013-09-23T13:31:54Z</time>
      </trkpt>
      <trkpt lat="43.28552" lon="-0.50923">
        <ele>162.119507</ele>
        <time>2013-09-23T13:32:00Z</time>
      </trkpt>
      <trkpt lat="43.28574" lon="-0.50798">
        <ele>159.716187</ele>
        <time>2013-09-23T13:32:14Z</time>
      </trkpt>
      <trkpt lat="43.2858" lon="-0.50754">
        <ele>159.235474</ele>
        <time>2013-09-23T13:32:19Z</time>
      </trkpt>
      <trkpt lat="43.28565" lon="-0.50719">
        <ele>157.793579</ele>
        <time>2013-09-23T13:32:24Z</time>
      </trkpt>
      <trkpt lat="43.28472" lon="-0.50649">
        <ele>155.870972</ele>
        <time>2013-09-23T13:32:43Z</time>
      </trkpt>
      <trkpt lat="43.28417" lon="-0.50622">
        <ele>156.351563</ele>
        <time>2013-09-23T13:32:55Z</time>
      </trkpt>
      <trkpt lat="43.28404" lon="-0.50603">
        <ele>156.832153</ele>
        <time>2013-09-23T13:33:00Z</time>
      </trkpt>
      <trkpt lat="43.28398" lon="-0.50508">
        <ele>155.870972</ele>
        <time>2013-09-23T13:33:16Z</time>
      </trkpt>
      <trkpt lat="43.28397" lon="-0.50464">
        <ele>155.390259</ele>
        <time>2013-09-23T13:33:23Z</time>
      </trkpt>
      <trkpt lat="43.28392" lon="-0.5044">
        <ele>154.428955</ele>
        <time>2013-09-23T13:33:27Z</time>
      </trkpt>
      <trkpt lat="43.28383" lon="-0.50417">
        <ele>154.909546</ele>
        <time>2013-09-23T13:33:31Z</time>
      </trkpt>
      <trkpt lat="43.28353" lon="-0.50411">
        <ele>154.428955</ele>
        <time>2013-09-23T13:33:39Z</time>
      </trkpt>
      <trkpt lat="43.28349" lon="-0.50414">
        <ele>153.948364</ele>
        <time>2013-09-23T13:33:40Z</time>
      </trkpt>
      <trkpt lat="43.2831" lon="-0.50443">
        <ele>154.428955</ele>
        <time>2013-09-23T13:33:50Z</time>
      </trkpt>
      <trkpt lat="43.28278" lon="-0.50449">
        <ele>154.428955</ele>
        <time>2013-09-23T13:33:57Z</time>
      </trkpt>
      <trkpt lat="43.28263" lon="-0.50453">
        <ele>154.428955</ele>
        <time>2013-09-23T13:34:00Z</time>
      </trkpt>
      <trkpt lat="43.28184" lon="-0.50473">
        <ele>156.351563</ele>
        <time>2013-09-23T13:34:18Z</time>
      </trkpt>
      <trkpt lat="43.28129" lon="-0.50526">
        <ele>156.832153</ele>
        <time>2013-09-23T13:34:36Z</time>
      </trkpt>
      <trkpt lat="43.28085" lon="-0.50589">
        <ele>158.754761</ele>
        <time>2013-09-23T13:34:55Z</time>
      </trkpt>
      <trkpt lat="43.28018" lon="-0.50637">
        <ele>158.27417</ele>
        <time>2013-09-23T13:35:17Z</time>
      </trkpt>
      <trkpt lat="43.27976" lon="-0.50675">
        <ele>158.754761</ele>
        <time>2013-09-23T13:35:32Z</time>
      </trkpt>
      <trkpt lat="43.27934" lon="-0.50703">
        <ele>160.196899</ele>
        <time>2013-09-23T13:35:46Z</time>
      </trkpt>
      <trkpt lat="43.27912" lon="-0.50769">
        <ele>161.638916</ele>
        <time>2013-09-23T13:36:02Z</time>
      </trkpt>
      <trkpt lat="43.27905" lon="-0.50791">
        <ele>161.638916</ele>
        <time>2013-09-23T13:36:07Z</time>
      </trkpt>
      <trkpt lat="43.27886" lon="-0.508">
        <ele>160.67749</ele>
        <time>2013-09-23T13:36:12Z</time>
      </trkpt>
      <trkpt lat="43.27843" lon="-0.50801">
        <ele>161.638916</ele>
        <time>2013-09-23T13:36:26Z</time>
      </trkpt>
      <trkpt lat="43.2781" lon="-0.50789">
        <ele>161.638916</ele>
        <time>2013-09-23T13:36:36Z</time>
      </trkpt>
      <trkpt lat="43.27794" lon="-0.50781">
        <ele>161.158203</ele>
        <time>2013-09-23T13:36:40Z</time>
      </trkpt>
      <trkpt lat="43.27782" lon="-0.50774">
        <ele>160.196899</ele>
        <time>2013-09-23T13:36:43Z</time>
      </trkpt>
      <trkpt lat="43.27759" lon="-0.50783">
        <ele>160.67749</ele>
        <time>2013-09-23T13:36:50Z</time>
      </trkpt>
      <trkpt lat="43.27754" lon="-0.50796">
        <ele>162.119507</ele>
        <time>2013-09-23T13:36:54Z</time>
      </trkpt>
      <trkpt lat="43.2774" lon="-0.50827">
        <ele>165.003418</ele>
        <time>2013-09-23T13:37:05Z</time>
      </trkpt>
      <trkpt lat="43.27725" lon="-0.50882">
        <ele>167.887329</ele>
        <time>2013-09-23T13:37:23Z</time>
      </trkpt>
      <trkpt lat="43.277" lon="-0.50912">
        <ele>169.329468</ele>
        <time>2013-09-23T13:37:38Z</time>
      </trkpt>
      <trkpt lat="43.27664" lon="-0.50944">
        <ele>171.252075</ele>
        <time>2013-09-23T13:37:55Z</time>
      </trkpt>
      <trkpt lat="43.27643" lon="-0.50974">
        <ele>172.69397</ele>
        <time>2013-09-23T13:38:07Z</time>
      </trkpt>
      <trkpt lat="43.2763" lon="-0.50969">
        <ele>172.69397</ele>
        <time>2013-09-23T13:38:12Z</time>
      </trkpt>
      <trkpt lat="43.27578" lon="-0.50926">
        <ele>168.368042</ele>
        <time>2013-09-23T13:38:22Z</time>
      </trkpt>
      <trkpt lat="43.27563" lon="-0.50913">
        <ele>166.926025</ele>
        <time>2013-09-23T13:38:24Z</time>
      </trkpt>
      <trkpt lat="43.27486" lon="-0.50884">
        <ele>166.926025</ele>
        <time>2013-09-23T13:38:35Z</time>
      </trkpt>
      <trkpt lat="43.27447" lon="-0.50864">
        <ele>170.290649</ele>
        <time>2013-09-23T13:38:48Z</time>
      </trkpt>
      <trkpt lat="43.27413" lon="-0.5086">
        <ele>171.732666</ele>
        <time>2013-09-23T13:39:01Z</time>
      </trkpt>
      <trkpt lat="43.27376" lon="-0.50901">
        <ele>173.174683</ele>
        <time>2013-09-23T13:39:18Z</time>
      </trkpt>
      <trkpt lat="43.27326" lon="-0.50957">
        <ele>175.09729</ele>
        <time>2013-09-23T13:39:39Z</time>
      </trkpt>
      <trkpt lat="43.27274" lon="-0.51014">
        <ele>177.50061</ele>
        <time>2013-09-23T13:40:00Z</time>
      </trkpt>
      <trkpt lat="43.2722" lon="-0.51061">
        <ele>178.461914</ele>
        <time>2013-09-23T13:40:20Z</time>
      </trkpt>
      <trkpt lat="43.27186" lon="-0.51118">
        <ele>180.384521</ele>
        <time>2013-09-23T13:40:38Z</time>
      </trkpt>
      <trkpt lat="43.2715" lon="-0.51095">
        <ele>178.942627</ele>
        <time>2013-09-23T13:40:47Z</time>
      </trkpt>
      <trkpt lat="43.27137" lon="-0.51087">
        <ele>177.02002</ele>
        <time>2013-09-23T13:40:49Z</time>
      </trkpt>
      <trkpt lat="43.27113" lon="-0.51075">
        <ele>175.577881</ele>
        <time>2013-09-23T13:40:52Z</time>
      </trkpt>
      <trkpt lat="43.27071" lon="-0.51095">
        <ele>174.616577</ele>
        <time>2013-09-23T13:40:59Z</time>
      </trkpt>
      <trkpt lat="43.27067" lon="-0.5111">
        <ele>175.09729</ele>
        <time>2013-09-23T13:41:01Z</time>
      </trkpt>
      <trkpt lat="43.2706" lon="-0.51137">
        <ele>174.616577</ele>
        <time>2013-09-23T13:41:05Z</time>
      </trkpt>
      <trkpt lat="43.27036" lon="-0.51209">
        <ele>174.135864</ele>
        <time>2013-09-23T13:41:17Z</time>
      </trkpt>
      <trkpt lat="43.27031" lon="-0.51275">
        <ele>176.058594</ele>
        <time>2013-09-23T13:41:29Z</time>
      </trkpt>
      <trkpt lat="43.27" lon="-0.51358">
        <ele>177.02002</ele>
        <time>2013-09-23T13:41:46Z</time>
      </trkpt>
      <trkpt lat="43.26994" lon="-0.51364">
        <ele>177.02002</ele>
        <time>2013-09-23T13:41:48Z</time>
      </trkpt>
      <trkpt lat="43.26947" lon="-0.51393">
        <ele>178.461914</ele>
        <time>2013-09-23T13:42:02Z</time>
      </trkpt>
      <trkpt lat="43.26914" lon="-0.51416">
        <ele>180.865234</ele>
        <time>2013-09-23T13:42:17Z</time>
      </trkpt>
      <trkpt lat="43.26888" lon="-0.51425">
        <ele>183.749023</ele>
        <time>2013-09-23T13:42:28Z</time>
      </trkpt>
      <trkpt lat="43.26844" lon="-0.51428">
        <ele>185.191162</ele>
        <time>2013-09-23T13:42:44Z</time>
      </trkpt>
      <trkpt lat="43.26823" lon="-0.51432">
        <ele>184.710571</ele>
        <time>2013-09-23T13:42:55Z</time>
      </trkpt>
      <trkpt lat="43.26822" lon="-0.51433">
        <ele>184.710571</ele>
        <time>2013-09-23T13:43:01Z</time>
      </trkpt>
      <trkpt lat="43.26823" lon="-0.51434">
        <ele>183.749023</ele>
        <time>2013-09-23T13:43:03Z</time>
      </trkpt>
      <trkpt lat="43.26837" lon="-0.51428">
        <ele>184.229858</ele>
        <time>2013-09-23T13:43:23Z</time>
      </trkpt>
      <trkpt lat="43.2684" lon="-0.51427">
        <ele>184.710571</ele>
        <time>2013-09-23T13:43:27Z</time>
      </trkpt>
      <trkpt lat="43.26844" lon="-0.51429">
        <ele>185.191162</ele>
        <time>2013-09-23T13:43:31Z</time>
      </trkpt>
      <trkpt lat="43.26845" lon="-0.51427">
        <ele>184.710571</ele>
        <time>2013-09-23T13:43:36Z</time>
      </trkpt>
      <trkpt lat="43.26834" lon="-0.51444">
        <ele>186.633179</ele>
        <time>2013-09-23T13:43:47Z</time>
      </trkpt>
      <trkpt lat="43.26834" lon="-0.51458">
        <ele>189.997681</ele>
        <time>2013-09-23T13:43:55Z</time>
      </trkpt>
      <trkpt lat="43.26834" lon="-0.51467">
        <ele>191.920288</ele>
        <time>2013-09-23T13:44:00Z</time>
      </trkpt>
      <trkpt lat="43.26838" lon="-0.51484">
        <ele>194.32373</ele>
        <time>2013-09-23T13:44:10Z</time>
      </trkpt>
      <trkpt lat="43.26839" lon="-0.51494">
        <ele>196.246338</ele>
        <time>2013-09-23T13:44:17Z</time>
      </trkpt>
      <trkpt lat="43.26838" lon="-0.51508">
        <ele>198.168945</ele>
        <time>2013-09-23T13:44:32Z</time>
      </trkpt>
      <trkpt lat="43.26838" lon="-0.51523">
        <ele>201.533569</ele>
        <time>2013-09-23T13:44:44Z</time>
      </trkpt>
      <trkpt lat="43.26838" lon="-0.51524">
        <ele>202.014282</ele>
        <time>2013-09-23T13:44:45Z</time>
      </trkpt>
      <trkpt lat="43.26836" lon="-0.51535">
        <ele>203.93689</ele>
        <time>2013-09-23T13:44:53Z</time>
      </trkpt>
      <trkpt lat="43.26834" lon="-0.51554">
        <ele>206.820679</ele>
        <time>2013-09-23T13:45:11Z</time>
      </trkpt>
      <trkpt lat="43.26834" lon="-0.51574">
        <ele>209.704834</ele>
        <time>2013-09-23T13:45:28Z</time>
      </trkpt>
      <trkpt lat="43.26835" lon="-0.51594">
        <ele>213.069336</ele>
        <time>2013-09-23T13:45:43Z</time>
      </trkpt>
      <trkpt lat="43.26834" lon="-0.51608">
        <ele>214.51123</ele>
        <time>2013-09-23T13:45:53Z</time>
      </trkpt>
      <trkpt lat="43.26832" lon="-0.51615">
        <ele>214.991943</ele>
        <time>2013-09-23T13:45:57Z</time>
      </trkpt>
      <trkpt lat="43.26833" lon="-0.51631">
        <ele>218.83728</ele>
        <time>2013-09-23T13:46:07Z</time>
      </trkpt>
      <trkpt lat="43.26834" lon="-0.51646">
        <ele>218.83728</ele>
        <time>2013-09-23T13:46:21Z</time>
      </trkpt>
      <trkpt lat="43.26833" lon="-0.51681">
        <ele>220.279175</ele>
        <time>2013-09-23T13:46:40Z</time>
      </trkpt>
      <trkpt lat="43.2684" lon="-0.51708">
        <ele>223.643799</ele>
        <time>2013-09-23T13:46:55Z</time>
      </trkpt>
      <trkpt lat="43.2685" lon="-0.5173">
        <ele>226.527832</ele>
        <time>2013-09-23T13:47:10Z</time>
      </trkpt>
      <trkpt lat="43.26852" lon="-0.51754">
        <ele>228.931152</ele>
        <time>2013-09-23T13:47:23Z</time>
      </trkpt>
      <trkpt lat="43.26853" lon="-0.51763">
        <ele>231.334351</ele>
        <time>2013-09-23T13:47:28Z</time>
      </trkpt>
      <trkpt lat="43.26851" lon="-0.51785">
        <ele>234.699097</ele>
        <time>2013-09-23T13:47:41Z</time>
      </trkpt>
      <trkpt lat="43.26849" lon="-0.51813">
        <ele>238.063599</ele>
        <time>2013-09-23T13:47:57Z</time>
      </trkpt>
      <trkpt lat="43.26848" lon="-0.51815">
        <ele>238.063599</ele>
        <time>2013-09-23T13:47:58Z</time>
      </trkpt>
      <trkpt lat="43.26839" lon="-0.51841">
        <ele>240.467041</ele>
        <time>2013-09-23T13:48:13Z</time>
      </trkpt>
      <trkpt lat="43.26827" lon="-0.51864">
        <ele>243.35083</ele>
        <time>2013-09-23T13:48:26Z</time>
      </trkpt>
      <trkpt lat="43.26812" lon="-0.51877">
        <ele>245.75415</ele>
        <time>2013-09-23T13:48:40Z</time>
      </trkpt>
      <trkpt lat="43.26809" lon="-0.5189">
        <ele>248.638184</ele>
        <time>2013-09-23T13:48:53Z</time>
      </trkpt>
      <trkpt lat="43.26807" lon="-0.51908">
        <ele>251.522095</ele>
        <time>2013-09-23T13:49:08Z</time>
      </trkpt>
      <trkpt lat="43.26805" lon="-0.51913">
        <ele>252.963989</ele>
        <time>2013-09-23T13:49:15Z</time>
      </trkpt>
      <trkpt lat="43.26797" lon="-0.51924">
        <ele>254.886597</ele>
        <time>2013-09-23T13:49:31Z</time>
      </trkpt>
      <trkpt lat="43.26793" lon="-0.51935">
        <ele>257.770752</ele>
        <time>2013-09-23T13:49:44Z</time>
      </trkpt>
      <trkpt lat="43.26782" lon="-0.51946">
        <ele>261.135254</ele>
        <time>2013-09-23T13:49:59Z</time>
      </trkpt>
      <trkpt lat="43.26769" lon="-0.51954">
        <ele>264.019287</ele>
        <time>2013-09-23T13:50:17Z</time>
      </trkpt>
      <trkpt lat="43.26764" lon="-0.51955">
        <ele>264.499878</ele>
        <time>2013-09-23T13:50:32Z</time>
      </trkpt>
      <trkpt lat="43.2676" lon="-0.51956">
        <ele>265.461304</ele>
        <time>2013-09-23T13:50:43Z</time>
      </trkpt>
      <trkpt lat="43.26744" lon="-0.51961">
        <ele>266.422485</ele>
        <time>2013-09-23T13:50:54Z</time>
      </trkpt>
      <trkpt lat="43.2673" lon="-0.51961">
        <ele>266.903198</ele>
        <time>2013-09-23T13:51:03Z</time>
      </trkpt>
      <trkpt lat="43.26703" lon="-0.51944">
        <ele>265.461304</ele>
        <time>2013-09-23T13:51:15Z</time>
      </trkpt>
      <trkpt lat="43.26676" lon="-0.5192">
        <ele>264.499878</ele>
        <time>2013-09-23T13:51:24Z</time>
      </trkpt>
      <trkpt lat="43.26648" lon="-0.51909">
        <ele>264.019287</ele>
        <time>2013-09-23T13:51:34Z</time>
      </trkpt>
      <trkpt lat="43.2664" lon="-0.51903">
        <ele>265.461304</ele>
        <time>2013-09-23T13:51:37Z</time>
      </trkpt>
      <trkpt lat="43.26625" lon="-0.519">
        <ele>264.980591</ele>
        <time>2013-09-23T13:51:42Z</time>
      </trkpt>
      <trkpt lat="43.26599" lon="-0.51867">
        <ele>263.057861</ele>
        <time>2013-09-23T13:51:56Z</time>
      </trkpt>
      <trkpt lat="43.26582" lon="-0.51858">
        <ele>264.019287</ele>
        <time>2013-09-23T13:52:07Z</time>
      </trkpt>
      <trkpt lat="43.26577" lon="-0.51859">
        <ele>264.499878</ele>
        <time>2013-09-23T13:52:09Z</time>
      </trkpt>
      <trkpt lat="43.26565" lon="-0.51851">
        <ele>264.980591</ele>
        <time>2013-09-23T13:52:15Z</time>
      </trkpt>
      <trkpt lat="43.26562" lon="-0.51849">
        <ele>264.980591</ele>
        <time>2013-09-23T13:52:18Z</time>
      </trkpt>
      <trkpt lat="43.2656" lon="-0.51851">
        <ele>265.461304</ele>
        <time>2013-09-23T13:52:20Z</time>
      </trkpt>
      <trkpt lat="43.26554" lon="-0.51843">
        <ele>265.461304</ele>
        <time>2013-09-23T13:52:28Z</time>
      </trkpt>
      <trkpt lat="43.26561" lon="-0.51844">
        <ele>265.461304</ele>
        <time>2013-09-23T13:52:33Z</time>
      </trkpt>
      <trkpt lat="43.26573" lon="-0.51853">
        <ele>264.980591</ele>
        <time>2013-09-23T13:52:38Z</time>
      </trkpt>
      <trkpt lat="43.26584" lon="-0.51852">
        <ele>264.019287</ele>
        <time>2013-09-23T13:52:43Z</time>
      </trkpt>
      <trkpt lat="43.26596" lon="-0.51856">
        <ele>264.019287</ele>
        <time>2013-09-23T13:52:49Z</time>
      </trkpt>
      <trkpt lat="43.26603" lon="-0.51863">
        <ele>263.538574</ele>
        <time>2013-09-23T13:52:54Z</time>
      </trkpt>
      <trkpt lat="43.2661" lon="-0.51873">
        <ele>264.019287</ele>
        <time>2013-09-23T13:52:58Z</time>
      </trkpt>
      <trkpt lat="43.26615" lon="-0.51884">
        <ele>264.019287</ele>
        <time>2013-09-23T13:53:02Z</time>
      </trkpt>
      <trkpt lat="43.26622" lon="-0.51895">
        <ele>264.499878</ele>
        <time>2013-09-23T13:53:07Z</time>
      </trkpt>
      <trkpt lat="43.26632" lon="-0.51896">
        <ele>264.980591</ele>
        <time>2013-09-23T13:53:12Z</time>
      </trkpt>
      <trkpt lat="43.26656" lon="-0.51906">
        <ele>264.499878</ele>
        <time>2013-09-23T13:53:25Z</time>
      </trkpt>
      <trkpt lat="43.26657" lon="-0.51907">
        <ele>264.499878</ele>
        <time>2013-09-23T13:53:26Z</time>
      </trkpt>
      <trkpt lat="43.26678" lon="-0.5192">
        <ele>264.019287</ele>
        <time>2013-09-23T13:53:38Z</time>
      </trkpt>
      <trkpt lat="43.26684" lon="-0.51944">
        <ele>265.461304</ele>
        <time>2013-09-23T13:53:50Z</time>
      </trkpt>
      <trkpt lat="43.26682" lon="-0.51949">
        <ele>264.980591</ele>
        <time>2013-09-23T13:53:53Z</time>
      </trkpt>
      <trkpt lat="43.26681" lon="-0.51953">
        <ele>265.461304</ele>
        <time>2013-09-23T13:53:55Z</time>
      </trkpt>
      <trkpt lat="43.26669" lon="-0.51956">
        <ele>264.980591</ele>
        <time>2013-09-23T13:54:00Z</time>
      </trkpt>
      <trkpt lat="43.26635" lon="-0.51933">
        <ele>264.499878</ele>
        <time>2013-09-23T13:54:12Z</time>
      </trkpt>
      <trkpt lat="43.26615" lon="-0.51925">
        <ele>264.019287</ele>
        <time>2013-09-23T13:54:18Z</time>
      </trkpt>
      <trkpt lat="43.26605" lon="-0.51926">
        <ele>262.577148</ele>
        <time>2013-09-23T13:54:20Z</time>
      </trkpt>
      <trkpt lat="43.26594" lon="-0.51926">
        <ele>262.096558</ele>
        <time>2013-09-23T13:54:22Z</time>
      </trkpt>
      <trkpt lat="43.26559" lon="-0.51942">
        <ele>259.212646</ele>
        <time>2013-09-23T13:54:31Z</time>
      </trkpt>
      <trkpt lat="43.26532" lon="-0.51937">
        <ele>255.848022</ele>
        <time>2013-09-23T13:54:38Z</time>
      </trkpt>
      <trkpt lat="43.26526" lon="-0.51936">
        <ele>255.36731</ele>
        <time>2013-09-23T13:54:40Z</time>
      </trkpt>
      <trkpt lat="43.26513" lon="-0.51931">
        <ele>252.002808</ele>
        <time>2013-09-23T13:54:46Z</time>
      </trkpt>
      <trkpt lat="43.26503" lon="-0.51928">
        <ele>250.560791</ele>
        <time>2013-09-23T13:54:52Z</time>
      </trkpt>
      <trkpt lat="43.26501" lon="-0.51926">
        <ele>249.118774</ele>
        <time>2013-09-23T13:55:01Z</time>
      </trkpt>
      <trkpt lat="43.265" lon="-0.51926">
        <ele>252.002808</ele>
        <time>2013-09-23T13:55:03Z</time>
      </trkpt>
      <trkpt lat="43.26495" lon="-0.51926">
        <ele>248.638184</ele>
        <time>2013-09-23T13:55:18Z</time>
      </trkpt>
      <trkpt lat="43.26485" lon="-0.51924">
        <ele>248.157593</ele>
        <time>2013-09-23T13:55:31Z</time>
      </trkpt>
      <trkpt lat="43.26458" lon="-0.51927">
        <ele>245.273438</ele>
        <time>2013-09-23T13:55:41Z</time>
      </trkpt>
      <trkpt lat="43.2644" lon="-0.5193">
        <ele>242.389648</ele>
        <time>2013-09-23T13:55:50Z</time>
      </trkpt>
      <trkpt lat="43.26426" lon="-0.51935">
        <ele>238.544312</ele>
        <time>2013-09-23T13:56:01Z</time>
      </trkpt>
      <trkpt lat="43.26414" lon="-0.5194">
        <ele>236.140991</ele>
        <time>2013-09-23T13:56:16Z</time>
      </trkpt>
      <trkpt lat="43.26402" lon="-0.51943">
        <ele>235.660278</ele>
        <time>2013-09-23T13:56:23Z</time>
      </trkpt>
      <trkpt lat="43.26387" lon="-0.51947">
        <ele>233.737671</ele>
        <time>2013-09-23T13:56:32Z</time>
      </trkpt>
      <trkpt lat="43.26369" lon="-0.51953">
        <ele>231.334351</ele>
        <time>2013-09-23T13:56:46Z</time>
      </trkpt>
      <trkpt lat="43.26357" lon="-0.51957">
        <ele>229.411743</ele>
        <time>2013-09-23T13:56:57Z</time>
      </trkpt>
      <trkpt lat="43.26356" lon="-0.51959">
        <ele>228.931152</ele>
        <time>2013-09-23T13:56:58Z</time>
      </trkpt>
      <trkpt lat="43.26353" lon="-0.51975">
        <ele>228.931152</ele>
        <time>2013-09-23T13:57:03Z</time>
      </trkpt>
      <trkpt lat="43.26339" lon="-0.52035">
        <ele>232.776489</ele>
        <time>2013-09-23T13:57:20Z</time>
      </trkpt>
      <trkpt lat="43.26326" lon="-0.5208">
        <ele>233.737671</ele>
        <time>2013-09-23T13:57:34Z</time>
      </trkpt>
      <trkpt lat="43.26301" lon="-0.52091">
        <ele>234.699097</ele>
        <time>2013-09-23T13:57:46Z</time>
      </trkpt>
      <trkpt lat="43.26265" lon="-0.52095">
        <ele>234.218384</ele>
        <time>2013-09-23T13:57:59Z</time>
      </trkpt>
      <trkpt lat="43.26235" lon="-0.52111">
        <ele>235.179688</ele>
        <time>2013-09-23T13:58:11Z</time>
      </trkpt>
      <trkpt lat="43.262" lon="-0.52125">
        <ele>236.140991</ele>
        <time>2013-09-23T13:58:25Z</time>
      </trkpt>
      <trkpt lat="43.26171" lon="-0.5215">
        <ele>236.621704</ele>
        <time>2013-09-23T13:58:37Z</time>
      </trkpt>
      <trkpt lat="43.26148" lon="-0.52196">
        <ele>238.063599</ele>
        <time>2013-09-23T13:58:49Z</time>
      </trkpt>
      <trkpt lat="43.2612" lon="-0.52228">
        <ele>238.063599</ele>
        <time>2013-09-23T13:58:59Z</time>
      </trkpt>
      <trkpt lat="43.26101" lon="-0.52258">
        <ele>240.467041</ele>
        <time>2013-09-23T13:59:10Z</time>
      </trkpt>
      <trkpt lat="43.26084" lon="-0.52283">
        <ele>241.908936</ele>
        <time>2013-09-23T13:59:21Z</time>
      </trkpt>
      <trkpt lat="43.26066" lon="-0.52311">
        <ele>243.35083</ele>
        <time>2013-09-23T13:59:32Z</time>
      </trkpt>
      <trkpt lat="43.26047" lon="-0.52345">
        <ele>244.792847</ele>
        <time>2013-09-23T13:59:44Z</time>
      </trkpt>
      <trkpt lat="43.26045" lon="-0.52356">
        <ele>243.831543</ele>
        <time>2013-09-23T13:59:56Z</time>
      </trkpt>
      <trkpt lat="43.26041" lon="-0.5236">
        <ele>245.75415</ele>
        <time>2013-09-23T14:00:06Z</time>
      </trkpt>
      <trkpt lat="43.26018" lon="-0.52361">
        <ele>244.312256</ele>
        <time>2013-09-23T14:00:19Z</time>
      </trkpt>
      <trkpt lat="43.26006" lon="-0.52374">
        <ele>243.831543</ele>
        <time>2013-09-23T14:00:26Z</time>
      </trkpt>
      <trkpt lat="43.25988" lon="-0.52406">
        <ele>245.75415</ele>
        <time>2013-09-23T14:00:39Z</time>
      </trkpt>
      <trkpt lat="43.25963" lon="-0.5244">
        <ele>245.75415</ele>
        <time>2013-09-23T14:00:53Z</time>
      </trkpt>
      <trkpt lat="43.25952" lon="-0.5245">
        <ele>245.273438</ele>
        <time>2013-09-23T14:00:59Z</time>
      </trkpt>
      <trkpt lat="43.25945" lon="-0.52466">
        <ele>248.157593</ele>
        <time>2013-09-23T14:01:07Z</time>
      </trkpt>
      <trkpt lat="43.25947" lon="-0.52484">
        <ele>249.599487</ele>
        <time>2013-09-23T14:01:16Z</time>
      </trkpt>
      <trkpt lat="43.25944" lon="-0.52493">
        <ele>251.522095</ele>
        <time>2013-09-23T14:01:21Z</time>
      </trkpt>
      <trkpt lat="43.25938" lon="-0.52518">
        <ele>254.406006</ele>
        <time>2013-09-23T14:01:35Z</time>
      </trkpt>
      <trkpt lat="43.25935" lon="-0.52533">
        <ele>255.36731</ele>
        <time>2013-09-23T14:01:43Z</time>
      </trkpt>
      <trkpt lat="43.25931" lon="-0.52539">
        <ele>256.328735</ele>
        <time>2013-09-23T14:01:47Z</time>
      </trkpt>
      <trkpt lat="43.25927" lon="-0.52552">
        <ele>258.731934</ele>
        <time>2013-09-23T14:02:03Z</time>
      </trkpt>
      <trkpt lat="43.25922" lon="-0.52565">
        <ele>262.096558</ele>
        <time>2013-09-23T14:02:17Z</time>
      </trkpt>
      <trkpt lat="43.25922" lon="-0.5258">
        <ele>264.499878</ele>
        <time>2013-09-23T14:02:30Z</time>
      </trkpt>
      <trkpt lat="43.25923" lon="-0.52601">
        <ele>266.903198</ele>
        <time>2013-09-23T14:02:45Z</time>
      </trkpt>
      <trkpt lat="43.2592" lon="-0.52612">
        <ele>269.787109</ele>
        <time>2013-09-23T14:02:57Z</time>
      </trkpt>
      <trkpt lat="43.25914" lon="-0.52622">
        <ele>271.709717</ele>
        <time>2013-09-23T14:03:13Z</time>
      </trkpt>
      <trkpt lat="43.25905" lon="-0.52636">
        <ele>273.632446</ele>
        <time>2013-09-23T14:03:31Z</time>
      </trkpt>
      <trkpt lat="43.25899" lon="-0.52646">
        <ele>276.99707</ele>
        <time>2013-09-23T14:03:42Z</time>
      </trkpt>
      <trkpt lat="43.25891" lon="-0.52657">
        <ele>278.919678</ele>
        <time>2013-09-23T14:03:54Z</time>
      </trkpt>
      <trkpt lat="43.25886" lon="-0.52666">
        <ele>280.842407</ele>
        <time>2013-09-23T14:04:07Z</time>
      </trkpt>
      <trkpt lat="43.25875" lon="-0.52681">
        <ele>284.206909</ele>
        <time>2013-09-23T14:04:22Z</time>
      </trkpt>
      <trkpt lat="43.25867" lon="-0.52699">
        <ele>286.129517</ele>
        <time>2013-09-23T14:04:37Z</time>
      </trkpt>
      <trkpt lat="43.25865" lon="-0.52703">
        <ele>287.571411</ele>
        <time>2013-09-23T14:04:43Z</time>
      </trkpt>
      <trkpt lat="43.25852" lon="-0.52727">
        <ele>290.455566</ele>
        <time>2013-09-23T14:05:01Z</time>
      </trkpt>
      <trkpt lat="43.25852" lon="-0.52729">
        <ele>290.936157</ele>
        <time>2013-09-23T14:05:02Z</time>
      </trkpt>
      <trkpt lat="43.25844" lon="-0.5275">
        <ele>292.858765</ele>
        <time>2013-09-23T14:05:15Z</time>
      </trkpt>
      <trkpt lat="43.2584" lon="-0.52761">
        <ele>293.820068</ele>
        <time>2013-09-23T14:05:21Z</time>
      </trkpt>
      <trkpt lat="43.25829" lon="-0.52792">
        <ele>294.781372</ele>
        <time>2013-09-23T14:05:38Z</time>
      </trkpt>
      <trkpt lat="43.25824" lon="-0.52821">
        <ele>296.223511</ele>
        <time>2013-09-23T14:05:53Z</time>
      </trkpt>
      <trkpt lat="43.2582" lon="-0.5285">
        <ele>299.588013</ele>
        <time>2013-09-23T14:06:07Z</time>
      </trkpt>
      <trkpt lat="43.2582" lon="-0.52877">
        <ele>301.029907</ele>
        <time>2013-09-23T14:06:20Z</time>
      </trkpt>
      <trkpt lat="43.25821" lon="-0.52899">
        <ele>301.991333</ele>
        <time>2013-09-23T14:06:30Z</time>
      </trkpt>
      <trkpt lat="43.25819" lon="-0.52907">
        <ele>302.952515</ele>
        <time>2013-09-23T14:06:34Z</time>
      </trkpt>
      <trkpt lat="43.25815" lon="-0.52926">
        <ele>305.355957</ele>
        <time>2013-09-23T14:06:47Z</time>
      </trkpt>
      <trkpt lat="43.25813" lon="-0.52949">
        <ele>306.797852</ele>
        <time>2013-09-23T14:07:01Z</time>
      </trkpt>
      <trkpt lat="43.25812" lon="-0.52962">
        <ele>309.201172</ele>
        <time>2013-09-23T14:07:11Z</time>
      </trkpt>
      <trkpt lat="43.2581" lon="-0.52966">
        <ele>310.643066</ele>
        <time>2013-09-23T14:07:15Z</time>
      </trkpt>
      <trkpt lat="43.25811" lon="-0.52986">
        <ele>313.527222</ele>
        <time>2013-09-23T14:07:33Z</time>
      </trkpt>
      <trkpt lat="43.25803" lon="-0.52999">
        <ele>314.488403</ele>
        <time>2013-09-23T14:07:46Z</time>
      </trkpt>
      <trkpt lat="43.25784" lon="-0.53035">
        <ele>313.527222</ele>
        <time>2013-09-23T14:07:59Z</time>
      </trkpt>
      <trkpt lat="43.25772" lon="-0.53051">
        <ele>312.085205</ele>
        <time>2013-09-23T14:08:03Z</time>
      </trkpt>
      <trkpt lat="43.25748" lon="-0.53083">
        <ele>310.162476</ele>
        <time>2013-09-23T14:08:08Z</time>
      </trkpt>
      <trkpt lat="43.25736" lon="-0.53096">
        <ele>309.201172</ele>
        <time>2013-09-23T14:08:10Z</time>
      </trkpt>
      <trkpt lat="43.25718" lon="-0.53108">
        <ele>309.681885</ele>
        <time>2013-09-23T14:08:13Z</time>
      </trkpt>
      <trkpt lat="43.25691" lon="-0.53111">
        <ele>310.162476</ele>
        <time>2013-09-23T14:08:22Z</time>
      </trkpt>
      <trkpt lat="43.25689" lon="-0.53111">
        <ele>311.604492</ele>
        <time>2013-09-23T14:08:24Z</time>
      </trkpt>
      <trkpt lat="43.25685" lon="-0.53108">
        <ele>312.565796</ele>
        <time>2013-09-23T14:08:29Z</time>
      </trkpt>
      <trkpt lat="43.25664" lon="-0.53108">
        <ele>315.449829</ele>
        <time>2013-09-23T14:08:40Z</time>
      </trkpt>
      <trkpt lat="43.25642" lon="-0.53109">
        <ele>318.333618</ele>
        <time>2013-09-23T14:08:53Z</time>
      </trkpt>
      <trkpt lat="43.2562" lon="-0.53118">
        <ele>319.295044</ele>
        <time>2013-09-23T14:09:08Z</time>
      </trkpt>
      <trkpt lat="43.25579" lon="-0.53123">
        <ele>319.775635</ele>
        <time>2013-09-23T14:09:26Z</time>
      </trkpt>
      <trkpt lat="43.25548" lon="-0.53159">
        <ele>318.333618</ele>
        <time>2013-09-23T14:09:38Z</time>
      </trkpt>
      <trkpt lat="43.25508" lon="-0.53203">
        <ele>317.853027</ele>
        <time>2013-09-23T14:09:51Z</time>
      </trkpt>
      <trkpt lat="43.25469" lon="-0.53244">
        <ele>318.333618</ele>
        <time>2013-09-23T14:10:04Z</time>
      </trkpt>
      <trkpt lat="43.25439" lon="-0.53274">
        <ele>315.93042</ele>
        <time>2013-09-23T14:10:13Z</time>
      </trkpt>
      <trkpt lat="43.25422" lon="-0.53275">
        <ele>313.527222</ele>
        <time>2013-09-23T14:10:17Z</time>
      </trkpt>
      <trkpt lat="43.25412" lon="-0.53272">
        <ele>313.046509</ele>
        <time>2013-09-23T14:10:19Z</time>
      </trkpt>
      <trkpt lat="43.25367" lon="-0.53265">
        <ele>311.604492</ele>
        <time>2013-09-23T14:10:27Z</time>
      </trkpt>
      <trkpt lat="43.25353" lon="-0.53259">
        <ele>310.643066</ele>
        <time>2013-09-23T14:10:30Z</time>
      </trkpt>
      <trkpt lat="43.25318" lon="-0.53281">
        <ele>307.759277</ele>
        <time>2013-09-23T14:10:39Z</time>
      </trkpt>
      <trkpt lat="43.25308" lon="-0.533">
        <ele>307.278564</ele>
        <time>2013-09-23T14:10:42Z</time>
      </trkpt>
      <trkpt lat="43.25293" lon="-0.53323">
        <ele>305.355957</ele>
        <time>2013-09-23T14:10:47Z</time>
      </trkpt>
      <trkpt lat="43.25288" lon="-0.53348">
        <ele>301.991333</ele>
        <time>2013-09-23T14:10:52Z</time>
      </trkpt>
      <trkpt lat="43.25286" lon="-0.53362">
        <ele>301.029907</ele>
        <time>2013-09-23T14:10:54Z</time>
      </trkpt>
      <trkpt lat="43.25282" lon="-0.53401">
        <ele>298.146118</ele>
        <time>2013-09-23T14:11:00Z</time>
      </trkpt>
      <trkpt lat="43.25278" lon="-0.53426">
        <ele>296.223511</ele>
        <time>2013-09-23T14:11:04Z</time>
      </trkpt>
      <trkpt lat="43.25272" lon="-0.53471">
        <ele>293.339355</ele>
        <time>2013-09-23T14:11:12Z</time>
      </trkpt>
      <trkpt lat="43.25264" lon="-0.53499">
        <ele>291.416748</ele>
        <time>2013-09-23T14:11:18Z</time>
      </trkpt>
      <trkpt lat="43.25251" lon="-0.53569">
        <ele>289.494141</ele>
        <time>2013-09-23T14:11:30Z</time>
      </trkpt>
      <trkpt lat="43.2525" lon="-0.53588">
        <ele>289.494141</ele>
        <time>2013-09-23T14:11:33Z</time>
      </trkpt>
      <trkpt lat="43.25248" lon="-0.53609">
        <ele>288.532959</ele>
        <time>2013-09-23T14:11:36Z</time>
      </trkpt>
      <trkpt lat="43.25242" lon="-0.53648">
        <ele>285.648804</ele>
        <time>2013-09-23T14:11:43Z</time>
      </trkpt>
      <trkpt lat="43.25237" lon="-0.53672">
        <ele>285.168213</ele>
        <time>2013-09-23T14:11:47Z</time>
      </trkpt>
      <trkpt lat="43.25231" lon="-0.53717">
        <ele>280.842407</ele>
        <time>2013-09-23T14:11:55Z</time>
      </trkpt>
      <trkpt lat="43.2523" lon="-0.53724">
        <ele>279.880859</ele>
        <time>2013-09-23T14:11:56Z</time>
      </trkpt>
      <trkpt lat="43.25221" lon="-0.53752">
        <ele>278.438965</ele>
        <time>2013-09-23T14:12:00Z</time>
      </trkpt>
      <trkpt lat="43.25214" lon="-0.53768">
        <ele>275.555054</ele>
        <time>2013-09-23T14:12:03Z</time>
      </trkpt>
      <trkpt lat="43.25209" lon="-0.5378">
        <ele>272.19043</ele>
        <time>2013-09-23T14:12:06Z</time>
      </trkpt>
      <trkpt lat="43.25204" lon="-0.53793">
        <ele>270.748413</ele>
        <time>2013-09-23T14:12:09Z</time>
      </trkpt>
      <trkpt lat="43.25202" lon="-0.538">
        <ele>268.825806</ele>
        <time>2013-09-23T14:12:11Z</time>
      </trkpt>
      <trkpt lat="43.25197" lon="-0.53815">
        <ele>266.422485</ele>
        <time>2013-09-23T14:12:15Z</time>
      </trkpt>
      <trkpt lat="43.25185" lon="-0.53818">
        <ele>264.019287</ele>
        <time>2013-09-23T14:12:19Z</time>
      </trkpt>
      <trkpt lat="43.25161" lon="-0.53806">
        <ele>260.654541</ele>
        <time>2013-09-23T14:12:24Z</time>
      </trkpt>
      <trkpt lat="43.25157" lon="-0.53804">
        <ele>259.693359</ele>
        <time>2013-09-23T14:12:25Z</time>
      </trkpt>
      <trkpt lat="43.25142" lon="-0.53798">
        <ele>258.251343</ele>
        <time>2013-09-23T14:12:28Z</time>
      </trkpt>
      <trkpt lat="43.25126" lon="-0.53793">
        <ele>255.36731</ele>
        <time>2013-09-23T14:12:33Z</time>
      </trkpt>
      <trkpt lat="43.25106" lon="-0.53783">
        <ele>252.002808</ele>
        <time>2013-09-23T14:12:41Z</time>
      </trkpt>
      <trkpt lat="43.25103" lon="-0.5378">
        <ele>252.483398</ele>
        <time>2013-09-23T14:12:52Z</time>
      </trkpt>
      <trkpt lat="43.25102" lon="-0.53779">
        <ele>252.963989</ele>
        <time>2013-09-23T14:12:56Z</time>
      </trkpt>
      <trkpt lat="43.25099" lon="-0.53777">
        <ele>249.599487</ele>
        <time>2013-09-23T14:13:02Z</time>
      </trkpt>
      <trkpt lat="43.25095" lon="-0.53773">
        <ele>249.599487</ele>
        <time>2013-09-23T14:13:11Z</time>
      </trkpt>
      <trkpt lat="43.25084" lon="-0.53748">
        <ele>248.157593</ele>
        <time>2013-09-23T14:13:23Z</time>
      </trkpt>
      <trkpt lat="43.251" lon="-0.53713">
        <ele>245.75415</ele>
        <time>2013-09-23T14:13:34Z</time>
      </trkpt>
      <trkpt lat="43.25107" lon="-0.53696">
        <ele>243.831543</ele>
        <time>2013-09-23T14:13:42Z</time>
      </trkpt>
      <trkpt lat="43.25107" lon="-0.53692">
        <ele>243.831543</ele>
        <time>2013-09-23T14:13:47Z</time>
      </trkpt>
      <trkpt lat="43.25108" lon="-0.53688">
        <ele>241.908936</ele>
        <time>2013-09-23T14:13:50Z</time>
      </trkpt>
      <trkpt lat="43.25108" lon="-0.53674">
        <ele>239.986206</ele>
        <time>2013-09-23T14:14:02Z</time>
      </trkpt>
      <trkpt lat="43.25115" lon="-0.53651">
        <ele>238.544312</ele>
        <time>2013-09-23T14:14:13Z</time>
      </trkpt>
      <trkpt lat="43.25116" lon="-0.53649">
        <ele>238.544312</ele>
        <time>2013-09-23T14:14:14Z</time>
      </trkpt>
      <trkpt lat="43.25116" lon="-0.53628">
        <ele>237.102295</ele>
        <time>2013-09-23T14:14:22Z</time>
      </trkpt>
      <trkpt lat="43.25102" lon="-0.53622">
        <ele>234.218384</ele>
        <time>2013-09-23T14:14:33Z</time>
      </trkpt>
      <trkpt lat="43.25098" lon="-0.53627">
        <ele>234.218384</ele>
        <time>2013-09-23T14:14:37Z</time>
      </trkpt>
      <trkpt lat="43.25084" lon="-0.53647">
        <ele>231.334351</ele>
        <time>2013-09-23T14:14:50Z</time>
      </trkpt>
      <trkpt lat="43.25075" lon="-0.5366">
        <ele>230.373047</ele>
        <time>2013-09-23T14:15:02Z</time>
      </trkpt>
      <trkpt lat="43.25064" lon="-0.53667">
        <ele>229.892334</ele>
        <time>2013-09-23T14:15:09Z</time>
      </trkpt>
      <trkpt lat="43.25052" lon="-0.53671">
        <ele>228.931152</ele>
        <time>2013-09-23T14:15:14Z</time>
      </trkpt>
      <trkpt lat="43.25046" lon="-0.53679">
        <ele>226.527832</ele>
        <time>2013-09-23T14:15:19Z</time>
      </trkpt>
      <trkpt lat="43.25021" lon="-0.53708">
        <ele>222.201782</ele>
        <time>2013-09-23T14:15:29Z</time>
      </trkpt>
      <trkpt lat="43.25003" lon="-0.53733">
        <ele>221.240601</ele>
        <time>2013-09-23T14:15:39Z</time>
      </trkpt>
      <trkpt lat="43.24974" lon="-0.53766">
        <ele>219.317993</ele>
        <time>2013-09-23T14:15:50Z</time>
      </trkpt>
      <trkpt lat="43.24969" lon="-0.53771">
        <ele>218.356567</ele>
        <time>2013-09-23T14:15:52Z</time>
      </trkpt>
      <trkpt lat="43.2495" lon="-0.53804">
        <ele>215.472656</ele>
        <time>2013-09-23T14:16:02Z</time>
      </trkpt>
      <trkpt lat="43.24939" lon="-0.53822">
        <ele>215.953247</ele>
        <time>2013-09-23T14:16:06Z</time>
      </trkpt>
      <trkpt lat="43.24927" lon="-0.5384">
        <ele>214.51123</ele>
        <time>2013-09-23T14:16:10Z</time>
      </trkpt>
      <trkpt lat="43.24902" lon="-0.53863">
        <ele>213.550049</ele>
        <time>2013-09-23T14:16:21Z</time>
      </trkpt>
      <trkpt lat="43.249" lon="-0.53863">
        <ele>213.069336</ele>
        <time>2013-09-23T14:16:22Z</time>
      </trkpt>
      <trkpt lat="43.24894" lon="-0.53859">
        <ele>212.588623</ele>
        <time>2013-09-23T14:16:26Z</time>
      </trkpt>
      <trkpt lat="43.24859" lon="-0.53857">
        <ele>214.03064</ele>
        <time>2013-09-23T14:16:40Z</time>
      </trkpt>
      <trkpt lat="43.24829" lon="-0.5387">
        <ele>215.472656</ele>
        <time>2013-09-23T14:16:53Z</time>
      </trkpt>
      <trkpt lat="43.24816" lon="-0.53873">
        <ele>215.953247</ele>
        <time>2013-09-23T14:16:59Z</time>
      </trkpt>
      <trkpt lat="43.24811" lon="-0.53877">
        <ele>216.43396</ele>
        <time>2013-09-23T14:17:02Z</time>
      </trkpt>
      <trkpt lat="43.24796" lon="-0.53903">
        <ele>217.875977</ele>
        <time>2013-09-23T14:17:15Z</time>
      </trkpt>
      <trkpt lat="43.24783" lon="-0.53928">
        <ele>219.798584</ele>
        <time>2013-09-23T14:17:28Z</time>
      </trkpt>
      <trkpt lat="43.2475" lon="-0.5394">
        <ele>222.201782</ele>
        <time>2013-09-23T14:17:44Z</time>
      </trkpt>
      <trkpt lat="43.24744" lon="-0.53943">
        <ele>222.201782</ele>
        <time>2013-09-23T14:17:48Z</time>
      </trkpt>
      <trkpt lat="43.24719" lon="-0.53944">
        <ele>223.643799</ele>
        <time>2013-09-23T14:18:01Z</time>
      </trkpt>
      <trkpt lat="43.24689" lon="-0.53937">
        <ele>223.643799</ele>
        <time>2013-09-23T14:18:15Z</time>
      </trkpt>
      <trkpt lat="43.24658" lon="-0.53929">
        <ele>225.085938</ele>
        <time>2013-09-23T14:18:29Z</time>
      </trkpt>
      <trkpt lat="43.24628" lon="-0.53923">
        <ele>227.008545</ele>
        <time>2013-09-23T14:18:45Z</time>
      </trkpt>
      <trkpt lat="43.246" lon="-0.53921">
        <ele>229.411743</ele>
        <time>2013-09-23T14:18:59Z</time>
      </trkpt>
      <trkpt lat="43.24572" lon="-0.53921">
        <ele>230.85376</ele>
        <time>2013-09-23T14:19:14Z</time>
      </trkpt>
      <trkpt lat="43.24566" lon="-0.53922">
        <ele>231.814941</ele>
        <time>2013-09-23T14:19:17Z</time>
      </trkpt>
      <trkpt lat="43.24536" lon="-0.53933">
        <ele>232.776489</ele>
        <time>2013-09-23T14:19:32Z</time>
      </trkpt>
      <trkpt lat="43.24504" lon="-0.53942">
        <ele>234.699097</ele>
        <time>2013-09-23T14:19:47Z</time>
      </trkpt>
      <trkpt lat="43.24474" lon="-0.53946">
        <ele>235.660278</ele>
        <time>2013-09-23T14:20:03Z</time>
      </trkpt>
      <trkpt lat="43.24445" lon="-0.53952">
        <ele>238.544312</ele>
        <time>2013-09-23T14:20:19Z</time>
      </trkpt>
      <trkpt lat="43.2443" lon="-0.53955">
        <ele>239.505493</ele>
        <time>2013-09-23T14:20:27Z</time>
      </trkpt>
      <trkpt lat="43.24408" lon="-0.53967">
        <ele>240.947632</ele>
        <time>2013-09-23T14:20:43Z</time>
      </trkpt>
      <trkpt lat="43.24395" lon="-0.53972">
        <ele>243.35083</ele>
        <time>2013-09-23T14:20:57Z</time>
      </trkpt>
      <trkpt lat="43.24388" lon="-0.53966">
        <ele>245.273438</ele>
        <time>2013-09-23T14:21:10Z</time>
      </trkpt>
      <trkpt lat="43.24378" lon="-0.53962">
        <ele>247.676758</ele>
        <time>2013-09-23T14:21:23Z</time>
      </trkpt>
      <trkpt lat="43.24377" lon="-0.5396">
        <ele>247.676758</ele>
        <time>2013-09-23T14:21:27Z</time>
      </trkpt>
      <trkpt lat="43.24364" lon="-0.53955">
        <ele>251.041382</ele>
        <time>2013-09-23T14:21:39Z</time>
      </trkpt>
      <trkpt lat="43.24355" lon="-0.53947">
        <ele>251.522095</ele>
        <time>2013-09-23T14:21:53Z</time>
      </trkpt>
      <trkpt lat="43.24347" lon="-0.53944">
        <ele>253.925415</ele>
        <time>2013-09-23T14:22:06Z</time>
      </trkpt>
      <trkpt lat="43.24343" lon="-0.53941">
        <ele>256.328735</ele>
        <time>2013-09-23T14:22:15Z</time>
      </trkpt>
      <trkpt lat="43.24342" lon="-0.53939">
        <ele>256.809326</ele>
        <time>2013-09-23T14:22:19Z</time>
      </trkpt>
      <trkpt lat="43.24336" lon="-0.53932">
        <ele>260.17395</ele>
        <time>2013-09-23T14:22:33Z</time>
      </trkpt>
      <trkpt lat="43.24328" lon="-0.53919">
        <ele>262.577148</ele>
        <time>2013-09-23T14:22:49Z</time>
      </trkpt>
      <trkpt lat="43.24315" lon="-0.53915">
        <ele>265.941895</ele>
        <time>2013-09-23T14:23:02Z</time>
      </trkpt>
      <trkpt lat="43.24312" lon="-0.53911">
        <ele>267.383911</ele>
        <time>2013-09-23T14:23:18Z</time>
      </trkpt>
      <trkpt lat="43.24315" lon="-0.53896">
        <ele>269.787109</ele>
        <time>2013-09-23T14:23:33Z</time>
      </trkpt>
      <trkpt lat="43.24323" lon="-0.53879">
        <ele>272.19043</ele>
        <time>2013-09-23T14:23:50Z</time>
      </trkpt>
      <trkpt lat="43.24327" lon="-0.53873">
        <ele>273.632446</ele>
        <time>2013-09-23T14:23:59Z</time>
      </trkpt>
      <trkpt lat="43.24328" lon="-0.53865">
        <ele>274.113037</ele>
        <time>2013-09-23T14:24:08Z</time>
      </trkpt>
      <trkpt lat="43.24328" lon="-0.53856">
        <ele>277.477661</ele>
        <time>2013-09-23T14:24:22Z</time>
      </trkpt>
      <trkpt lat="43.24327" lon="-0.53842">
        <ele>279.400269</ele>
        <time>2013-09-23T14:24:38Z</time>
      </trkpt>
      <trkpt lat="43.24326" lon="-0.53838">
        <ele>278.919678</ele>
        <time>2013-09-23T14:24:49Z</time>
      </trkpt>
      <trkpt lat="43.24325" lon="-0.53836">
        <ele>281.322998</ele>
        <time>2013-09-23T14:24:52Z</time>
      </trkpt>
      <trkpt lat="43.24324" lon="-0.53828">
        <ele>282.284302</ele>
        <time>2013-09-23T14:25:02Z</time>
      </trkpt>
      <trkpt lat="43.24322" lon="-0.53814">
        <ele>283.245605</ele>
        <time>2013-09-23T14:25:18Z</time>
      </trkpt>
      <trkpt lat="43.2432" lon="-0.53807">
        <ele>286.610229</ele>
        <time>2013-09-23T14:25:27Z</time>
      </trkpt>
      <trkpt lat="43.24315" lon="-0.53796">
        <ele>287.571411</ele>
        <time>2013-09-23T14:25:44Z</time>
      </trkpt>
      <trkpt lat="43.24307" lon="-0.53788">
        <ele>290.936157</ele>
        <time>2013-09-23T14:26:01Z</time>
      </trkpt>
      <trkpt lat="43.24307" lon="-0.53787">
        <ele>291.416748</ele>
        <time>2013-09-23T14:26:02Z</time>
      </trkpt>
      <trkpt lat="43.24305" lon="-0.53784">
        <ele>292.378174</ele>
        <time>2013-09-23T14:26:13Z</time>
      </trkpt>
      <trkpt lat="43.24296" lon="-0.53774">
        <ele>294.300781</ele>
        <time>2013-09-23T14:26:27Z</time>
      </trkpt>
      <trkpt lat="43.24287" lon="-0.53767">
        <ele>296.223511</ele>
        <time>2013-09-23T14:26:41Z</time>
      </trkpt>
      <trkpt lat="43.24272" lon="-0.53763">
        <ele>297.665405</ele>
        <time>2013-09-23T14:26:57Z</time>
      </trkpt>
      <trkpt lat="43.24268" lon="-0.53762">
        <ele>297.665405</ele>
        <time>2013-09-23T14:27:04Z</time>
      </trkpt>
      <trkpt lat="43.24254" lon="-0.53763">
        <ele>301.51062</ele>
        <time>2013-09-23T14:27:16Z</time>
      </trkpt>
      <trkpt lat="43.24245" lon="-0.53757">
        <ele>302.952515</ele>
        <time>2013-09-23T14:27:31Z</time>
      </trkpt>
      <trkpt lat="43.24244" lon="-0.53755">
        <ele>301.51062</ele>
        <time>2013-09-23T14:27:38Z</time>
      </trkpt>
      <trkpt lat="43.24242" lon="-0.53753">
        <ele>303.91394</ele>
        <time>2013-09-23T14:27:41Z</time>
      </trkpt>
      <trkpt lat="43.24234" lon="-0.53747">
        <ele>306.317261</ele>
        <time>2013-09-23T14:27:51Z</time>
      </trkpt>
      <trkpt lat="43.24212" lon="-0.53744">
        <ele>307.278564</ele>
        <time>2013-09-23T14:28:06Z</time>
      </trkpt>
      <trkpt lat="43.24189" lon="-0.53747">
        <ele>309.681885</ele>
        <time>2013-09-23T14:28:22Z</time>
      </trkpt>
      <trkpt lat="43.24184" lon="-0.53751">
        <ele>310.162476</ele>
        <time>2013-09-23T14:28:28Z</time>
      </trkpt>
      <trkpt lat="43.24177" lon="-0.53767">
        <ele>313.527222</ele>
        <time>2013-09-23T14:28:39Z</time>
      </trkpt>
      <trkpt lat="43.24176" lon="-0.53768">
        <ele>313.527222</ele>
        <time>2013-09-23T14:28:40Z</time>
      </trkpt>
      <trkpt lat="43.24174" lon="-0.53769">
        <ele>313.527222</ele>
        <time>2013-09-23T14:28:41Z</time>
      </trkpt>
      <trkpt lat="43.24171" lon="-0.53776">
        <ele>314.488403</ele>
        <time>2013-09-23T14:28:45Z</time>
      </trkpt>
      <trkpt lat="43.24152" lon="-0.53793">
        <ele>314.488403</ele>
        <time>2013-09-23T14:28:58Z</time>
      </trkpt>
      <trkpt lat="43.24145" lon="-0.53802">
        <ele>314.969116</ele>
        <time>2013-09-23T14:29:05Z</time>
      </trkpt>
      <trkpt lat="43.24145" lon="-0.53815">
        <ele>314.969116</ele>
        <time>2013-09-23T14:29:09Z</time>
      </trkpt>
      <trkpt lat="43.24156" lon="-0.53864">
        <ele>314.007813</ele>
        <time>2013-09-23T14:29:20Z</time>
      </trkpt>
      <trkpt lat="43.24163" lon="-0.53879">
        <ele>313.527222</ele>
        <time>2013-09-23T14:29:23Z</time>
      </trkpt>
      <trkpt lat="43.24171" lon="-0.53896">
        <ele>312.085205</ele>
        <time>2013-09-23T14:29:26Z</time>
      </trkpt>
      <trkpt lat="43.24195" lon="-0.53951">
        <ele>311.604492</ele>
        <time>2013-09-23T14:29:37Z</time>
      </trkpt>
      <trkpt lat="43.24207" lon="-0.54001">
        <ele>310.162476</ele>
        <time>2013-09-23T14:29:47Z</time>
      </trkpt>
      <trkpt lat="43.24215" lon="-0.54051">
        <ele>309.201172</ele>
        <time>2013-09-23T14:29:56Z</time>
      </trkpt>
      <trkpt lat="43.24226" lon="-0.5408">
        <ele>306.797852</ele>
        <time>2013-09-23T14:30:02Z</time>
      </trkpt>
      <trkpt lat="43.24255" lon="-0.54108">
        <ele>303.433228</ele>
        <time>2013-09-23T14:30:13Z</time>
      </trkpt>
      <trkpt lat="43.24281" lon="-0.54123">
        <ele>300.549316</ele>
        <time>2013-09-23T14:30:23Z</time>
      </trkpt>
      <trkpt lat="43.24319" lon="-0.54142">
        <ele>299.1073</ele>
        <time>2013-09-23T14:30:34Z</time>
      </trkpt>
      <trkpt lat="43.24324" lon="-0.54144">
        <ele>298.626709</ele>
        <time>2013-09-23T14:30:36Z</time>
      </trkpt>
      <trkpt lat="43.2436" lon="-0.54161">
        <ele>296.223511</ele>
        <time>2013-09-23T14:30:45Z</time>
      </trkpt>
      <trkpt lat="43.24369" lon="-0.5417">
        <ele>295.261963</ele>
        <time>2013-09-23T14:30:47Z</time>
      </trkpt>
      <trkpt lat="43.24392" lon="-0.54191">
        <ele>294.300781</ele>
        <time>2013-09-23T14:30:52Z</time>
      </trkpt>
      <trkpt lat="43.2441" lon="-0.54215">
        <ele>293.339355</ele>
        <time>2013-09-23T14:30:57Z</time>
      </trkpt>
      <trkpt lat="43.24428" lon="-0.54232">
        <ele>292.378174</ele>
        <time>2013-09-23T14:31:02Z</time>
      </trkpt>
      <trkpt lat="43.24446" lon="-0.54251">
        <ele>292.858765</ele>
        <time>2013-09-23T14:31:07Z</time>
      </trkpt>
      <trkpt lat="43.24468" lon="-0.54278">
        <ele>289.01355</ele>
        <time>2013-09-23T14:31:14Z</time>
      </trkpt>
      <trkpt lat="43.2448" lon="-0.54288">
        <ele>289.01355</ele>
        <time>2013-09-23T14:31:17Z</time>
      </trkpt>
      <trkpt lat="43.24496" lon="-0.54312">
        <ele>287.571411</ele>
        <time>2013-09-23T14:31:23Z</time>
      </trkpt>
      <trkpt lat="43.24507" lon="-0.54334">
        <ele>286.610229</ele>
        <time>2013-09-23T14:31:33Z</time>
      </trkpt>
      <trkpt lat="43.24509" lon="-0.54338">
        <ele>287.571411</ele>
        <time>2013-09-23T14:31:35Z</time>
      </trkpt>
      <trkpt lat="43.24515" lon="-0.5434">
        <ele>286.610229</ele>
        <time>2013-09-23T14:31:38Z</time>
      </trkpt>
      <trkpt lat="43.24519" lon="-0.54348">
        <ele>288.052246</ele>
        <time>2013-09-23T14:31:42Z</time>
      </trkpt>
      <trkpt lat="43.24536" lon="-0.5439">
        <ele>287.09082</ele>
        <time>2013-09-23T14:31:53Z</time>
      </trkpt>
      <trkpt lat="43.24575" lon="-0.54434">
        <ele>286.610229</ele>
        <time>2013-09-23T14:32:06Z</time>
      </trkpt>
      <trkpt lat="43.24592" lon="-0.54446">
        <ele>286.129517</ele>
        <time>2013-09-23T14:32:11Z</time>
      </trkpt>
      <trkpt lat="43.24624" lon="-0.54459">
        <ele>288.532959</ele>
        <time>2013-09-23T14:32:23Z</time>
      </trkpt>
      <trkpt lat="43.24629" lon="-0.54458">
        <ele>289.01355</ele>
        <time>2013-09-23T14:32:26Z</time>
      </trkpt>
      <trkpt lat="43.24658" lon="-0.54474">
        <ele>290.936157</ele>
        <time>2013-09-23T14:32:41Z</time>
      </trkpt>
      <trkpt lat="43.24677" lon="-0.54501">
        <ele>292.378174</ele>
        <time>2013-09-23T14:32:55Z</time>
      </trkpt>
      <trkpt lat="43.24692" lon="-0.54527">
        <ele>296.223511</ele>
        <time>2013-09-23T14:33:09Z</time>
      </trkpt>
      <trkpt lat="43.24702" lon="-0.54547">
        <ele>296.704102</ele>
        <time>2013-09-23T14:33:18Z</time>
      </trkpt>
      <trkpt lat="43.24721" lon="-0.54576">
        <ele>297.184692</ele>
        <time>2013-09-23T14:33:32Z</time>
      </trkpt>
      <trkpt lat="43.24724" lon="-0.54579">
        <ele>297.665405</ele>
        <time>2013-09-23T14:33:34Z</time>
      </trkpt>
      <trkpt lat="43.24731" lon="-0.54596">
        <ele>299.1073</ele>
        <time>2013-09-23T14:33:41Z</time>
      </trkpt>
      <trkpt lat="43.2474" lon="-0.54624">
        <ele>300.068726</ele>
        <time>2013-09-23T14:33:51Z</time>
      </trkpt>
      <trkpt lat="43.24749" lon="-0.5465">
        <ele>301.029907</ele>
        <time>2013-09-23T14:34:01Z</time>
      </trkpt>
      <trkpt lat="43.24758" lon="-0.54686">
        <ele>303.433228</ele>
        <time>2013-09-23T14:34:15Z</time>
      </trkpt>
      <trkpt lat="43.24774" lon="-0.5472">
        <ele>304.875244</ele>
        <time>2013-09-23T14:34:30Z</time>
      </trkpt>
      <trkpt lat="43.24772" lon="-0.54756">
        <ele>304.875244</ele>
        <time>2013-09-23T14:34:44Z</time>
      </trkpt>
      <trkpt lat="43.2476" lon="-0.54792">
        <ele>303.91394</ele>
        <time>2013-09-23T14:34:54Z</time>
      </trkpt>
      <trkpt lat="43.24753" lon="-0.54836">
        <ele>304.875244</ele>
        <time>2013-09-23T14:35:06Z</time>
      </trkpt>
      <trkpt lat="43.24753" lon="-0.54865">
        <ele>305.83667</ele>
        <time>2013-09-23T14:35:14Z</time>
      </trkpt>
      <trkpt lat="43.24757" lon="-0.54878">
        <ele>306.317261</ele>
        <time>2013-09-23T14:35:19Z</time>
      </trkpt>
      <trkpt lat="43.24761" lon="-0.54911">
        <ele>308.239868</ele>
        <time>2013-09-23T14:35:29Z</time>
      </trkpt>
      <trkpt lat="43.24771" lon="-0.54946">
        <ele>308.239868</ele>
        <time>2013-09-23T14:35:41Z</time>
      </trkpt>
      <trkpt lat="43.24773" lon="-0.54993">
        <ele>309.201172</ele>
        <time>2013-09-23T14:35:55Z</time>
      </trkpt>
      <trkpt lat="43.24777" lon="-0.55009">
        <ele>307.278564</ele>
        <time>2013-09-23T14:35:58Z</time>
      </trkpt>
      <trkpt lat="43.24779" lon="-0.55015">
        <ele>306.317261</ele>
        <time>2013-09-23T14:35:59Z</time>
      </trkpt>
      <trkpt lat="43.24782" lon="-0.55027">
        <ele>305.355957</ele>
        <time>2013-09-23T14:36:01Z</time>
      </trkpt>
      <trkpt lat="43.24786" lon="-0.55038">
        <ele>304.875244</ele>
        <time>2013-09-23T14:36:03Z</time>
      </trkpt>
      <trkpt lat="43.24803" lon="-0.55075">
        <ele>302.471924</ele>
        <time>2013-09-23T14:36:10Z</time>
      </trkpt>
      <trkpt lat="43.24822" lon="-0.55095">
        <ele>301.51062</ele>
        <time>2013-09-23T14:36:14Z</time>
      </trkpt>
      <trkpt lat="43.24836" lon="-0.5512">
        <ele>299.588013</ele>
        <time>2013-09-23T14:36:18Z</time>
      </trkpt>
      <trkpt lat="43.24842" lon="-0.55139">
        <ele>298.626709</ele>
        <time>2013-09-23T14:36:26Z</time>
      </trkpt>
      <trkpt lat="43.24847" lon="-0.55141">
        <ele>298.626709</ele>
        <time>2013-09-23T14:36:39Z</time>
      </trkpt>
      <trkpt lat="43.24867" lon="-0.55167">
        <ele>301.029907</ele>
        <time>2013-09-23T14:36:51Z</time>
      </trkpt>
      <trkpt lat="43.24899" lon="-0.55191">
        <ele>302.952515</ele>
        <time>2013-09-23T14:37:04Z</time>
      </trkpt>
      <trkpt lat="43.24919" lon="-0.55205">
        <ele>301.029907</ele>
        <time>2013-09-23T14:37:12Z</time>
      </trkpt>
      <trkpt lat="43.24934" lon="-0.55213">
        <ele>299.588013</ele>
        <time>2013-09-23T14:37:16Z</time>
      </trkpt>
      <trkpt lat="43.2495" lon="-0.55217">
        <ele>297.184692</ele>
        <time>2013-09-23T14:37:21Z</time>
      </trkpt>
      <trkpt lat="43.24954" lon="-0.55222">
        <ele>296.223511</ele>
        <time>2013-09-23T14:37:23Z</time>
      </trkpt>
      <trkpt lat="43.24964" lon="-0.55232">
        <ele>293.820068</ele>
        <time>2013-09-23T14:37:26Z</time>
      </trkpt>
      <trkpt lat="43.24974" lon="-0.55238">
        <ele>292.858765</ele>
        <time>2013-09-23T14:37:28Z</time>
      </trkpt>
      <trkpt lat="43.25024" lon="-0.55262">
        <ele>289.974854</ele>
        <time>2013-09-23T14:37:36Z</time>
      </trkpt>
      <trkpt lat="43.25045" lon="-0.55278">
        <ele>289.494141</ele>
        <time>2013-09-23T14:37:40Z</time>
      </trkpt>
      <trkpt lat="43.25067" lon="-0.55305">
        <ele>288.052246</ele>
        <time>2013-09-23T14:37:49Z</time>
      </trkpt>
      <trkpt lat="43.25089" lon="-0.55333">
        <ele>289.01355</ele>
        <time>2013-09-23T14:38:00Z</time>
      </trkpt>
      <trkpt lat="43.25111" lon="-0.55353">
        <ele>291.897461</ele>
        <time>2013-09-23T14:38:13Z</time>
      </trkpt>
      <trkpt lat="43.25112" lon="-0.55357">
        <ele>291.897461</ele>
        <time>2013-09-23T14:38:15Z</time>
      </trkpt>
      <trkpt lat="43.25122" lon="-0.55372">
        <ele>294.781372</ele>
        <time>2013-09-23T14:38:25Z</time>
      </trkpt>
      <trkpt lat="43.25131" lon="-0.55397">
        <ele>297.665405</ele>
        <time>2013-09-23T14:38:41Z</time>
      </trkpt>
      <trkpt lat="43.25146" lon="-0.55423">
        <ele>299.588013</ele>
        <time>2013-09-23T14:38:58Z</time>
      </trkpt>
      <trkpt lat="43.25151" lon="-0.55432">
        <ele>299.588013</ele>
        <time>2013-09-23T14:39:03Z</time>
      </trkpt>
      <trkpt lat="43.25153" lon="-0.55435">
        <ele>299.588013</ele>
        <time>2013-09-23T14:39:05Z</time>
      </trkpt>
      <trkpt lat="43.25158" lon="-0.55443">
        <ele>300.549316</ele>
        <time>2013-09-23T14:39:09Z</time>
      </trkpt>
      <trkpt lat="43.25185" lon="-0.55465">
        <ele>300.549316</ele>
        <time>2013-09-23T14:39:22Z</time>
      </trkpt>
      <trkpt lat="43.25209" lon="-0.55488">
        <ele>301.991333</ele>
        <time>2013-09-23T14:39:36Z</time>
      </trkpt>
      <trkpt lat="43.25231" lon="-0.55498">
        <ele>304.394653</ele>
        <time>2013-09-23T14:39:49Z</time>
      </trkpt>
      <trkpt lat="43.25256" lon="-0.5551">
        <ele>305.83667</ele>
        <time>2013-09-23T14:40:03Z</time>
      </trkpt>
      <trkpt lat="43.25275" lon="-0.55527">
        <ele>306.797852</ele>
        <time>2013-09-23T14:40:14Z</time>
      </trkpt>
      <trkpt lat="43.25311" lon="-0.55541">
        <ele>306.317261</ele>
        <time>2013-09-23T14:40:26Z</time>
      </trkpt>
      <trkpt lat="43.25353" lon="-0.55552">
        <ele>306.797852</ele>
        <time>2013-09-23T14:40:39Z</time>
      </trkpt>
      <trkpt lat="43.25375" lon="-0.55556">
        <ele>307.759277</ele>
        <time>2013-09-23T14:40:49Z</time>
      </trkpt>
      <trkpt lat="43.25395" lon="-0.55567">
        <ele>310.162476</ele>
        <time>2013-09-23T14:41:03Z</time>
      </trkpt>
      <trkpt lat="43.25419" lon="-0.55576">
        <ele>312.565796</ele>
        <time>2013-09-23T14:41:21Z</time>
      </trkpt>
      <trkpt lat="43.25444" lon="-0.55583">
        <ele>314.007813</ele>
        <time>2013-09-23T14:41:35Z</time>
      </trkpt>
      <trkpt lat="43.25467" lon="-0.5559">
        <ele>314.488403</ele>
        <time>2013-09-23T14:41:47Z</time>
      </trkpt>
      <trkpt lat="43.25516" lon="-0.55611">
        <ele>314.007813</ele>
        <time>2013-09-23T14:42:05Z</time>
      </trkpt>
      <trkpt lat="43.25574" lon="-0.55646">
        <ele>314.007813</ele>
        <time>2013-09-23T14:42:25Z</time>
      </trkpt>
      <trkpt lat="43.25626" lon="-0.55671">
        <ele>313.527222</ele>
        <time>2013-09-23T14:42:42Z</time>
      </trkpt>
      <trkpt lat="43.25665" lon="-0.55679">
        <ele>311.123779</ele>
        <time>2013-09-23T14:42:55Z</time>
      </trkpt>
      <trkpt lat="43.25716" lon="-0.55687">
        <ele>307.759277</ele>
        <time>2013-09-23T14:43:08Z</time>
      </trkpt>
      <trkpt lat="43.25726" lon="-0.55692">
        <ele>306.797852</ele>
        <time>2013-09-23T14:43:10Z</time>
      </trkpt>
      <trkpt lat="43.25739" lon="-0.557">
        <ele>305.355957</ele>
        <time>2013-09-23T14:43:12Z</time>
      </trkpt>
      <trkpt lat="43.25746" lon="-0.55705">
        <ele>304.875244</ele>
        <time>2013-09-23T14:43:13Z</time>
      </trkpt>
      <trkpt lat="43.25759" lon="-0.55711">
        <ele>302.952515</ele>
        <time>2013-09-23T14:43:15Z</time>
      </trkpt>
      <trkpt lat="43.2582" lon="-0.55712">
        <ele>300.549316</ele>
        <time>2013-09-23T14:43:26Z</time>
      </trkpt>
      <trkpt lat="43.25829" lon="-0.55708">
        <ele>298.626709</ele>
        <time>2013-09-23T14:43:29Z</time>
      </trkpt>
      <trkpt lat="43.2584" lon="-0.55708">
        <ele>297.184692</ele>
        <time>2013-09-23T14:43:32Z</time>
      </trkpt>
      <trkpt lat="43.25855" lon="-0.55712">
        <ele>294.781372</ele>
        <time>2013-09-23T14:43:36Z</time>
      </trkpt>
      <trkpt lat="43.2587" lon="-0.5572">
        <ele>292.378174</ele>
        <time>2013-09-23T14:43:40Z</time>
      </trkpt>
      <trkpt lat="43.25884" lon="-0.55728">
        <ele>288.532959</ele>
        <time>2013-09-23T14:43:44Z</time>
      </trkpt>
      <trkpt lat="43.25888" lon="-0.5573">
        <ele>288.532959</ele>
        <time>2013-09-23T14:43:45Z</time>
      </trkpt>
      <trkpt lat="43.25895" lon="-0.55736">
        <ele>287.09082</ele>
        <time>2013-09-23T14:43:47Z</time>
      </trkpt>
      <trkpt lat="43.25899" lon="-0.55739">
        <ele>286.610229</ele>
        <time>2013-09-23T14:43:48Z</time>
      </trkpt>
      <trkpt lat="43.25907" lon="-0.55745">
        <ele>285.168213</ele>
        <time>2013-09-23T14:43:50Z</time>
      </trkpt>
      <trkpt lat="43.25926" lon="-0.55749">
        <ele>281.322998</ele>
        <time>2013-09-23T14:43:54Z</time>
      </trkpt>
      <trkpt lat="43.2593" lon="-0.5575">
        <ele>280.361694</ele>
        <time>2013-09-23T14:43:55Z</time>
      </trkpt>
      <trkpt lat="43.25967" lon="-0.55762">
        <ele>276.99707</ele>
        <time>2013-09-23T14:44:02Z</time>
      </trkpt>
      <trkpt lat="43.25973" lon="-0.55765">
        <ele>276.035645</ele>
        <time>2013-09-23T14:44:03Z</time>
      </trkpt>
      <trkpt lat="43.25987" lon="-0.55776">
        <ele>274.113037</ele>
        <time>2013-09-23T14:44:06Z</time>
      </trkpt>
      <trkpt lat="43.26003" lon="-0.55787">
        <ele>270.2677</ele>
        <time>2013-09-23T14:44:10Z</time>
      </trkpt>
      <trkpt lat="43.26008" lon="-0.55789">
        <ele>269.787109</ele>
        <time>2013-09-23T14:44:11Z</time>
      </trkpt>
      <trkpt lat="43.26026" lon="-0.55798">
        <ele>266.903198</ele>
        <time>2013-09-23T14:44:16Z</time>
      </trkpt>
      <trkpt lat="43.26034" lon="-0.55801">
        <ele>265.941895</ele>
        <time>2013-09-23T14:44:18Z</time>
      </trkpt>
      <trkpt lat="43.26049" lon="-0.55815">
        <ele>263.538574</ele>
        <time>2013-09-23T14:44:23Z</time>
      </trkpt>
      <trkpt lat="43.26056" lon="-0.55821">
        <ele>260.17395</ele>
        <time>2013-09-23T14:44:26Z</time>
      </trkpt>
      <trkpt lat="43.26075" lon="-0.55828">
        <ele>256.809326</ele>
        <time>2013-09-23T14:44:33Z</time>
      </trkpt>
      <trkpt lat="43.26088" lon="-0.55828">
        <ele>253.444702</ele>
        <time>2013-09-23T14:44:37Z</time>
      </trkpt>
      <trkpt lat="43.26099" lon="-0.55825">
        <ele>249.599487</ele>
        <time>2013-09-23T14:44:41Z</time>
      </trkpt>
      <trkpt lat="43.26101" lon="-0.55825">
        <ele>249.599487</ele>
        <time>2013-09-23T14:44:42Z</time>
      </trkpt>
      <trkpt lat="43.26114" lon="-0.55826">
        <ele>246.234863</ele>
        <time>2013-09-23T14:44:47Z</time>
      </trkpt>
      <trkpt lat="43.26118" lon="-0.55826">
        <ele>245.273438</ele>
        <time>2013-09-23T14:44:49Z</time>
      </trkpt>
      <trkpt lat="43.26123" lon="-0.55827">
        <ele>243.831543</ele>
        <time>2013-09-23T14:44:51Z</time>
      </trkpt>
      <trkpt lat="43.2613" lon="-0.55828">
        <ele>242.870239</ele>
        <time>2013-09-23T14:44:54Z</time>
      </trkpt>
      <trkpt lat="43.26138" lon="-0.55829">
        <ele>240.947632</ele>
        <time>2013-09-23T14:44:59Z</time>
      </trkpt>
      <trkpt lat="43.26149" lon="-0.55833">
        <ele>238.063599</ele>
        <time>2013-09-23T14:45:09Z</time>
      </trkpt>
      <trkpt lat="43.26171" lon="-0.5584">
        <ele>235.660278</ele>
        <time>2013-09-23T14:45:23Z</time>
      </trkpt>
      <trkpt lat="43.26176" lon="-0.55844">
        <ele>233.737671</ele>
        <time>2013-09-23T14:45:25Z</time>
      </trkpt>
      <trkpt lat="43.26189" lon="-0.55853">
        <ele>230.373047</ele>
        <time>2013-09-23T14:45:31Z</time>
      </trkpt>
      <trkpt lat="43.26191" lon="-0.55854">
        <ele>230.85376</ele>
        <time>2013-09-23T14:45:32Z</time>
      </trkpt>
      <trkpt lat="43.26207" lon="-0.55865">
        <ele>227.489136</ele>
        <time>2013-09-23T14:45:41Z</time>
      </trkpt>
      <trkpt lat="43.26211" lon="-0.55868">
        <ele>226.527832</ele>
        <time>2013-09-23T14:45:44Z</time>
      </trkpt>
      <trkpt lat="43.2622" lon="-0.55871">
        <ele>224.124512</ele>
        <time>2013-09-23T14:45:48Z</time>
      </trkpt>
      <trkpt lat="43.26223" lon="-0.55872">
        <ele>223.643799</ele>
        <time>2013-09-23T14:45:49Z</time>
      </trkpt>
      <trkpt lat="43.26229" lon="-0.55875">
        <ele>222.201782</ele>
        <time>2013-09-23T14:45:52Z</time>
      </trkpt>
      <trkpt lat="43.26231" lon="-0.55877">
        <ele>221.721191</ele>
        <time>2013-09-23T14:45:53Z</time>
      </trkpt>
      <trkpt lat="43.2625" lon="-0.55887">
        <ele>217.875977</ele>
        <time>2013-09-23T14:46:07Z</time>
      </trkpt>
      <trkpt lat="43.2626" lon="-0.55892">
        <ele>216.43396</ele>
        <time>2013-09-23T14:46:19Z</time>
      </trkpt>
      <trkpt lat="43.26265" lon="-0.55894">
        <ele>214.51123</ele>
        <time>2013-09-23T14:46:31Z</time>
      </trkpt>
      <trkpt lat="43.26266" lon="-0.55894">
        <ele>213.550049</ele>
        <time>2013-09-23T14:46:32Z</time>
      </trkpt>
      <trkpt lat="43.26275" lon="-0.55897">
        <ele>212.588623</ele>
        <time>2013-09-23T14:46:46Z</time>
      </trkpt>
      <trkpt lat="43.26285" lon="-0.55902">
        <ele>210.666016</ele>
        <time>2013-09-23T14:46:53Z</time>
      </trkpt>
      <trkpt lat="43.26305" lon="-0.55908">
        <ele>207.301392</ele>
        <time>2013-09-23T14:47:02Z</time>
      </trkpt>
      <trkpt lat="43.26316" lon="-0.55912">
        <ele>205.378784</ele>
        <time>2013-09-23T14:47:06Z</time>
      </trkpt>
      <trkpt lat="43.26335" lon="-0.55931">
        <ele>202.014282</ele>
        <time>2013-09-23T14:47:12Z</time>
      </trkpt>
      <trkpt lat="43.26342" lon="-0.55945">
        <ele>200.572266</ele>
        <time>2013-09-23T14:47:16Z</time>
      </trkpt>
      <trkpt lat="43.26346" lon="-0.55967">
        <ele>199.130127</ele>
        <time>2013-09-23T14:47:20Z</time>
      </trkpt>
      <trkpt lat="43.26359" lon="-0.56019">
        <ele>195.765625</ele>
        <time>2013-09-23T14:47:31Z</time>
      </trkpt>
      <trkpt lat="43.26362" lon="-0.56021">
        <ele>196.246338</ele>
        <time>2013-09-23T14:47:32Z</time>
      </trkpt>
      <trkpt lat="43.26387" lon="-0.56017">
        <ele>193.362305</ele>
        <time>2013-09-23T14:47:38Z</time>
      </trkpt>
      <trkpt lat="43.26422" lon="-0.56">
        <ele>190.478394</ele>
        <time>2013-09-23T14:47:50Z</time>
      </trkpt>
      <trkpt lat="43.26434" lon="-0.55995">
        <ele>189.997681</ele>
        <time>2013-09-23T14:47:57Z</time>
      </trkpt>
      <trkpt lat="43.2644" lon="-0.5602">
        <ele>191.439575</ele>
        <time>2013-09-23T14:48:07Z</time>
      </trkpt>
      <trkpt lat="43.26444" lon="-0.5603">
        <ele>190.958984</ele>
        <time>2013-09-23T14:48:10Z</time>
      </trkpt>
      <trkpt lat="43.26479" lon="-0.56069">
        <ele>194.32373</ele>
        <time>2013-09-23T14:48:25Z</time>
      </trkpt>
      <trkpt lat="43.26506" lon="-0.56117">
        <ele>195.284912</ele>
        <time>2013-09-23T14:48:40Z</time>
      </trkpt>
      <trkpt lat="43.26523" lon="-0.56148">
        <ele>196.246338</ele>
        <time>2013-09-23T14:48:54Z</time>
      </trkpt>
      <trkpt lat="43.26544" lon="-0.56193">
        <ele>197.20752</ele>
        <time>2013-09-23T14:49:13Z</time>
      </trkpt>
      <trkpt lat="43.26574" lon="-0.5625">
        <ele>198.168945</ele>
        <time>2013-09-23T14:49:39Z</time>
      </trkpt>
      <trkpt lat="43.26592" lon="-0.56287">
        <ele>199.61084</ele>
        <time>2013-09-23T14:49:59Z</time>
      </trkpt>
      <trkpt lat="43.26609" lon="-0.56316">
        <ele>202.494873</ele>
        <time>2013-09-23T14:50:18Z</time>
      </trkpt>
      <trkpt lat="43.26611" lon="-0.56316">
        <ele>202.494873</ele>
        <time>2013-09-23T14:50:19Z</time>
      </trkpt>
      <trkpt lat="43.26639" lon="-0.56332">
        <ele>205.378784</ele>
        <time>2013-09-23T14:50:38Z</time>
      </trkpt>
      <trkpt lat="43.26651" lon="-0.56336">
        <ele>205.859497</ele>
        <time>2013-09-23T14:50:50Z</time>
      </trkpt>
      <trkpt lat="43.26658" lon="-0.5634">
        <ele>206.820679</ele>
        <time>2013-09-23T14:50:54Z</time>
      </trkpt>
      <trkpt lat="43.26676" lon="-0.56349">
        <ele>208.743408</ele>
        <time>2013-09-23T14:51:06Z</time>
      </trkpt>
      <trkpt lat="43.26683" lon="-0.56357">
        <ele>208.743408</ele>
        <time>2013-09-23T14:51:18Z</time>
      </trkpt>
      <trkpt lat="43.26684" lon="-0.56358">
        <ele>209.704834</ele>
        <time>2013-09-23T14:51:20Z</time>
      </trkpt>
      <trkpt lat="43.26695" lon="-0.5637">
        <ele>212.108032</ele>
        <time>2013-09-23T14:51:34Z</time>
      </trkpt>
      <trkpt lat="43.26713" lon="-0.56388">
        <ele>215.472656</ele>
        <time>2013-09-23T14:51:55Z</time>
      </trkpt>
      <trkpt lat="43.26721" lon="-0.56397">
        <ele>217.875977</ele>
        <time>2013-09-23T14:52:05Z</time>
      </trkpt>
      <trkpt lat="43.26725" lon="-0.56401">
        <ele>218.356567</ele>
        <time>2013-09-23T14:52:09Z</time>
      </trkpt>
      <trkpt lat="43.26733" lon="-0.56413">
        <ele>217.875977</ele>
        <time>2013-09-23T14:52:19Z</time>
      </trkpt>
      <trkpt lat="43.26738" lon="-0.56416">
        <ele>218.83728</ele>
        <time>2013-09-23T14:52:24Z</time>
      </trkpt>
      <trkpt lat="43.26739" lon="-0.56419">
        <ele>219.317993</ele>
        <time>2013-09-23T14:52:26Z</time>
      </trkpt>
      <trkpt lat="43.26759" lon="-0.56433">
        <ele>221.240601</ele>
        <time>2013-09-23T14:52:47Z</time>
      </trkpt>
      <trkpt lat="43.2677" lon="-0.5644">
        <ele>222.201782</ele>
        <time>2013-09-23T14:53:01Z</time>
      </trkpt>
      <trkpt lat="43.26782" lon="-0.56445">
        <ele>225.085938</ele>
        <time>2013-09-23T14:53:13Z</time>
      </trkpt>
      <trkpt lat="43.26783" lon="-0.56445">
        <ele>223.643799</ele>
        <time>2013-09-23T14:53:15Z</time>
      </trkpt>
      <trkpt lat="43.26792" lon="-0.56452">
        <ele>225.566528</ele>
        <time>2013-09-23T14:53:27Z</time>
      </trkpt>
      <trkpt lat="43.26808" lon="-0.5646">
        <ele>227.008545</ele>
        <time>2013-09-23T14:53:43Z</time>
      </trkpt>
      <trkpt lat="43.26811" lon="-0.56462">
        <ele>228.931152</ele>
        <time>2013-09-23T14:53:46Z</time>
      </trkpt>
      <trkpt lat="43.26825" lon="-0.56469">
        <ele>229.892334</ele>
        <time>2013-09-23T14:54:03Z</time>
      </trkpt>
      <trkpt lat="43.26838" lon="-0.5648">
        <ele>233.25708</ele>
        <time>2013-09-23T14:54:20Z</time>
      </trkpt>
      <trkpt lat="43.2685" lon="-0.56489">
        <ele>236.140991</ele>
        <time>2013-09-23T14:54:38Z</time>
      </trkpt>
      <trkpt lat="43.26853" lon="-0.56492">
        <ele>236.621704</ele>
        <time>2013-09-23T14:54:43Z</time>
      </trkpt>
      <trkpt lat="43.26867" lon="-0.56503">
        <ele>239.024902</ele>
        <time>2013-09-23T14:55:02Z</time>
      </trkpt>
      <trkpt lat="43.26876" lon="-0.56512">
        <ele>242.389648</ele>
        <time>2013-09-23T14:55:18Z</time>
      </trkpt>
      <trkpt lat="43.26885" lon="-0.56528">
        <ele>244.312256</ele>
        <time>2013-09-23T14:55:35Z</time>
      </trkpt>
      <trkpt lat="43.26895" lon="-0.56549">
        <ele>246.715454</ele>
        <time>2013-09-23T14:55:52Z</time>
      </trkpt>
      <trkpt lat="43.26901" lon="-0.56563">
        <ele>250.0802</ele>
        <time>2013-09-23T14:56:09Z</time>
      </trkpt>
      <trkpt lat="43.26906" lon="-0.56576">
        <ele>251.522095</ele>
        <time>2013-09-23T14:56:21Z</time>
      </trkpt>
      <trkpt lat="43.26911" lon="-0.56588">
        <ele>254.886597</ele>
        <time>2013-09-23T14:56:30Z</time>
      </trkpt>
      <trkpt lat="43.2692" lon="-0.56588">
        <ele>256.809326</ele>
        <time>2013-09-23T14:56:47Z</time>
      </trkpt>
      <trkpt lat="43.2693" lon="-0.56579">
        <ele>259.212646</ele>
        <time>2013-09-23T14:57:05Z</time>
      </trkpt>
      <trkpt lat="43.26938" lon="-0.56583">
        <ele>260.654541</ele>
        <time>2013-09-23T14:57:22Z</time>
      </trkpt>
      <trkpt lat="43.26939" lon="-0.56584">
        <ele>261.135254</ele>
        <time>2013-09-23T14:57:24Z</time>
      </trkpt>
      <trkpt lat="43.26942" lon="-0.56587">
        <ele>261.615967</ele>
        <time>2013-09-23T14:57:29Z</time>
      </trkpt>
      <trkpt lat="43.26953" lon="-0.56593">
        <ele>264.980591</ele>
        <time>2013-09-23T14:57:45Z</time>
      </trkpt>
      <trkpt lat="43.26958" lon="-0.56596">
        <ele>264.980591</ele>
        <time>2013-09-23T14:57:58Z</time>
      </trkpt>
      <trkpt lat="43.26971" lon="-0.56609">
        <ele>268.345093</ele>
        <time>2013-09-23T14:58:17Z</time>
      </trkpt>
      <trkpt lat="43.26976" lon="-0.56632">
        <ele>271.229126</ele>
        <time>2013-09-23T14:58:38Z</time>
      </trkpt>
      <trkpt lat="43.26981" lon="-0.5665">
        <ele>272.671143</ele>
        <time>2013-09-23T14:58:58Z</time>
      </trkpt>
      <trkpt lat="43.26988" lon="-0.56659">
        <ele>276.035645</ele>
        <time>2013-09-23T14:59:10Z</time>
      </trkpt>
      <trkpt lat="43.26998" lon="-0.56671">
        <ele>278.438965</ele>
        <time>2013-09-23T14:59:28Z</time>
      </trkpt>
      <trkpt lat="43.27006" lon="-0.56677">
        <ele>279.400269</ele>
        <time>2013-09-23T14:59:48Z</time>
      </trkpt>
      <trkpt lat="43.27019" lon="-0.56688">
        <ele>282.284302</ele>
        <time>2013-09-23T15:00:07Z</time>
      </trkpt>
      <trkpt lat="43.27022" lon="-0.5669">
        <ele>282.765015</ele>
        <time>2013-09-23T15:00:11Z</time>
      </trkpt>
      <trkpt lat="43.27034" lon="-0.56701">
        <ele>286.129517</ele>
        <time>2013-09-23T15:00:26Z</time>
      </trkpt>
      <trkpt lat="43.27043" lon="-0.56709">
        <ele>286.610229</ele>
        <time>2013-09-23T15:00:43Z</time>
      </trkpt>
      <trkpt lat="43.27052" lon="-0.56718">
        <ele>288.532959</ele>
        <time>2013-09-23T15:00:56Z</time>
      </trkpt>
      <trkpt lat="43.27064" lon="-0.56729">
        <ele>292.378174</ele>
        <time>2013-09-23T15:01:09Z</time>
      </trkpt>
      <trkpt lat="43.27074" lon="-0.56738">
        <ele>292.858765</ele>
        <time>2013-09-23T15:01:26Z</time>
      </trkpt>
      <trkpt lat="43.27077" lon="-0.56743">
        <ele>292.858765</ele>
        <time>2013-09-23T15:01:30Z</time>
      </trkpt>
      <trkpt lat="43.27098" lon="-0.56777">
        <ele>295.261963</ele>
        <time>2013-09-23T15:01:52Z</time>
      </trkpt>
      <trkpt lat="43.27121" lon="-0.56816">
        <ele>295.742676</ele>
        <time>2013-09-23T15:02:15Z</time>
      </trkpt>
      <trkpt lat="43.27137" lon="-0.56848">
        <ele>297.665405</ele>
        <time>2013-09-23T15:02:33Z</time>
      </trkpt>
      <trkpt lat="43.27158" lon="-0.56899">
        <ele>299.1073</ele>
        <time>2013-09-23T15:03:01Z</time>
      </trkpt>
      <trkpt lat="43.27171" lon="-0.56928">
        <ele>301.991333</ele>
        <time>2013-09-23T15:03:17Z</time>
      </trkpt>
      <trkpt lat="43.27188" lon="-0.56963">
        <ele>303.433228</ele>
        <time>2013-09-23T15:03:37Z</time>
      </trkpt>
      <trkpt lat="43.27206" lon="-0.57">
        <ele>305.355957</ele>
        <time>2013-09-23T15:03:57Z</time>
      </trkpt>
      <trkpt lat="43.27226" lon="-0.57046">
        <ele>305.355957</ele>
        <time>2013-09-23T15:04:15Z</time>
      </trkpt>
      <trkpt lat="43.27266" lon="-0.57122">
        <ele>303.91394</ele>
        <time>2013-09-23T15:04:34Z</time>
      </trkpt>
      <trkpt lat="43.27316" lon="-0.57203">
        <ele>302.952515</ele>
        <time>2013-09-23T15:04:54Z</time>
      </trkpt>
      <trkpt lat="43.27366" lon="-0.57273">
        <ele>304.394653</ele>
        <time>2013-09-23T15:05:14Z</time>
      </trkpt>
      <trkpt lat="43.27391" lon="-0.57339">
        <ele>305.83667</ele>
        <time>2013-09-23T15:05:32Z</time>
      </trkpt>
      <trkpt lat="43.27421" lon="-0.57438">
        <ele>305.355957</ele>
        <time>2013-09-23T15:05:53Z</time>
      </trkpt>
      <trkpt lat="43.27444" lon="-0.57508">
        <ele>304.394653</ele>
        <time>2013-09-23T15:06:11Z</time>
      </trkpt>
      <trkpt lat="43.27469" lon="-0.57548">
        <ele>301.51062</ele>
        <time>2013-09-23T15:06:20Z</time>
      </trkpt>
      <trkpt lat="43.27476" lon="-0.57557">
        <ele>298.626709</ele>
        <time>2013-09-23T15:06:23Z</time>
      </trkpt>
      <trkpt lat="43.27491" lon="-0.57571">
        <ele>295.742676</ele>
        <time>2013-09-23T15:06:31Z</time>
      </trkpt>
      <trkpt lat="43.27499" lon="-0.57578">
        <ele>293.820068</ele>
        <time>2013-09-23T15:06:35Z</time>
      </trkpt>
      <trkpt lat="43.27515" lon="-0.57593">
        <ele>290.936157</ele>
        <time>2013-09-23T15:06:44Z</time>
      </trkpt>
      <trkpt lat="43.27518" lon="-0.57596">
        <ele>289.01355</ele>
        <time>2013-09-23T15:06:45Z</time>
      </trkpt>
      <trkpt lat="43.27558" lon="-0.5764">
        <ele>284.687622</ele>
        <time>2013-09-23T15:06:54Z</time>
      </trkpt>
      <trkpt lat="43.27561" lon="-0.57644">
        <ele>284.206909</ele>
        <time>2013-09-23T15:06:55Z</time>
      </trkpt>
      <trkpt lat="43.27572" lon="-0.57662">
        <ele>282.284302</ele>
        <time>2013-09-23T15:06:59Z</time>
      </trkpt>
      <trkpt lat="43.27575" lon="-0.57667">
        <ele>281.803589</ele>
        <time>2013-09-23T15:07:00Z</time>
      </trkpt>
      <trkpt lat="43.27585" lon="-0.57678">
        <ele>279.400269</ele>
        <time>2013-09-23T15:07:03Z</time>
      </trkpt>
      <trkpt lat="43.27594" lon="-0.57683">
        <ele>278.438965</ele>
        <time>2013-09-23T15:07:05Z</time>
      </trkpt>
      <trkpt lat="43.27619" lon="-0.57709">
        <ele>275.074463</ele>
        <time>2013-09-23T15:07:10Z</time>
      </trkpt>
      <trkpt lat="43.27626" lon="-0.5772">
        <ele>273.632446</ele>
        <time>2013-09-23T15:07:12Z</time>
      </trkpt>
      <trkpt lat="43.27634" lon="-0.57729">
        <ele>272.19043</ele>
        <time>2013-09-23T15:07:14Z</time>
      </trkpt>
      <trkpt lat="43.27643" lon="-0.57735">
        <ele>272.671143</ele>
        <time>2013-09-23T15:07:16Z</time>
      </trkpt>
      <trkpt lat="43.27692" lon="-0.57758">
        <ele>276.516357</ele>
        <time>2013-09-23T15:07:32Z</time>
      </trkpt>
      <trkpt lat="43.27702" lon="-0.57763">
        <ele>276.99707</ele>
        <time>2013-09-23T15:07:36Z</time>
      </trkpt>
      <trkpt lat="43.27751" lon="-0.57776">
        <ele>276.035645</ele>
        <time>2013-09-23T15:07:52Z</time>
      </trkpt>
      <trkpt lat="43.27801" lon="-0.57773">
        <ele>277.477661</ele>
        <time>2013-09-23T15:08:06Z</time>
      </trkpt>
      <trkpt lat="43.27843" lon="-0.57775">
        <ele>278.438965</ele>
        <time>2013-09-23T15:08:24Z</time>
      </trkpt>
      <trkpt lat="43.27885" lon="-0.5778">
        <ele>281.803589</ele>
        <time>2013-09-23T15:08:44Z</time>
      </trkpt>
      <trkpt lat="43.27921" lon="-0.5776">
        <ele>283.245605</ele>
        <time>2013-09-23T15:09:02Z</time>
      </trkpt>
      <trkpt lat="43.27936" lon="-0.57746">
        <ele>286.129517</ele>
        <time>2013-09-23T15:09:14Z</time>
      </trkpt>
      <trkpt lat="43.27951" lon="-0.57735">
        <ele>289.974854</ele>
        <time>2013-09-23T15:09:26Z</time>
      </trkpt>
      <trkpt lat="43.2798" lon="-0.5773">
        <ele>292.858765</ele>
        <time>2013-09-23T15:09:46Z</time>
      </trkpt>
      <trkpt lat="43.28012" lon="-0.57726">
        <ele>295.742676</ele>
        <time>2013-09-23T15:10:08Z</time>
      </trkpt>
      <trkpt lat="43.28045" lon="-0.57721">
        <ele>298.146118</ele>
        <time>2013-09-23T15:10:31Z</time>
      </trkpt>
      <trkpt lat="43.28077" lon="-0.57723">
        <ele>301.029907</ele>
        <time>2013-09-23T15:10:51Z</time>
      </trkpt>
      <trkpt lat="43.2811" lon="-0.57728">
        <ele>302.952515</ele>
        <time>2013-09-23T15:11:10Z</time>
      </trkpt>
      <trkpt lat="43.2815" lon="-0.57725">
        <ele>302.952515</ele>
        <time>2013-09-23T15:11:26Z</time>
      </trkpt>
      <trkpt lat="43.28194" lon="-0.57711">
        <ele>302.952515</ele>
        <time>2013-09-23T15:11:38Z</time>
      </trkpt>
      <trkpt lat="43.28205" lon="-0.57709">
        <ele>301.991333</ele>
        <time>2013-09-23T15:11:40Z</time>
      </trkpt>
      <trkpt lat="43.2829" lon="-0.57733">
        <ele>300.068726</ele>
        <time>2013-09-23T15:11:57Z</time>
      </trkpt>
      <trkpt lat="43.28363" lon="-0.5776">
        <ele>301.51062</ele>
        <time>2013-09-23T15:12:14Z</time>
      </trkpt>
      <trkpt lat="43.28433" lon="-0.57795">
        <ele>301.029907</ele>
        <time>2013-09-23T15:12:31Z</time>
      </trkpt>
      <trkpt lat="43.28474" lon="-0.5781">
        <ele>299.588013</ele>
        <time>2013-09-23T15:12:39Z</time>
      </trkpt>
      <trkpt lat="43.2855" lon="-0.57846">
        <ele>298.146118</ele>
        <time>2013-09-23T15:12:52Z</time>
      </trkpt>
      <trkpt lat="43.28615" lon="-0.57898">
        <ele>297.184692</ele>
        <time>2013-09-23T15:13:07Z</time>
      </trkpt>
      <trkpt lat="43.2871" lon="-0.57974">
        <ele>295.742676</ele>
        <time>2013-09-23T15:13:26Z</time>
      </trkpt>
      <trkpt lat="43.28723" lon="-0.57988">
        <ele>295.261963</ele>
        <time>2013-09-23T15:13:29Z</time>
      </trkpt>
      <trkpt lat="43.28764" lon="-0.58016">
        <ele>293.339355</ele>
        <time>2013-09-23T15:13:38Z</time>
      </trkpt>
      <trkpt lat="43.28772" lon="-0.5802">
        <ele>294.300781</ele>
        <time>2013-09-23T15:13:40Z</time>
      </trkpt>
      <trkpt lat="43.28801" lon="-0.58036">
        <ele>292.378174</ele>
        <time>2013-09-23T15:13:45Z</time>
      </trkpt>
      <trkpt lat="43.28835" lon="-0.58059">
        <ele>289.974854</ele>
        <time>2013-09-23T15:13:49Z</time>
      </trkpt>
      <trkpt lat="43.28864" lon="-0.58078">
        <ele>285.648804</ele>
        <time>2013-09-23T15:13:52Z</time>
      </trkpt>
      <trkpt lat="43.28883" lon="-0.58089">
        <ele>283.726196</ele>
        <time>2013-09-23T15:13:54Z</time>
      </trkpt>
      <trkpt lat="43.28912" lon="-0.58098">
        <ele>281.803589</ele>
        <time>2013-09-23T15:13:57Z</time>
      </trkpt>
      <trkpt lat="43.28922" lon="-0.58099">
        <ele>281.803589</ele>
        <time>2013-09-23T15:13:58Z</time>
      </trkpt>
      <trkpt lat="43.28986" lon="-0.58118">
        <ele>281.803589</ele>
        <time>2013-09-23T15:14:08Z</time>
      </trkpt>
      <trkpt lat="43.2902" lon="-0.5814">
        <ele>284.687622</ele>
        <time>2013-09-23T15:14:21Z</time>
      </trkpt>
      <trkpt lat="43.29038" lon="-0.58158">
        <ele>288.532959</ele>
        <time>2013-09-23T15:14:31Z</time>
      </trkpt>
      <trkpt lat="43.29048" lon="-0.58171">
        <ele>288.532959</ele>
        <time>2013-09-23T15:14:37Z</time>
      </trkpt>
      <trkpt lat="43.29064" lon="-0.58188">
        <ele>290.936157</ele>
        <time>2013-09-23T15:14:48Z</time>
      </trkpt>
      <trkpt lat="43.2909" lon="-0.58212">
        <ele>292.858765</ele>
        <time>2013-09-23T15:15:07Z</time>
      </trkpt>
      <trkpt lat="43.29108" lon="-0.58228">
        <ele>295.261963</ele>
        <time>2013-09-23T15:15:21Z</time>
      </trkpt>
      <trkpt lat="43.2914" lon="-0.58255">
        <ele>298.146118</ele>
        <time>2013-09-23T15:15:45Z</time>
      </trkpt>
      <trkpt lat="43.29175" lon="-0.58277">
        <ele>299.588013</ele>
        <time>2013-09-23T15:16:05Z</time>
      </trkpt>
      <trkpt lat="43.29217" lon="-0.58286">
        <ele>299.588013</ele>
        <time>2013-09-23T15:16:20Z</time>
      </trkpt>
      <trkpt lat="43.29247" lon="-0.58275">
        <ele>295.261963</ele>
        <time>2013-09-23T15:16:26Z</time>
      </trkpt>
      <trkpt lat="43.29256" lon="-0.58272">
        <ele>294.300781</ele>
        <time>2013-09-23T15:16:28Z</time>
      </trkpt>
      <trkpt lat="43.29265" lon="-0.58268">
        <ele>292.378174</ele>
        <time>2013-09-23T15:16:30Z</time>
      </trkpt>
      <trkpt lat="43.29281" lon="-0.58264">
        <ele>290.455566</ele>
        <time>2013-09-23T15:16:33Z</time>
      </trkpt>
      <trkpt lat="43.29299" lon="-0.58263">
        <ele>287.09082</ele>
        <time>2013-09-23T15:16:37Z</time>
      </trkpt>
      <trkpt lat="43.29309" lon="-0.58263">
        <ele>285.648804</ele>
        <time>2013-09-23T15:16:39Z</time>
      </trkpt>
      <trkpt lat="43.29331" lon="-0.58256">
        <ele>280.842407</ele>
        <time>2013-09-23T15:16:43Z</time>
      </trkpt>
      <trkpt lat="43.29344" lon="-0.5824">
        <ele>278.438965</ele>
        <time>2013-09-23T15:16:47Z</time>
      </trkpt>
      <trkpt lat="43.29351" lon="-0.58197">
        <ele>275.555054</ele>
        <time>2013-09-23T15:16:54Z</time>
      </trkpt>
      <trkpt lat="43.29362" lon="-0.58194">
        <ele>275.555054</ele>
        <time>2013-09-23T15:16:56Z</time>
      </trkpt>
      <trkpt lat="43.29404" lon="-0.58187">
        <ele>273.632446</ele>
        <time>2013-09-23T15:17:03Z</time>
      </trkpt>
      <trkpt lat="43.29436" lon="-0.58163">
        <ele>274.113037</ele>
        <time>2013-09-23T15:17:10Z</time>
      </trkpt>
      <trkpt lat="43.29481" lon="-0.58127">
        <ele>271.229126</ele>
        <time>2013-09-23T15:17:19Z</time>
      </trkpt>
      <trkpt lat="43.29499" lon="-0.58119">
        <ele>270.748413</ele>
        <time>2013-09-23T15:17:22Z</time>
      </trkpt>
      <trkpt lat="43.29518" lon="-0.58115">
        <ele>270.2677</ele>
        <time>2013-09-23T15:17:25Z</time>
      </trkpt>
      <trkpt lat="43.29562" lon="-0.58149">
        <ele>268.345093</ele>
        <time>2013-09-23T15:17:32Z</time>
      </trkpt>
      <trkpt lat="43.29586" lon="-0.58215">
        <ele>264.980591</ele>
        <time>2013-09-23T15:17:38Z</time>
      </trkpt>
      <trkpt lat="43.29591" lon="-0.58241">
        <ele>264.499878</ele>
        <time>2013-09-23T15:17:40Z</time>
      </trkpt>
      <trkpt lat="43.29594" lon="-0.5828">
        <ele>261.135254</ele>
        <time>2013-09-23T15:17:43Z</time>
      </trkpt>
      <trkpt lat="43.29589" lon="-0.58319">
        <ele>257.770752</ele>
        <time>2013-09-23T15:17:47Z</time>
      </trkpt>
      <trkpt lat="43.29607" lon="-0.58306">
        <ele>257.290039</ele>
        <time>2013-09-23T15:17:52Z</time>
      </trkpt>
      <trkpt lat="43.29613" lon="-0.58286">
        <ele>256.809326</ele>
        <time>2013-09-23T15:17:54Z</time>
      </trkpt>
      <trkpt lat="43.2962" lon="-0.58251">
        <ele>255.36731</ele>
        <time>2013-09-23T15:17:57Z</time>
      </trkpt>
      <trkpt lat="43.29629" lon="-0.58204">
        <ele>252.002808</ele>
        <time>2013-09-23T15:18:01Z</time>
      </trkpt>
      <trkpt lat="43.29647" lon="-0.5816">
        <ele>249.599487</ele>
        <time>2013-09-23T15:18:05Z</time>
      </trkpt>
      <trkpt lat="43.29653" lon="-0.58151">
        <ele>249.118774</ele>
        <time>2013-09-23T15:18:06Z</time>
      </trkpt>
      <trkpt lat="43.2967" lon="-0.58128">
        <ele>245.273438</ele>
        <time>2013-09-23T15:18:09Z</time>
      </trkpt>
      <trkpt lat="43.29681" lon="-0.5812">
        <ele>244.312256</ele>
        <time>2013-09-23T15:18:11Z</time>
      </trkpt>
      <trkpt lat="43.29697" lon="-0.58122">
        <ele>242.870239</ele>
        <time>2013-09-23T15:18:13Z</time>
      </trkpt>
      <trkpt lat="43.29755" lon="-0.58141">
        <ele>238.544312</ele>
        <time>2013-09-23T15:18:19Z</time>
      </trkpt>
      <trkpt lat="43.29792" lon="-0.58168">
        <ele>236.621704</ele>
        <time>2013-09-23T15:18:23Z</time>
      </trkpt>
      <trkpt lat="43.29862" lon="-0.58256">
        <ele>235.660278</ele>
        <time>2013-09-23T15:18:34Z</time>
      </trkpt>
      <trkpt lat="43.29891" lon="-0.58311">
        <ele>236.621704</ele>
        <time>2013-09-23T15:18:44Z</time>
      </trkpt>
      <trkpt lat="43.29926" lon="-0.58349">
        <ele>238.063599</ele>
        <time>2013-09-23T15:18:58Z</time>
      </trkpt>
      <trkpt lat="43.29945" lon="-0.58368">
        <ele>241.428223</ele>
        <time>2013-09-23T15:19:07Z</time>
      </trkpt>
      <trkpt lat="43.29987" lon="-0.5839">
        <ele>243.35083</ele>
        <time>2013-09-23T15:19:26Z</time>
      </trkpt>
      <trkpt lat="43.30028" lon="-0.58398">
        <ele>245.75415</ele>
        <time>2013-09-23T15:19:43Z</time>
      </trkpt>
      <trkpt lat="43.30072" lon="-0.584">
        <ele>246.234863</ele>
        <time>2013-09-23T15:20:00Z</time>
      </trkpt>
      <trkpt lat="43.30135" lon="-0.58427">
        <ele>242.870239</ele>
        <time>2013-09-23T15:20:11Z</time>
      </trkpt>
      <trkpt lat="43.30219" lon="-0.58456">
        <ele>241.428223</ele>
        <time>2013-09-23T15:20:24Z</time>
      </trkpt>
      <trkpt lat="43.30243" lon="-0.58463">
        <ele>241.428223</ele>
        <time>2013-09-23T15:20:29Z</time>
      </trkpt>
      <trkpt lat="43.30276" lon="-0.58457">
        <ele>241.908936</ele>
        <time>2013-09-23T15:20:36Z</time>
      </trkpt>
      <trkpt lat="43.303" lon="-0.58457">
        <ele>241.908936</ele>
        <time>2013-09-23T15:20:45Z</time>
      </trkpt>
      <trkpt lat="43.30322" lon="-0.58465">
        <ele>243.35083</ele>
        <time>2013-09-23T15:21:02Z</time>
      </trkpt>
      <trkpt lat="43.30335" lon="-0.58477">
        <ele>245.75415</ele>
        <time>2013-09-23T15:21:18Z</time>
      </trkpt>
      <trkpt lat="43.30339" lon="-0.5848">
        <ele>247.196045</ele>
        <time>2013-09-23T15:21:22Z</time>
      </trkpt>
      <trkpt lat="43.30351" lon="-0.58493">
        <ele>250.0802</ele>
        <time>2013-09-23T15:21:38Z</time>
      </trkpt>
      <trkpt lat="43.30362" lon="-0.58515">
        <ele>253.444702</ele>
        <time>2013-09-23T15:21:55Z</time>
      </trkpt>
      <trkpt lat="43.30368" lon="-0.5854">
        <ele>256.809326</ele>
        <time>2013-09-23T15:22:12Z</time>
      </trkpt>
      <trkpt lat="43.30368" lon="-0.58542">
        <ele>256.809326</ele>
        <time>2013-09-23T15:22:13Z</time>
      </trkpt>
      <trkpt lat="43.30368" lon="-0.58562">
        <ele>256.809326</ele>
        <time>2013-09-23T15:22:33Z</time>
      </trkpt>
      <trkpt lat="43.30376" lon="-0.58588">
        <ele>259.212646</ele>
        <time>2013-09-23T15:22:50Z</time>
      </trkpt>
      <trkpt lat="43.3039" lon="-0.58617">
        <ele>261.615967</ele>
        <time>2013-09-23T15:23:09Z</time>
      </trkpt>
      <trkpt lat="43.30403" lon="-0.58647">
        <ele>263.057861</ele>
        <time>2013-09-23T15:23:25Z</time>
      </trkpt>
      <trkpt lat="43.30417" lon="-0.58674">
        <ele>265.461304</ele>
        <time>2013-09-23T15:23:41Z</time>
      </trkpt>
      <trkpt lat="43.30439" lon="-0.58705">
        <ele>268.345093</ele>
        <time>2013-09-23T15:24:02Z</time>
      </trkpt>
      <trkpt lat="43.30459" lon="-0.58734">
        <ele>269.306519</ele>
        <time>2013-09-23T15:24:21Z</time>
      </trkpt>
      <trkpt lat="43.30478" lon="-0.58767">
        <ele>270.748413</ele>
        <time>2013-09-23T15:24:39Z</time>
      </trkpt>
      <trkpt lat="43.30481" lon="-0.58777">
        <ele>270.2677</ele>
        <time>2013-09-23T15:24:43Z</time>
      </trkpt>
      <trkpt lat="43.30495" lon="-0.5878">
        <ele>269.787109</ele>
        <time>2013-09-23T15:24:48Z</time>
      </trkpt>
      <trkpt lat="43.30503" lon="-0.58776">
        <ele>269.306519</ele>
        <time>2013-09-23T15:24:50Z</time>
      </trkpt>
      <trkpt lat="43.3053" lon="-0.58737">
        <ele>265.941895</ele>
        <time>2013-09-23T15:24:59Z</time>
      </trkpt>
      <trkpt lat="43.30546" lon="-0.58697">
        <ele>263.057861</ele>
        <time>2013-09-23T15:25:04Z</time>
      </trkpt>
      <trkpt lat="43.30561" lon="-0.58663">
        <ele>262.577148</ele>
        <time>2013-09-23T15:25:08Z</time>
      </trkpt>
      <trkpt lat="43.30576" lon="-0.58644">
        <ele>262.096558</ele>
        <time>2013-09-23T15:25:12Z</time>
      </trkpt>
      <trkpt lat="43.30626" lon="-0.58593">
        <ele>259.212646</ele>
        <time>2013-09-23T15:25:25Z</time>
      </trkpt>
      <trkpt lat="43.30632" lon="-0.58588">
        <ele>259.212646</ele>
        <time>2013-09-23T15:25:26Z</time>
      </trkpt>
      <trkpt lat="43.3065" lon="-0.58579">
        <ele>257.290039</ele>
        <time>2013-09-23T15:25:29Z</time>
      </trkpt>
      <trkpt lat="43.30712" lon="-0.58535">
        <ele>253.444702</ele>
        <time>2013-09-23T15:25:38Z</time>
      </trkpt>
      <trkpt lat="43.3073" lon="-0.58521">
        <ele>252.002808</ele>
        <time>2013-09-23T15:25:40Z</time>
      </trkpt>
      <trkpt lat="43.30789" lon="-0.58511">
        <ele>250.0802</ele>
        <time>2013-09-23T15:25:46Z</time>
      </trkpt>
      <trkpt lat="43.30816" lon="-0.58521">
        <ele>248.157593</ele>
        <time>2013-09-23T15:25:49Z</time>
      </trkpt>
      <trkpt lat="43.30856" lon="-0.58526">
        <ele>245.75415</ele>
        <time>2013-09-23T15:25:53Z</time>
      </trkpt>
      <trkpt lat="43.30881" lon="-0.58529">
        <ele>241.908936</ele>
        <time>2013-09-23T15:25:56Z</time>
      </trkpt>
      <trkpt lat="43.30888" lon="-0.58529">
        <ele>241.428223</ele>
        <time>2013-09-23T15:25:57Z</time>
      </trkpt>
      <trkpt lat="43.3091" lon="-0.58514">
        <ele>240.467041</ele>
        <time>2013-09-23T15:26:01Z</time>
      </trkpt>
      <trkpt lat="43.30929" lon="-0.58503">
        <ele>239.024902</ele>
        <time>2013-09-23T15:26:04Z</time>
      </trkpt>
      <trkpt lat="43.30962" lon="-0.58517">
        <ele>239.505493</ele>
        <time>2013-09-23T15:26:09Z</time>
      </trkpt>
      <trkpt lat="43.31049" lon="-0.58569">
        <ele>238.544312</ele>
        <time>2013-09-23T15:26:22Z</time>
      </trkpt>
      <trkpt lat="43.31091" lon="-0.58564">
        <ele>236.621704</ele>
        <time>2013-09-23T15:26:27Z</time>
      </trkpt>
      <trkpt lat="43.31108" lon="-0.58561">
        <ele>235.179688</ele>
        <time>2013-09-23T15:26:29Z</time>
      </trkpt>
      <trkpt lat="43.31147" lon="-0.58551">
        <ele>232.776489</ele>
        <time>2013-09-23T15:26:34Z</time>
      </trkpt>
      <trkpt lat="43.31159" lon="-0.58546">
        <ele>231.814941</ele>
        <time>2013-09-23T15:26:36Z</time>
      </trkpt>
      <trkpt lat="43.31225" lon="-0.58559">
        <ele>227.008545</ele>
        <time>2013-09-23T15:26:47Z</time>
      </trkpt>
      <trkpt lat="43.31232" lon="-0.58561">
        <ele>227.489136</ele>
        <time>2013-09-23T15:26:48Z</time>
      </trkpt>
      <trkpt lat="43.31267" lon="-0.58572">
        <ele>226.527832</ele>
        <time>2013-09-23T15:26:53Z</time>
      </trkpt>
      <trkpt lat="43.31329" lon="-0.58598">
        <ele>224.605225</ele>
        <time>2013-09-23T15:27:01Z</time>
      </trkpt>
      <trkpt lat="43.31383" lon="-0.58601">
        <ele>225.085938</ele>
        <time>2013-09-23T15:27:11Z</time>
      </trkpt>
      <trkpt lat="43.31431" lon="-0.58597">
        <ele>221.721191</ele>
        <time>2013-09-23T15:27:24Z</time>
      </trkpt>
      <trkpt lat="43.31447" lon="-0.58583">
        <ele>221.240601</ele>
        <time>2013-09-23T15:27:30Z</time>
      </trkpt>
      <trkpt lat="43.31453" lon="-0.58577">
        <ele>219.798584</ele>
        <time>2013-09-23T15:27:32Z</time>
      </trkpt>
      <trkpt lat="43.3146" lon="-0.5857">
        <ele>219.798584</ele>
        <time>2013-09-23T15:27:34Z</time>
      </trkpt>
      <trkpt lat="43.31482" lon="-0.58552">
        <ele>219.317993</ele>
        <time>2013-09-23T15:27:38Z</time>
      </trkpt>
      <trkpt lat="43.31496" lon="-0.58545">
        <ele>218.356567</ele>
        <time>2013-09-23T15:27:40Z</time>
      </trkpt>
      <trkpt lat="43.31521" lon="-0.58538">
        <ele>216.43396</ele>
        <time>2013-09-23T15:27:43Z</time>
      </trkpt>
      <trkpt lat="43.31553" lon="-0.58538">
        <ele>214.03064</ele>
        <time>2013-09-23T15:27:47Z</time>
      </trkpt>
      <trkpt lat="43.31571" lon="-0.58538">
        <ele>210.185425</ele>
        <time>2013-09-23T15:27:50Z</time>
      </trkpt>
      <trkpt lat="43.31576" lon="-0.58539">
        <ele>209.704834</ele>
        <time>2013-09-23T15:27:51Z</time>
      </trkpt>
      <trkpt lat="43.3159" lon="-0.58561">
        <ele>210.185425</ele>
        <time>2013-09-23T15:27:57Z</time>
      </trkpt>
      <trkpt lat="43.31593" lon="-0.58624">
        <ele>212.108032</ele>
        <time>2013-09-23T15:28:10Z</time>
      </trkpt>
      <trkpt lat="43.3158" lon="-0.58652">
        <ele>214.03064</ele>
        <time>2013-09-23T15:28:20Z</time>
      </trkpt>
      <trkpt lat="43.31579" lon="-0.58652">
        <ele>213.550049</ele>
        <time>2013-09-23T15:28:34Z</time>
      </trkpt>
      <trkpt lat="43.31577" lon="-0.58653">
        <ele>213.550049</ele>
        <time>2013-09-23T15:28:50Z</time>
      </trkpt>
      <trkpt lat="43.31577" lon="-0.58651">
        <ele>213.069336</ele>
        <time>2013-09-23T15:29:04Z</time>
      </trkpt>
      <trkpt lat="43.31576" lon="-0.58651">
        <ele>202.975464</ele>
        <time>2013-09-23T15:29:10Z</time>
      </trkpt>
      <trkpt lat="43.31576" lon="-0.58651">
        <ele>213.550049</ele>
        <time>2013-09-23T15:29:11Z</time>
      </trkpt>
      <trkpt lat="43.31575" lon="-0.5865">
        <ele>214.03064</ele>
        <time>2013-09-23T15:29:13Z</time>
      </trkpt>
      <trkpt lat="43.31573" lon="-0.58652">
        <ele>212.108032</ele>
        <time>2013-09-23T15:29:21Z</time>
      </trkpt>
    </trkseg>
  </trk>
</gpx>